PWSweather.com
Personal Weather Stations
Station Observations
KNEOMA130
Stonybrook South, Omaha, NE 68138

Stonybrook SouthOmaha, NE 68138

Lat: 41.190485, Lon: -96.13102900000001

Elevation: 1142

Station Type: Davis VP2

http://chappelleweather.com

High Low Average
Temperature 74.8°F23.8°C 56.8°F13.8°C 66.5°F19.2°C
Dew Point 63.8°F17.7°C 55.4°F13.0°C 60.0°F15.6°C
Winds 19.0 mph 30.6 kmh Calm Calm 4.0 mph S6.4 kmh S
Wind Gusts 27.0 mph43.5 kmh 1.0 mph1.6 kmh 12.0 mph19.3 kmh
Humidity 95% 63% 80%
Pressure 29.66 in1004.4 mb 29.45 in997.3 mb -
Precipitation 0.45 in11.4 mm - -
Hour Temp Dew Point Humidity Winds Wind Gusts Pressure Precip Precip Rate Daily Precip Total
12:00 AM 74.4°F23.6°C 64.0°F17.8°C 70% 7.0 mph ESE11.3 kmh ESE 18.0 mph29.0 kmh 29.57 in1001.4 mb 0.00 in0.0 mm 0.00 in0.0 mm 0.00 in0.0 mm
12:01 AM 74.4°F23.6°C 64.0°F17.8°C 70% 6.0 mph S9.7 kmh S 18.0 mph29.0 kmh 29.57 in1001.4 mb 0.00 in0.0 mm 0.00 in0.0 mm 0.00 in0.0 mm
12:02 AM 74.4°F23.6°C 64.0°F17.8°C 70% 5.0 mph SSE8.0 kmh SSE 18.0 mph29.0 kmh 29.57 in1001.4 mb 0.00 in0.0 mm 0.00 in0.0 mm 0.00 in0.0 mm
12:03 AM 74.3°F23.5°C 63.9°F17.7°C 70% 9.0 mph E14.5 kmh E 15.0 mph24.1 kmh 29.57 in1001.4 mb 0.00 in0.0 mm 0.00 in0.0 mm 0.00 in0.0 mm
12:04 AM 74.3°F23.5°C 63.9°F17.7°C 70% 6.0 mph SSE9.7 kmh SSE 15.0 mph24.1 kmh 29.57 in1001.4 mb 0.00 in0.0 mm 0.00 in0.0 mm 0.00 in0.0 mm
12:05 AM 74.2°F23.4°C 63.8°F17.7°C 70% 11.0 mph SE17.7 kmh SE 18.0 mph29.0 kmh 29.57 in1001.4 mb 0.00 in0.0 mm 0.00 in0.0 mm 0.00 in0.0 mm
12:06 AM 74.2°F23.4°C 63.8°F17.7°C 70% 6.0 mph SE9.7 kmh SE 18.0 mph29.0 kmh 29.57 in1001.4 mb 0.00 in0.0 mm 0.00 in0.0 mm 0.00 in0.0 mm
12:07 AM 74.2°F23.4°C 63.8°F17.7°C 70% 4.0 mph S6.4 kmh S 18.0 mph29.0 kmh 29.57 in1001.4 mb 0.00 in0.0 mm 0.00 in0.0 mm 0.00 in0.0 mm
12:08 AM 74.2°F23.4°C 63.8°F17.7°C 70% 5.0 mph E8.0 kmh E 18.0 mph29.0 kmh 29.57 in1001.4 mb 0.00 in0.0 mm 0.00 in0.0 mm 0.00 in0.0 mm
12:09 AM 74.2°F23.4°C 63.8°F17.7°C 70% 8.0 mph SE12.9 kmh SE 18.0 mph29.0 kmh 29.57 in1001.4 mb 0.00 in0.0 mm 0.00 in0.0 mm 0.00 in0.0 mm
12:10 AM 74.2°F23.4°C 63.8°F17.7°C 70% 10.0 mph S16.1 kmh S 18.0 mph29.0 kmh 29.57 in1001.4 mb 0.00 in0.0 mm 0.00 in0.0 mm 0.00 in0.0 mm
12:11 AM 74.1°F23.4°C 63.7°F17.6°C 70% 4.0 mph SE6.4 kmh SE 18.0 mph29.0 kmh 29.57 in1001.4 mb 0.00 in0.0 mm 0.00 in0.0 mm 0.00 in0.0 mm
12:12 AM 74.1°F23.4°C 63.7°F17.6°C 70% 9.0 mph S14.5 kmh S 18.0 mph29.0 kmh 29.58 in1001.7 mb 0.00 in0.0 mm 0.00 in0.0 mm 0.00 in0.0 mm
12:13 AM 74.1°F23.4°C 63.7°F17.6°C 70% 15.0 mph SSE24.1 kmh SSE 18.0 mph29.0 kmh 29.57 in1001.4 mb 0.00 in0.0 mm 0.00 in0.0 mm 0.00 in0.0 mm
12:14 AM 74.1°F23.4°C 63.7°F17.6°C 70% 12.0 mph S19.3 kmh S 19.0 mph30.6 kmh 29.57 in1001.4 mb 0.00 in0.0 mm 0.00 in0.0 mm 0.00 in0.0 mm
12:15 AM 74.1°F23.4°C 63.7°F17.6°C 70% 9.0 mph ESE14.5 kmh ESE 19.0 mph30.6 kmh 29.57 in1001.4 mb 0.00 in0.0 mm 0.00 in0.0 mm 0.00 in0.0 mm
12:16 AM 74.1°F23.4°C 63.7°F17.6°C 70% 10.0 mph SSE16.1 kmh SSE 19.0 mph30.6 kmh 29.57 in1001.4 mb 0.00 in0.0 mm 0.00 in0.0 mm 0.00 in0.0 mm
12:17 AM 74.0°F23.3°C 63.6°F17.6°C 70% 3.0 mph SSW4.8 kmh SSW 19.0 mph30.6 kmh 29.57 in1001.4 mb 0.00 in0.0 mm 0.00 in0.0 mm 0.00 in0.0 mm
12:18 AM 74.0°F23.3°C 63.6°F17.6°C 70% 7.0 mph ESE11.3 kmh ESE 19.0 mph30.6 kmh 29.57 in1001.4 mb 0.00 in0.0 mm 0.00 in0.0 mm 0.00 in0.0 mm
12:19 AM 74.0°F23.3°C 63.6°F17.6°C 70% 13.0 mph S20.9 kmh S 19.0 mph30.6 kmh 29.57 in1001.4 mb 0.00 in0.0 mm 0.00 in0.0 mm 0.00 in0.0 mm
12:20 AM 74.0°F23.3°C 63.6°F17.6°C 70% 8.0 mph S12.9 kmh S 19.0 mph30.6 kmh 29.58 in1001.7 mb 0.00 in0.0 mm 0.00 in0.0 mm 0.00 in0.0 mm
12:21 AM 74.0°F23.3°C 63.6°F17.6°C 70% 7.0 mph S11.3 kmh S 19.0 mph30.6 kmh 29.57 in1001.4 mb 0.00 in0.0 mm 0.00 in0.0 mm 0.00 in0.0 mm
12:22 AM 74.0°F23.3°C 63.6°F17.6°C 70% 7.0 mph SSE11.3 kmh SSE 19.0 mph30.6 kmh 29.58 in1001.7 mb 0.00 in0.0 mm 0.00 in0.0 mm 0.00 in0.0 mm
12:23 AM 74.0°F23.3°C 63.6°F17.6°C 70% 4.0 mph SE6.4 kmh SE 19.0 mph30.6 kmh 29.58 in1001.7 mb 0.00 in0.0 mm 0.00 in0.0 mm 0.00 in0.0 mm
12:24 AM 73.9°F23.3°C 63.5°F17.5°C 70% 12.0 mph S19.3 kmh S 17.0 mph27.4 kmh 29.58 in1001.7 mb 0.00 in0.0 mm 0.00 in0.0 mm 0.00 in0.0 mm
12:25 AM 73.9°F23.3°C 63.5°F17.5°C 70% 2.0 mph SSW3.2 kmh SSW 17.0 mph27.4 kmh 29.58 in1001.7 mb 0.00 in0.0 mm 0.00 in0.0 mm 0.00 in0.0 mm
12:26 AM 73.9°F23.3°C 63.5°F17.5°C 70% 9.0 mph SE14.5 kmh SE 17.0 mph27.4 kmh 29.58 in1001.7 mb 0.00 in0.0 mm 0.00 in0.0 mm 0.00 in0.0 mm
12:27 AM 73.9°F23.3°C 63.5°F17.5°C 70% 2.0 mph SE3.2 kmh SE 17.0 mph27.4 kmh 29.58 in1001.7 mb 0.00 in0.0 mm 0.00 in0.0 mm 0.00 in0.0 mm
12:28 AM 73.8°F23.2°C 63.4°F17.4°C 70% 8.0 mph ESE12.9 kmh ESE 17.0 mph27.4 kmh 29.58 in1001.7 mb 0.00 in0.0 mm 0.00 in0.0 mm 0.00 in0.0 mm
12:29 AM 73.8°F23.2°C 63.4°F17.4°C 70% 5.0 mph SSE8.0 kmh SSE 17.0 mph27.4 kmh 29.58 in1001.7 mb 0.00 in0.0 mm 0.00 in0.0 mm 0.00 in0.0 mm
12:30 AM 73.8°F23.2°C 63.4°F17.4°C 70% 10.0 mph SE16.1 kmh SE 17.0 mph27.4 kmh 29.58 in1001.7 mb 0.00 in0.0 mm 0.00 in0.0 mm 0.00 in0.0 mm
12:31 AM 73.8°F23.2°C 63.4°F17.4°C 70% 7.0 mph S11.3 kmh S 17.0 mph27.4 kmh 29.58 in1001.7 mb 0.00 in0.0 mm 0.00 in0.0 mm 0.00 in0.0 mm
12:32 AM 73.7°F23.2°C 63.7°F17.6°C 71% 6.0 mph S9.7 kmh S 17.0 mph27.4 kmh 29.58 in1001.7 mb 0.00 in0.0 mm 0.00 in0.0 mm 0.00 in0.0 mm
12:33 AM 73.7°F23.2°C 63.7°F17.6°C 71% 12.0 mph S19.3 kmh S 17.0 mph27.4 kmh 29.58 in1001.7 mb 0.00 in0.0 mm 0.00 in0.0 mm 0.00 in0.0 mm
12:34 AM 73.6°F23.1°C 63.6°F17.6°C 71% 7.0 mph E11.3 kmh E 17.0 mph27.4 kmh 29.58 in1001.7 mb 0.00 in0.0 mm 0.00 in0.0 mm 0.00 in0.0 mm
12:35 AM 73.6°F23.1°C 63.6°F17.6°C 71% 10.0 mph S16.1 kmh S 17.0 mph27.4 kmh 29.58 in1001.7 mb 0.00 in0.0 mm 0.00 in0.0 mm 0.00 in0.0 mm
12:36 AM 73.6°F23.1°C 63.6°F17.6°C 71% 6.0 mph SE9.7 kmh SE 18.0 mph29.0 kmh 29.58 in1001.7 mb 0.00 in0.0 mm 0.00 in0.0 mm 0.00 in0.0 mm
12:37 AM 73.6°F23.1°C 63.6°F17.6°C 71% 6.0 mph S9.7 kmh S 18.0 mph29.0 kmh 29.58 in1001.7 mb 0.00 in0.0 mm 0.00 in0.0 mm 0.00 in0.0 mm
12:38 AM 73.6°F23.1°C 63.6°F17.6°C 71% 6.0 mph SSE9.7 kmh SSE 18.0 mph29.0 kmh 29.58 in1001.7 mb 0.00 in0.0 mm 0.00 in0.0 mm 0.00 in0.0 mm
12:39 AM 73.5°F23.1°C 63.5°F17.5°C 71% 9.0 mph S14.5 kmh S 18.0 mph29.0 kmh 29.58 in1001.7 mb 0.00 in0.0 mm 0.00 in0.0 mm 0.00 in0.0 mm
12:40 AM 73.5°F23.1°C 63.5°F17.5°C 71% 9.0 mph SSE14.5 kmh SSE 18.0 mph29.0 kmh 29.58 in1001.7 mb 0.00 in0.0 mm 0.00 in0.0 mm 0.00 in0.0 mm
12:41 AM 73.5°F23.1°C 63.5°F17.5°C 71% 7.0 mph SSW11.3 kmh SSW 18.0 mph29.0 kmh 29.58 in1001.7 mb 0.00 in0.0 mm 0.00 in0.0 mm 0.00 in0.0 mm
12:42 AM 73.5°F23.1°C 63.5°F17.5°C 71% 10.0 mph S16.1 kmh S 18.0 mph29.0 kmh 29.58 in1001.7 mb 0.00 in0.0 mm 0.00 in0.0 mm 0.00 in0.0 mm
12:43 AM 73.4°F23.0°C 63.4°F17.4°C 71% 6.0 mph S9.7 kmh S 18.0 mph29.0 kmh 29.58 in1001.7 mb 0.00 in0.0 mm 0.00 in0.0 mm 0.00 in0.0 mm
12:44 AM 73.4°F23.0°C 63.4°F17.4°C 71% 10.0 mph SE16.1 kmh SE 18.0 mph29.0 kmh 29.58 in1001.7 mb 0.00 in0.0 mm 0.00 in0.0 mm 0.00 in0.0 mm
12:45 AM 73.4°F23.0°C 63.4°F17.4°C 71% 9.0 mph SSW14.5 kmh SSW 18.0 mph29.0 kmh 29.58 in1001.7 mb 0.00 in0.0 mm 0.00 in0.0 mm 0.00 in0.0 mm
12:46 AM 73.4°F23.0°C 63.4°F17.4°C 71% 8.0 mph SSE12.9 kmh SSE 17.0 mph27.4 kmh 29.58 in1001.7 mb 0.00 in0.0 mm 0.00 in0.0 mm 0.00 in0.0 mm
12:47 AM 73.4°F23.0°C 63.4°F17.4°C 71% 7.0 mph SSE11.3 kmh SSE 17.0 mph27.4 kmh 29.58 in1001.7 mb 0.00 in0.0 mm 0.00 in0.0 mm 0.00 in0.0 mm
12:48 AM 73.4°F23.0°C 63.4°F17.4°C 71% 5.0 mph SW8.0 kmh SW 17.0 mph27.4 kmh 29.59 in1002.0 mb 0.00 in0.0 mm 0.00 in0.0 mm 0.00 in0.0 mm
12:49 AM 73.4°F23.0°C 63.4°F17.4°C 71% 8.0 mph S12.9 kmh S 16.0 mph25.7 kmh 29.58 in1001.7 mb 0.00 in0.0 mm 0.00 in0.0 mm 0.00 in0.0 mm
12:50 AM 73.4°F23.0°C 63.4°F17.4°C 71% 3.0 mph SSE4.8 kmh SSE 16.0 mph25.7 kmh 29.58 in1001.7 mb 0.00 in0.0 mm 0.00 in0.0 mm 0.00 in0.0 mm
12:51 AM 73.4°F23.0°C 63.4°F17.4°C 71% 11.0 mph SE17.7 kmh SE 14.0 mph22.5 kmh 29.58 in1001.7 mb 0.00 in0.0 mm 0.00 in0.0 mm 0.00 in0.0 mm
12:52 AM 73.4°F23.0°C 63.4°F17.4°C 71% 5.0 mph WSW8.0 kmh WSW 14.0 mph22.5 kmh 29.58 in1001.7 mb 0.00 in0.0 mm 0.00 in0.0 mm 0.00 in0.0 mm
12:53 AM 73.4°F23.0°C 63.4°F17.4°C 71% 10.0 mph SSE16.1 kmh SSE 14.0 mph22.5 kmh 29.58 in1001.7 mb 0.00 in0.0 mm 0.00 in0.0 mm 0.00 in0.0 mm
12:54 AM 73.4°F23.0°C 63.4°F17.4°C 71% 4.0 mph SSE6.4 kmh SSE 14.0 mph22.5 kmh 29.58 in1001.7 mb 0.00 in0.0 mm 0.00 in0.0 mm 0.00 in0.0 mm
12:55 AM 73.4°F23.0°C 63.4°F17.4°C 71% 8.0 mph SE12.9 kmh SE 17.0 mph27.4 kmh 29.58 in1001.7 mb 0.00 in0.0 mm 0.00 in0.0 mm 0.00 in0.0 mm
12:56 AM 73.4°F23.0°C 63.4°F17.4°C 71% 8.0 mph SSE12.9 kmh SSE 17.0 mph27.4 kmh 29.58 in1001.7 mb 0.00 in0.0 mm 0.00 in0.0 mm 0.00 in0.0 mm
12:57 AM 73.4°F23.0°C 63.4°F17.4°C 71% 5.0 mph SSW8.0 kmh SSW 17.0 mph27.4 kmh 29.58 in1001.7 mb 0.00 in0.0 mm 0.00 in0.0 mm 0.00 in0.0 mm
12:58 AM 73.4°F23.0°C 63.4°F17.4°C 71% 9.0 mph SSW14.5 kmh SSW 17.0 mph27.4 kmh 29.58 in1001.7 mb 0.00 in0.0 mm 0.00 in0.0 mm 0.00 in0.0 mm
12:59 AM 73.4°F23.0°C 63.4°F17.4°C 71% 6.0 mph S9.7 kmh S 17.0 mph27.4 kmh 29.58 in1001.7 mb 0.00 in0.0 mm 0.00 in0.0 mm 0.00 in0.0 mm
01:00 AM 73.4°F23.0°C 63.4°F17.4°C 71% 8.0 mph S12.9 kmh S 17.0 mph27.4 kmh 29.58 in1001.7 mb 0.00 in0.0 mm 0.00 in0.0 mm 0.00 in0.0 mm
01:01 AM 73.4°F23.0°C 63.4°F17.4°C 71% 5.0 mph SE8.0 kmh SE 17.0 mph27.4 kmh 29.58 in1001.7 mb 0.00 in0.0 mm 0.00 in0.0 mm 0.00 in0.0 mm
01:02 AM 73.4°F23.0°C 63.4°F17.4°C 71% 8.0 mph SE12.9 kmh SE 17.0 mph27.4 kmh 29.58 in1001.7 mb 0.00 in0.0 mm 0.00 in0.0 mm 0.00 in0.0 mm
01:03 AM 73.4°F23.0°C 63.4°F17.4°C 71% 14.0 mph SE22.5 kmh SE 19.0 mph30.6 kmh 29.58 in1001.7 mb 0.00 in0.0 mm 0.00 in0.0 mm 0.00 in0.0 mm
01:04 AM 73.4°F23.0°C 63.4°F17.4°C 71% 5.0 mph S8.0 kmh S 19.0 mph30.6 kmh 29.58 in1001.7 mb 0.00 in0.0 mm 0.00 in0.0 mm 0.00 in0.0 mm
01:05 AM 73.4°F23.0°C 63.4°F17.4°C 71% 15.0 mph S24.1 kmh S 19.0 mph30.6 kmh 29.58 in1001.7 mb 0.00 in0.0 mm 0.00 in0.0 mm 0.00 in0.0 mm
01:06 AM 73.4°F23.0°C 63.8°F17.7°C 72% 5.0 mph SSE8.0 kmh SSE 19.0 mph30.6 kmh 29.58 in1001.7 mb 0.00 in0.0 mm 0.00 in0.0 mm 0.00 in0.0 mm
01:07 AM 73.4°F23.0°C 63.8°F17.7°C 72% 4.0 mph S6.4 kmh S 19.0 mph30.6 kmh 29.58 in1001.7 mb 0.00 in0.0 mm 0.00 in0.0 mm 0.00 in0.0 mm
01:08 AM 73.3°F22.9°C 63.7°F17.6°C 72% 7.0 mph SSE11.3 kmh SSE 19.0 mph30.6 kmh 29.57 in1001.4 mb 0.00 in0.0 mm 0.00 in0.0 mm 0.00 in0.0 mm
01:09 AM 73.4°F23.0°C 63.8°F17.7°C 72% 5.0 mph SSW8.0 kmh SSW 19.0 mph30.6 kmh 29.57 in1001.4 mb 0.00 in0.0 mm 0.00 in0.0 mm 0.00 in0.0 mm
01:10 AM 73.4°F23.0°C 63.8°F17.7°C 72% 10.0 mph SE16.1 kmh SE 19.0 mph30.6 kmh 29.57 in1001.4 mb 0.00 in0.0 mm 0.00 in0.0 mm 0.00 in0.0 mm
01:11 AM 73.3°F22.9°C 63.7°F17.6°C 72% 5.0 mph SSE8.0 kmh SSE 19.0 mph30.6 kmh 29.57 in1001.4 mb 0.00 in0.0 mm 0.00 in0.0 mm 0.00 in0.0 mm
01:12 AM 73.3°F22.9°C 63.7°F17.6°C 72% 15.0 mph SSE24.1 kmh SSE 19.0 mph30.6 kmh 29.57 in1001.4 mb 0.00 in0.0 mm 0.00 in0.0 mm 0.00 in0.0 mm
01:13 AM 73.3°F22.9°C 63.7°F17.6°C 72% 10.0 mph SSE16.1 kmh SSE 17.0 mph27.4 kmh 29.57 in1001.4 mb 0.00 in0.0 mm 0.00 in0.0 mm 0.00 in0.0 mm
01:14 AM 73.3°F22.9°C 63.7°F17.6°C 72% 8.0 mph SE12.9 kmh SE 17.0 mph27.4 kmh 29.57 in1001.4 mb 0.00 in0.0 mm 0.00 in0.0 mm 0.00 in0.0 mm
01:15 AM 73.3°F22.9°C 63.7°F17.6°C 72% 10.0 mph SSE16.1 kmh SSE 17.0 mph27.4 kmh 29.57 in1001.4 mb 0.00 in0.0 mm 0.00 in0.0 mm 0.00 in0.0 mm
01:16 AM 73.3°F22.9°C 63.7°F17.6°C 72% 12.0 mph S19.3 kmh S 17.0 mph27.4 kmh 29.57 in1001.4 mb 0.00 in0.0 mm 0.00 in0.0 mm 0.00 in0.0 mm
01:17 AM 73.3°F22.9°C 63.7°F17.6°C 72% 5.0 mph SSW8.0 kmh SSW 17.0 mph27.4 kmh 29.57 in1001.4 mb 0.00 in0.0 mm 0.00 in0.0 mm 0.00 in0.0 mm
01:18 AM 73.3°F22.9°C 63.7°F17.6°C 72% 3.0 mph SW4.8 kmh SW 18.0 mph29.0 kmh 29.57 in1001.4 mb 0.00 in0.0 mm 0.00 in0.0 mm 0.00 in0.0 mm
01:19 AM 73.3°F22.9°C 63.7°F17.6°C 72% 5.0 mph SE8.0 kmh SE 18.0 mph29.0 kmh 29.56 in1001.0 mb 0.00 in0.0 mm 0.00 in0.0 mm 0.00 in0.0 mm
01:20 AM 73.2°F22.9°C 63.6°F17.6°C 72% 5.0 mph SE8.0 kmh SE 18.0 mph29.0 kmh 29.57 in1001.4 mb 0.00 in0.0 mm 0.00 in0.0 mm 0.00 in0.0 mm
01:21 AM 73.3°F22.9°C 63.7°F17.6°C 72% 8.0 mph S12.9 kmh S 18.0 mph29.0 kmh 29.57 in1001.4 mb 0.00 in0.0 mm 0.00 in0.0 mm 0.00 in0.0 mm
01:22 AM 73.2°F22.9°C 63.6°F17.6°C 72% 3.0 mph SE4.8 kmh SE 18.0 mph29.0 kmh 29.57 in1001.4 mb 0.00 in0.0 mm 0.00 in0.0 mm 0.00 in0.0 mm
01:23 AM 73.2°F22.9°C 63.6°F17.6°C 72% 10.0 mph S16.1 kmh S 18.0 mph29.0 kmh 29.57 in1001.4 mb 0.00 in0.0 mm 0.00 in0.0 mm 0.00 in0.0 mm
01:24 AM 73.2°F22.9°C 63.6°F17.6°C 72% 9.0 mph S14.5 kmh S 18.0 mph29.0 kmh 29.57 in1001.4 mb 0.00 in0.0 mm 0.00 in0.0 mm 0.00 in0.0 mm
01:25 AM 73.2°F22.9°C 63.6°F17.6°C 72% 8.0 mph SSE12.9 kmh SSE 18.0 mph29.0 kmh 29.57 in1001.4 mb 0.00 in0.0 mm 0.00 in0.0 mm 0.00 in0.0 mm
01:26 AM 73.2°F22.9°C 63.6°F17.6°C 72% 2.0 mph SSE3.2 kmh SSE 18.0 mph29.0 kmh 29.57 in1001.4 mb 0.00 in0.0 mm 0.00 in0.0 mm 0.00 in0.0 mm
01:27 AM 73.2°F22.9°C 63.6°F17.6°C 72% 6.0 mph S9.7 kmh S 18.0 mph29.0 kmh 29.57 in1001.4 mb 0.00 in0.0 mm 0.00 in0.0 mm 0.00 in0.0 mm
01:28 AM 73.1°F22.8°C 63.5°F17.5°C 72% 14.0 mph S22.5 kmh S 14.0 mph22.5 kmh 29.57 in1001.4 mb 0.00 in0.0 mm 0.00 in0.0 mm 0.00 in0.0 mm
01:29 AM 73.2°F22.9°C 63.6°F17.6°C 72% 14.0 mph SE22.5 kmh SE 14.0 mph22.5 kmh 29.57 in1001.4 mb 0.00 in0.0 mm 0.00 in0.0 mm 0.00 in0.0 mm
01:30 AM 73.1°F22.8°C 63.5°F17.5°C 72% 12.0 mph S19.3 kmh S 18.0 mph29.0 kmh 29.57 in1001.4 mb 0.00 in0.0 mm 0.00 in0.0 mm 0.00 in0.0 mm
01:31 AM 73.2°F22.9°C 63.6°F17.6°C 72% 13.0 mph SSW20.9 kmh SSW 18.0 mph29.0 kmh 29.57 in1001.4 mb 0.00 in0.0 mm 0.00 in0.0 mm 0.00 in0.0 mm
01:32 AM 73.2°F22.9°C 63.6°F17.6°C 72% 5.0 mph SE8.0 kmh SE 18.0 mph29.0 kmh 29.57 in1001.4 mb 0.00 in0.0 mm 0.00 in0.0 mm 0.00 in0.0 mm
01:33 AM 73.2°F22.9°C 63.6°F17.6°C 72% 9.0 mph S14.5 kmh S 18.0 mph29.0 kmh 29.56 in1001.0 mb 0.00 in0.0 mm 0.00 in0.0 mm 0.00 in0.0 mm
01:34 AM 73.2°F22.9°C 63.6°F17.6°C 72% 10.0 mph SSE16.1 kmh SSE 18.0 mph29.0 kmh 29.56 in1001.0 mb 0.00 in0.0 mm 0.00 in0.0 mm 0.00 in0.0 mm
01:35 AM 73.2°F22.9°C 63.6°F17.6°C 72% 8.0 mph SSE12.9 kmh SSE 18.0 mph29.0 kmh 29.56 in1001.0 mb 0.00 in0.0 mm 0.00 in0.0 mm 0.00 in0.0 mm
01:36 AM 73.2°F22.9°C 63.6°F17.6°C 72% 9.0 mph S14.5 kmh S 18.0 mph29.0 kmh 29.56 in1001.0 mb 0.00 in0.0 mm 0.00 in0.0 mm 0.00 in0.0 mm
01:37 AM 73.1°F22.8°C 63.5°F17.5°C 72% 3.0 mph SSW4.8 kmh SSW 18.0 mph29.0 kmh 29.56 in1001.0 mb 0.00 in0.0 mm 0.00 in0.0 mm 0.00 in0.0 mm
01:38 AM 73.1°F22.8°C 63.5°F17.5°C 72% 11.0 mph SW17.7 kmh SW 18.0 mph29.0 kmh 29.56 in1001.0 mb 0.00 in0.0 mm 0.00 in0.0 mm 0.00 in0.0 mm
01:39 AM 73.1°F22.8°C 63.5°F17.5°C 72% 3.0 mph SSE4.8 kmh SSE 18.0 mph29.0 kmh 29.56 in1001.0 mb 0.00 in0.0 mm 0.00 in0.0 mm 0.00 in0.0 mm
01:40 AM 73.0°F22.8°C 63.4°F17.4°C 72% 10.0 mph SSE16.1 kmh SSE 17.0 mph27.4 kmh 29.55 in1000.7 mb 0.00 in0.0 mm 0.00 in0.0 mm 0.00 in0.0 mm
01:41 AM 73.0°F22.8°C 63.4°F17.4°C 72% 8.0 mph S12.9 kmh S 24.0 mph38.6 kmh 29.55 in1000.7 mb 0.00 in0.0 mm 0.00 in0.0 mm 0.00 in0.0 mm
01:42 AM 73.0°F22.8°C 63.4°F17.4°C 72% 7.0 mph ESE11.3 kmh ESE 24.0 mph38.6 kmh 29.54 in1000.3 mb 0.00 in0.0 mm 0.00 in0.0 mm 0.00 in0.0 mm
01:43 AM 73.0°F22.8°C 63.4°F17.4°C 72% 10.0 mph SSW16.1 kmh SSW 24.0 mph38.6 kmh 29.54 in1000.3 mb 0.00 in0.0 mm 0.00 in0.0 mm 0.00 in0.0 mm
01:44 AM 72.9°F22.7°C 63.3°F17.4°C 72% 6.0 mph SSW9.7 kmh SSW 24.0 mph38.6 kmh 29.54 in1000.3 mb 0.00 in0.0 mm 0.00 in0.0 mm 0.00 in0.0 mm
01:45 AM 72.9°F22.7°C 63.3°F17.4°C 72% 5.0 mph SSE8.0 kmh SSE 24.0 mph38.6 kmh 29.55 in1000.7 mb 0.00 in0.0 mm 0.00 in0.0 mm 0.00 in0.0 mm
01:46 AM 72.9°F22.7°C 63.3°F17.4°C 72% 12.0 mph SSE19.3 kmh SSE 24.0 mph38.6 kmh 29.54 in1000.3 mb 0.00 in0.0 mm 0.00 in0.0 mm 0.00 in0.0 mm
01:47 AM 72.9°F22.7°C 63.7°F17.6°C 73% 6.0 mph S9.7 kmh S 24.0 mph38.6 kmh 29.54 in1000.3 mb 0.00 in0.0 mm 0.00 in0.0 mm 0.00 in0.0 mm
01:48 AM 72.9°F22.7°C 63.7°F17.6°C 73% 5.0 mph SE8.0 kmh SE 24.0 mph38.6 kmh 29.54 in1000.3 mb 0.00 in0.0 mm 0.00 in0.0 mm 0.00 in0.0 mm
01:49 AM 72.9°F22.7°C 63.7°F17.6°C 73% 5.0 mph SW8.0 kmh SW 24.0 mph38.6 kmh 29.54 in1000.3 mb 0.00 in0.0 mm 0.00 in0.0 mm 0.00 in0.0 mm
01:50 AM 72.9°F22.7°C 63.7°F17.6°C 73% 8.0 mph S12.9 kmh S 24.0 mph38.6 kmh 29.54 in1000.3 mb 0.00 in0.0 mm 0.00 in0.0 mm 0.00 in0.0 mm
01:51 AM 72.9°F22.7°C 63.7°F17.6°C 73% 4.0 mph SE6.4 kmh SE 20.0 mph32.2 kmh 29.54 in1000.3 mb 0.00 in0.0 mm 0.00 in0.0 mm 0.00 in0.0 mm
01:52 AM 72.9°F22.7°C 63.7°F17.6°C 73% 8.0 mph S12.9 kmh S 20.0 mph32.2 kmh 29.54 in1000.3 mb 0.00 in0.0 mm 0.00 in0.0 mm 0.00 in0.0 mm
01:53 AM 72.9°F22.7°C 63.7°F17.6°C 73% 14.0 mph S22.5 kmh S 21.0 mph33.8 kmh 29.54 in1000.3 mb 0.00 in0.0 mm 0.00 in0.0 mm 0.00 in0.0 mm
01:54 AM 72.9°F22.7°C 63.7°F17.6°C 73% 10.0 mph SE16.1 kmh SE 21.0 mph33.8 kmh 29.54 in1000.3 mb 0.00 in0.0 mm 0.00 in0.0 mm 0.00 in0.0 mm
01:55 AM 72.9°F22.7°C 63.7°F17.6°C 73% 7.0 mph SSE11.3 kmh SSE 21.0 mph33.8 kmh 29.54 in1000.3 mb 0.00 in0.0 mm 0.00 in0.0 mm 0.00 in0.0 mm
01:56 AM 73.0°F22.8°C 63.8°F17.7°C 73% 14.0 mph SE22.5 kmh SE 21.0 mph33.8 kmh 29.55 in1000.7 mb 0.00 in0.0 mm 0.00 in0.0 mm 0.00 in0.0 mm
01:57 AM 73.0°F22.8°C 63.8°F17.7°C 73% 4.0 mph E6.4 kmh E 21.0 mph33.8 kmh 29.55 in1000.7 mb 0.00 in0.0 mm 0.00 in0.0 mm 0.00 in0.0 mm
01:58 AM 73.0°F22.8°C 63.8°F17.7°C 73% 8.0 mph SSE12.9 kmh SSE 21.0 mph33.8 kmh 29.55 in1000.7 mb 0.00 in0.0 mm 0.00 in0.0 mm 0.00 in0.0 mm
01:59 AM 73.0°F22.8°C 63.4°F17.4°C 72% 6.0 mph SSW9.7 kmh SSW 21.0 mph33.8 kmh 29.55 in1000.7 mb 0.00 in0.0 mm 0.00 in0.0 mm 0.00 in0.0 mm
02:00 AM 73.0°F22.8°C 63.4°F17.4°C 72% 4.0 mph ESE6.4 kmh ESE 21.0 mph33.8 kmh 29.54 in1000.3 mb 0.00 in0.0 mm 0.00 in0.0 mm 0.00 in0.0 mm
02:01 AM 73.0°F22.8°C 63.4°F17.4°C 72% 4.0 mph ESE6.4 kmh ESE 21.0 mph33.8 kmh 29.54 in1000.3 mb 0.00 in0.0 mm 0.00 in0.0 mm 0.00 in0.0 mm
02:02 AM 73.0°F22.8°C 63.4°F17.4°C 72% 18.0 mph S29.0 kmh S 21.0 mph33.8 kmh 29.54 in1000.3 mb 0.00 in0.0 mm 0.00 in0.0 mm 0.00 in0.0 mm
02:03 AM 73.0°F22.8°C 63.4°F17.4°C 72% 8.0 mph S12.9 kmh S 19.0 mph30.6 kmh 29.54 in1000.3 mb 0.00 in0.0 mm 0.00 in0.0 mm 0.00 in0.0 mm
02:04 AM 73.0°F22.8°C 63.4°F17.4°C 72% 15.0 mph S24.1 kmh S 19.0 mph30.6 kmh 29.54 in1000.3 mb 0.00 in0.0 mm 0.00 in0.0 mm 0.00 in0.0 mm
02:05 AM 73.0°F22.8°C 63.4°F17.4°C 72% 6.0 mph S9.7 kmh S 20.0 mph32.2 kmh 29.54 in1000.3 mb 0.00 in0.0 mm 0.00 in0.0 mm 0.00 in0.0 mm
02:06 AM 73.1°F22.8°C 63.5°F17.5°C 72% 4.0 mph SSW6.4 kmh SSW 20.0 mph32.2 kmh 29.54 in1000.3 mb 0.00 in0.0 mm 0.00 in0.0 mm 0.00 in0.0 mm
02:07 AM 73.1°F22.8°C 63.5°F17.5°C 72% 5.0 mph S8.0 kmh S 20.0 mph32.2 kmh 29.54 in1000.3 mb 0.00 in0.0 mm 0.00 in0.0 mm 0.00 in0.0 mm
02:08 AM 73.1°F22.8°C 63.5°F17.5°C 72% 10.0 mph S16.1 kmh S 20.0 mph32.2 kmh 29.54 in1000.3 mb 0.00 in0.0 mm 0.00 in0.0 mm 0.00 in0.0 mm
02:09 AM 73.1°F22.8°C 63.5°F17.5°C 72% 9.0 mph SE14.5 kmh SE 20.0 mph32.2 kmh 29.54 in1000.3 mb 0.00 in0.0 mm 0.00 in0.0 mm 0.00 in0.0 mm
02:10 AM 73.1°F22.8°C 63.5°F17.5°C 72% 6.0 mph SE9.7 kmh SE 20.0 mph32.2 kmh 29.54 in1000.3 mb 0.00 in0.0 mm 0.00 in0.0 mm 0.00 in0.0 mm
02:11 AM 73.1°F22.8°C 63.5°F17.5°C 72% 5.0 mph S8.0 kmh S 20.0 mph32.2 kmh 29.54 in1000.3 mb 0.00 in0.0 mm 0.00 in0.0 mm 0.00 in0.0 mm
02:12 AM 73.1°F22.8°C 63.5°F17.5°C 72% 12.0 mph SE19.3 kmh SE 20.0 mph32.2 kmh 29.54 in1000.3 mb 0.00 in0.0 mm 0.00 in0.0 mm 0.00 in0.0 mm
02:13 AM 73.1°F22.8°C 63.5°F17.5°C 72% 13.0 mph S20.9 kmh S 20.0 mph32.2 kmh 29.54 in1000.3 mb 0.00 in0.0 mm 0.00 in0.0 mm 0.00 in0.0 mm
02:14 AM 73.1°F22.8°C 63.5°F17.5°C 72% 8.0 mph S12.9 kmh S 20.0 mph32.2 kmh 29.55 in1000.7 mb 0.00 in0.0 mm 0.00 in0.0 mm 0.00 in0.0 mm
02:15 AM 73.1°F22.8°C 63.5°F17.5°C 72% 10.0 mph WSW16.1 kmh WSW 23.0 mph37.0 kmh 29.54 in1000.3 mb 0.00 in0.0 mm 0.00 in0.0 mm 0.00 in0.0 mm
02:16 AM 73.1°F22.8°C 63.5°F17.5°C 72% 5.0 mph SW8.0 kmh SW 23.0 mph37.0 kmh 29.54 in1000.3 mb 0.00 in0.0 mm 0.00 in0.0 mm 0.00 in0.0 mm
02:17 AM 73.1°F22.8°C 63.5°F17.5°C 72% 13.0 mph SSW20.9 kmh SSW 23.0 mph37.0 kmh 29.54 in1000.3 mb 0.00 in0.0 mm 0.00 in0.0 mm 0.00 in0.0 mm
02:18 AM 73.1°F22.8°C 63.5°F17.5°C 72% 10.0 mph S16.1 kmh S 23.0 mph37.0 kmh 29.54 in1000.3 mb 0.00 in0.0 mm 0.00 in0.0 mm 0.00 in0.0 mm
02:19 AM 73.1°F22.8°C 63.5°F17.5°C 72% 11.0 mph SE17.7 kmh SE 23.0 mph37.0 kmh 29.55 in1000.7 mb 0.00 in0.0 mm 0.00 in0.0 mm 0.00 in0.0 mm
02:20 AM 73.1°F22.8°C 63.5°F17.5°C 72% 7.0 mph SSE11.3 kmh SSE 23.0 mph37.0 kmh 29.55 in1000.7 mb 0.00 in0.0 mm 0.00 in0.0 mm 0.00 in0.0 mm
02:21 AM 73.1°F22.8°C 63.5°F17.5°C 72% 5.0 mph SE8.0 kmh SE 23.0 mph37.0 kmh 29.54 in1000.3 mb 0.00 in0.0 mm 0.00 in0.0 mm 0.00 in0.0 mm
02:22 AM 73.1°F22.8°C 63.5°F17.5°C 72% 5.0 mph SW8.0 kmh SW 23.0 mph37.0 kmh 29.55 in1000.7 mb 0.00 in0.0 mm 0.00 in0.0 mm 0.00 in0.0 mm
02:23 AM 73.1°F22.8°C 63.5°F17.5°C 72% 6.0 mph S9.7 kmh S 23.0 mph37.0 kmh 29.54 in1000.3 mb 0.00 in0.0 mm 0.00 in0.0 mm 0.00 in0.0 mm
02:24 AM 73.2°F22.9°C 63.6°F17.6°C 72% 5.0 mph SW8.0 kmh SW 23.0 mph37.0 kmh 29.54 in1000.3 mb 0.00 in0.0 mm 0.00 in0.0 mm 0.00 in0.0 mm
02:25 AM 73.1°F22.8°C 63.5°F17.5°C 72% 10.0 mph S16.1 kmh S 21.0 mph33.8 kmh 29.54 in1000.3 mb 0.00 in0.0 mm 0.00 in0.0 mm 0.00 in0.0 mm
02:26 AM 73.1°F22.8°C 63.5°F17.5°C 72% 10.0 mph S16.1 kmh S 21.0 mph33.8 kmh 29.54 in1000.3 mb 0.00 in0.0 mm 0.00 in0.0 mm 0.00 in0.0 mm
02:27 AM 73.1°F22.8°C 63.5°F17.5°C 72% 10.0 mph SW16.1 kmh SW 21.0 mph33.8 kmh 29.54 in1000.3 mb 0.00 in0.0 mm 0.00 in0.0 mm 0.00 in0.0 mm
02:28 AM 73.1°F22.8°C 63.1°F17.3°C 71% 9.0 mph SSW14.5 kmh SSW 21.0 mph33.8 kmh 29.54 in1000.3 mb 0.00 in0.0 mm 0.00 in0.0 mm 0.00 in0.0 mm
02:29 AM 73.1°F22.8°C 63.1°F17.3°C 71% 16.0 mph S25.7 kmh S 21.0 mph33.8 kmh 29.54 in1000.3 mb 0.00 in0.0 mm 0.00 in0.0 mm 0.00 in0.0 mm
02:30 AM 73.2°F22.9°C 63.2°F17.3°C 71% 5.0 mph S8.0 kmh S 20.0 mph32.2 kmh 29.55 in1000.7 mb 0.00 in0.0 mm 0.00 in0.0 mm 0.00 in0.0 mm
02:31 AM 73.2°F22.9°C 63.2°F17.3°C 71% 10.0 mph S16.1 kmh S 20.0 mph32.2 kmh 29.55 in1000.7 mb 0.00 in0.0 mm 0.00 in0.0 mm 0.00 in0.0 mm
02:32 AM 73.2°F22.9°C 62.8°F17.1°C 70% 6.0 mph S9.7 kmh S 20.0 mph32.2 kmh 29.55 in1000.7 mb 0.00 in0.0 mm 0.00 in0.0 mm 0.00 in0.0 mm
02:33 AM 73.2°F22.9°C 62.8°F17.1°C 70% 4.0 mph SSW6.4 kmh SSW 20.0 mph32.2 kmh 29.55 in1000.7 mb 0.00 in0.0 mm 0.00 in0.0 mm 0.00 in0.0 mm
02:34 AM 73.2°F22.9°C 62.8°F17.1°C 70% 12.0 mph SSW19.3 kmh SSW 20.0 mph32.2 kmh 29.55 in1000.7 mb 0.00 in0.0 mm 0.00 in0.0 mm 0.00 in0.0 mm
02:35 AM 73.2°F22.9°C 62.8°F17.1°C 70% 7.0 mph SSE11.3 kmh SSE 20.0 mph32.2 kmh 29.55 in1000.7 mb 0.00 in0.0 mm 0.00 in0.0 mm 0.00 in0.0 mm
02:36 AM 73.2°F22.9°C 62.8°F17.1°C 70% 6.0 mph SW9.7 kmh SW 20.0 mph32.2 kmh 29.55 in1000.7 mb 0.00 in0.0 mm 0.00 in0.0 mm 0.00 in0.0 mm
02:37 AM 73.2°F22.9°C 62.8°F17.1°C 70% 6.0 mph S9.7 kmh S 20.0 mph32.2 kmh 29.56 in1001.0 mb 0.00 in0.0 mm 0.00 in0.0 mm 0.00 in0.0 mm
02:38 AM 73.2°F22.9°C 62.8°F17.1°C 70% 1.0 mph S1.6 kmh S 20.0 mph32.2 kmh 29.55 in1000.7 mb 0.00 in0.0 mm 0.00 in0.0 mm 0.00 in0.0 mm
02:39 AM 73.2°F22.9°C 62.4°F16.9°C 69% 3.0 mph S4.8 kmh S 20.0 mph32.2 kmh 29.55 in1000.7 mb 0.00 in0.0 mm 0.00 in0.0 mm 0.00 in0.0 mm
02:40 AM 73.2°F22.9°C 62.4°F16.9°C 69% 3.0 mph SW4.8 kmh SW 20.0 mph32.2 kmh 29.56 in1001.0 mb 0.00 in0.0 mm 0.00 in0.0 mm 0.00 in0.0 mm
02:41 AM 73.2°F22.9°C 62.4°F16.9°C 69% 3.0 mph S4.8 kmh S 20.0 mph32.2 kmh 29.56 in1001.0 mb 0.00 in0.0 mm 0.00 in0.0 mm 0.00 in0.0 mm
02:42 AM 73.2°F22.9°C 62.8°F17.1°C 70% 6.0 mph S9.7 kmh S 20.0 mph32.2 kmh 29.57 in1001.4 mb 0.00 in0.0 mm 0.00 in0.0 mm 0.00 in0.0 mm
02:43 AM 73.1°F22.8°C 62.7°F17.1°C 70% 9.0 mph S14.5 kmh S 20.0 mph32.2 kmh 29.56 in1001.0 mb 0.00 in0.0 mm 0.00 in0.0 mm 0.00 in0.0 mm
02:44 AM 73.1°F22.8°C 62.7°F17.1°C 70% 8.0 mph SSW12.9 kmh SSW 20.0 mph32.2 kmh 29.56 in1001.0 mb 0.00 in0.0 mm 0.00 in0.0 mm 0.00 in0.0 mm
02:45 AM 73.1°F22.8°C 62.7°F17.1°C 70% 3.0 mph WSW4.8 kmh WSW 20.0 mph32.2 kmh 29.56 in1001.0 mb 0.00 in0.0 mm 0.00 in0.0 mm 0.00 in0.0 mm
02:46 AM 73.1°F22.8°C 62.7°F17.1°C 70% 6.0 mph SE9.7 kmh SE 16.0 mph25.7 kmh 29.56 in1001.0 mb 0.00 in0.0 mm 0.00 in0.0 mm 0.00 in0.0 mm
02:47 AM 73.0°F22.8°C 62.6°F17.0°C 70% 4.0 mph ESE6.4 kmh ESE 12.0 mph19.3 kmh 29.56 in1001.0 mb 0.00 in0.0 mm 0.00 in0.0 mm 0.00 in0.0 mm
02:48 AM 73.0°F22.8°C 62.6°F17.0°C 70% 7.0 mph SSW11.3 kmh SSW 12.0 mph19.3 kmh 29.57 in1001.4 mb 0.00 in0.0 mm 0.00 in0.0 mm 0.00 in0.0 mm
02:49 AM 73.0°F22.8°C 62.6°F17.0°C 70% 11.0 mph SW17.7 kmh SW 16.0 mph25.7 kmh 29.57 in1001.4 mb 0.00 in0.0 mm 0.00 in0.0 mm 0.00 in0.0 mm
02:50 AM 72.9°F22.7°C 62.5°F16.9°C 70% 7.0 mph S11.3 kmh S 16.0 mph25.7 kmh 29.57 in1001.4 mb 0.00 in0.0 mm 0.00 in0.0 mm 0.00 in0.0 mm
02:51 AM 73.0°F22.8°C 63.0°F17.2°C 71% 7.0 mph S11.3 kmh S 16.0 mph25.7 kmh 29.56 in1001.0 mb 0.00 in0.0 mm 0.00 in0.0 mm 0.00 in0.0 mm
02:52 AM 72.9°F22.7°C 62.9°F17.2°C 71% 7.0 mph SE11.3 kmh SE 16.0 mph25.7 kmh 29.56 in1001.0 mb 0.00 in0.0 mm 0.00 in0.0 mm 0.00 in0.0 mm
02:53 AM 72.9°F22.7°C 62.9°F17.2°C 71% 10.0 mph SSW16.1 kmh SSW 16.0 mph25.7 kmh 29.57 in1001.4 mb 0.00 in0.0 mm 0.00 in0.0 mm 0.00 in0.0 mm
02:54 AM 72.8°F22.7°C 62.8°F17.1°C 71% 9.0 mph S14.5 kmh S 20.0 mph32.2 kmh 29.57 in1001.4 mb 0.00 in0.0 mm 0.00 in0.0 mm 0.00 in0.0 mm
02:55 AM 72.8°F22.7°C 62.8°F17.1°C 71% 4.0 mph SW6.4 kmh SW 20.0 mph32.2 kmh 29.57 in1001.4 mb 0.00 in0.0 mm 0.00 in0.0 mm 0.00 in0.0 mm
02:56 AM 72.9°F22.7°C 62.9°F17.2°C 71% 4.0 mph S6.4 kmh S 20.0 mph32.2 kmh 29.56 in1001.0 mb 0.00 in0.0 mm 0.00 in0.0 mm 0.00 in0.0 mm
02:57 AM 72.8°F22.7°C 62.8°F17.1°C 71% 11.0 mph SSE17.7 kmh SSE 20.0 mph32.2 kmh 29.57 in1001.4 mb 0.00 in0.0 mm 0.00 in0.0 mm 0.00 in0.0 mm
02:58 AM 72.8°F22.7°C 63.2°F17.3°C 72% 4.0 mph SSE6.4 kmh SSE 20.0 mph32.2 kmh 29.57 in1001.4 mb 0.00 in0.0 mm 0.00 in0.0 mm 0.00 in0.0 mm
02:59 AM 72.8°F22.7°C 63.2°F17.3°C 72% 2.0 mph SE3.2 kmh SE 20.0 mph32.2 kmh 29.57 in1001.4 mb 0.00 in0.0 mm 0.00 in0.0 mm 0.00 in0.0 mm
03:00 AM 72.7°F22.6°C 63.1°F17.3°C 72% 3.0 mph WSW4.8 kmh WSW 20.0 mph32.2 kmh 29.55 in1000.7 mb 0.00 in0.0 mm 0.00 in0.0 mm 0.00 in0.0 mm
03:01 AM 72.7°F22.6°C 63.1°F17.3°C 72% 5.0 mph SW8.0 kmh SW 20.0 mph32.2 kmh 29.55 in1000.7 mb 0.00 in0.0 mm 0.00 in0.0 mm 0.00 in0.0 mm
03:02 AM 72.6°F22.6°C 63.1°F17.3°C 72% 3.0 mph SW4.8 kmh SW 20.0 mph32.2 kmh 29.55 in1000.7 mb 0.00 in0.0 mm 0.00 in0.0 mm 0.00 in0.0 mm
03:03 AM 72.6°F22.6°C 63.4°F17.4°C 73% 1.0 mph SSW1.6 kmh SSW 20.0 mph32.2 kmh 29.54 in1000.3 mb 0.00 in0.0 mm 0.00 in0.0 mm 0.00 in0.0 mm
03:04 AM 72.5°F22.5°C 63.4°F17.4°C 73% 4.0 mph SW6.4 kmh SW 11.0 mph17.7 kmh 29.54 in1000.3 mb 0.00 in0.0 mm 0.00 in0.0 mm 0.00 in0.0 mm
03:05 AM 72.4°F22.4°C 62.9°F17.2°C 72% 6.0 mph SSW9.7 kmh SSW 11.0 mph17.7 kmh 29.53 in1000.0 mb 0.00 in0.0 mm 0.00 in0.0 mm 0.00 in0.0 mm
03:06 AM 72.4°F22.4°C 62.9°F17.2°C 72% 4.0 mph SSE6.4 kmh SSE 11.0 mph17.7 kmh 29.53 in1000.0 mb 0.00 in0.0 mm 0.00 in0.0 mm 0.00 in0.0 mm
03:07 AM 72.3°F22.4°C 63.2°F17.3°C 73% 2.0 mph SSW3.2 kmh SSW 11.0 mph17.7 kmh 29.53 in1000.0 mb 0.00 in0.0 mm 0.00 in0.0 mm 0.00 in0.0 mm
03:08 AM 72.2°F22.3°C 63.1°F17.3°C 73% 3.0 mph E4.8 kmh E 11.0 mph17.7 kmh 29.53 in1000.0 mb 0.00 in0.0 mm 0.00 in0.0 mm 0.00 in0.0 mm
03:09 AM 72.1°F22.3°C 63.0°F17.2°C 73% 1.0 mph S1.6 kmh S 11.0 mph17.7 kmh 29.54 in1000.3 mb 0.00 in0.0 mm 0.00 in0.0 mm 0.00 in0.0 mm
03:10 AM 72.1°F22.3°C 63.0°F17.2°C 73% 1.0 mph S1.6 kmh S 11.0 mph17.7 kmh 29.54 in1000.3 mb 0.00 in0.0 mm 0.00 in0.0 mm 0.00 in0.0 mm
03:11 AM 72.0°F22.2°C 62.9°F17.2°C 73% 3.0 mph S4.8 kmh S 7.0 mph11.3 kmh 29.54 in1000.3 mb 0.00 in0.0 mm 0.00 in0.0 mm 0.00 in0.0 mm
03:12 AM 71.9°F22.2°C 62.8°F17.1°C 73% 1.0 mph SE1.6 kmh SE 7.0 mph11.3 kmh 29.55 in1000.7 mb 0.00 in0.0 mm 0.00 in0.0 mm 0.00 in0.0 mm
03:13 AM 71.8°F22.1°C 62.7°F17.1°C 73% 3.0 mph SSE4.8 kmh SSE 7.0 mph11.3 kmh 29.55 in1000.7 mb 0.00 in0.0 mm 0.00 in0.0 mm 0.00 in0.0 mm
03:14 AM 71.7°F22.1°C 62.6°F17.0°C 73% 3.0 mph SE4.8 kmh SE 7.0 mph11.3 kmh 29.55 in1000.7 mb 0.00 in0.0 mm 0.00 in0.0 mm 0.00 in0.0 mm
03:15 AM 71.5°F21.9°C 62.4°F16.9°C 73% 9.0 mph S14.5 kmh S 10.0 mph16.1 kmh 29.55 in1000.7 mb 0.00 in0.0 mm 0.00 in0.0 mm 0.00 in0.0 mm
03:16 AM 71.2°F21.8°C 62.1°F16.7°C 73% 4.0 mph SSE6.4 kmh SSE 10.0 mph16.1 kmh 29.55 in1000.7 mb 0.00 in0.0 mm 0.00 in0.0 mm 0.00 in0.0 mm
03:17 AM 71.1°F21.7°C 62.0°F16.7°C 73% 6.0 mph S9.7 kmh S 10.0 mph16.1 kmh 29.55 in1000.7 mb 0.00 in0.0 mm 0.00 in0.0 mm 0.00 in0.0 mm
03:18 AM 71.0°F21.7°C 61.9°F16.6°C 73% 3.0 mph S4.8 kmh S 10.0 mph16.1 kmh 29.55 in1000.7 mb 0.00 in0.0 mm 0.00 in0.0 mm 0.00 in0.0 mm
03:19 AM 70.7°F21.5°C 61.6°F16.4°C 73% 6.0 mph S9.7 kmh S 10.0 mph16.1 kmh 29.56 in1001.0 mb 0.00 in0.0 mm 0.00 in0.0 mm 0.00 in0.0 mm
03:20 AM 70.5°F21.4°C 61.4°F16.3°C 73% 5.0 mph SW8.0 kmh SW 10.0 mph16.1 kmh 29.56 in1001.0 mb 0.00 in0.0 mm 0.00 in0.0 mm 0.00 in0.0 mm
03:21 AM 70.3°F21.3°C 61.2°F16.2°C 73% 6.0 mph SW9.7 kmh SW 10.0 mph16.1 kmh 29.59 in1002.0 mb 0.00 in0.0 mm 0.00 in0.0 mm 0.00 in0.0 mm
03:22 AM 70.0°F21.1°C 60.9°F16.1°C 73% 11.0 mph SSW17.7 kmh SSW 16.0 mph25.7 kmh 29.59 in1002.0 mb 0.00 in0.0 mm 0.00 in0.0 mm 0.00 in0.0 mm
03:23 AM 69.8°F21.0°C 60.8°F16.0°C 73% 7.0 mph SW11.3 kmh SW 16.0 mph25.7 kmh 29.60 in1002.4 mb 0.00 in0.0 mm 0.00 in0.0 mm 0.00 in0.0 mm
03:24 AM 69.6°F20.9°C 60.6°F15.9°C 73% 5.0 mph SSW8.0 kmh SSW 17.0 mph27.4 kmh 29.59 in1002.0 mb 0.00 in0.0 mm 0.00 in0.0 mm 0.00 in0.0 mm
03:25 AM 69.5°F20.8°C 60.5°F15.8°C 73% 7.0 mph SW11.3 kmh SW 17.0 mph27.4 kmh 29.59 in1002.0 mb 0.00 in0.0 mm 0.00 in0.0 mm 0.00 in0.0 mm
03:26 AM 69.4°F20.8°C 60.4°F15.8°C 73% 4.0 mph WSW6.4 kmh WSW 17.0 mph27.4 kmh 29.59 in1002.0 mb 0.00 in0.0 mm 0.00 in0.0 mm 0.00 in0.0 mm
03:27 AM 69.3°F20.7°C 60.7°F15.9°C 74% 3.0 mph SW4.8 kmh SW 17.0 mph27.4 kmh 29.59 in1002.0 mb 0.00 in0.0 mm 0.00 in0.0 mm 0.00 in0.0 mm
03:28 AM 69.2°F20.7°C 60.6°F15.9°C 74% 1.0 mph SW1.6 kmh SW 17.0 mph27.4 kmh 29.59 in1002.0 mb 0.00 in0.0 mm 0.00 in0.0 mm 0.00 in0.0 mm
03:29 AM 69.1°F20.6°C 60.5°F15.8°C 74% 6.0 mph SW9.7 kmh SW 17.0 mph27.4 kmh 29.59 in1002.0 mb 0.00 in0.0 mm 0.00 in0.0 mm 0.00 in0.0 mm
03:30 AM 69.0°F20.6°C 60.4°F15.8°C 74% 3.0 mph WSW4.8 kmh WSW 17.0 mph27.4 kmh 29.59 in1002.0 mb 0.00 in0.0 mm 0.00 in0.0 mm 0.00 in0.0 mm
03:31 AM 68.9°F20.5°C 60.3°F15.7°C 74% 3.0 mph WSW4.8 kmh WSW 17.0 mph27.4 kmh 29.59 in1002.0 mb 0.00 in0.0 mm 0.00 in0.0 mm 0.00 in0.0 mm
03:32 AM 68.9°F20.5°C 60.3°F15.7°C 74% 2.0 mph S3.2 kmh S 17.0 mph27.4 kmh 29.59 in1002.0 mb 0.00 in0.0 mm 0.00 in0.0 mm 0.00 in0.0 mm
03:33 AM 68.8°F20.4°C 60.6°F15.9°C 75% 4.0 mph SSW6.4 kmh SSW 17.0 mph27.4 kmh 29.59 in1002.0 mb 0.00 in0.0 mm 0.00 in0.0 mm 0.00 in0.0 mm
03:34 AM 68.7°F20.4°C 60.1°F15.6°C 74% 10.0 mph S16.1 kmh S 13.0 mph20.9 kmh 29.59 in1002.0 mb 0.00 in0.0 mm 0.00 in0.0 mm 0.00 in0.0 mm
03:35 AM 68.6°F20.3°C 60.0°F15.6°C 74% 10.0 mph SW16.1 kmh SW 13.0 mph20.9 kmh 29.59 in1002.0 mb 0.00 in0.0 mm 0.00 in0.0 mm 0.00 in0.0 mm
03:36 AM 68.5°F20.3°C 59.9°F15.5°C 74% 6.0 mph SW9.7 kmh SW 13.0 mph20.9 kmh 29.59 in1002.0 mb 0.00 in0.0 mm 0.00 in0.0 mm 0.00 in0.0 mm
03:37 AM 68.4°F20.2°C 59.8°F15.4°C 74% 2.0 mph SW3.2 kmh SW 13.0 mph20.9 kmh 29.59 in1002.0 mb 0.00 in0.0 mm 0.00 in0.0 mm 0.00 in0.0 mm
03:38 AM 68.3°F20.2°C 59.7°F15.4°C 74% 6.0 mph SW9.7 kmh SW 13.0 mph20.9 kmh 29.59 in1002.0 mb 0.00 in0.0 mm 0.00 in0.0 mm 0.00 in0.0 mm
03:39 AM 68.3°F20.2°C 59.7°F15.4°C 74% 4.0 mph SW6.4 kmh SW 13.0 mph20.9 kmh 29.59 in1002.0 mb 0.00 in0.0 mm 0.00 in0.0 mm 0.00 in0.0 mm
03:40 AM 68.3°F20.2°C 59.7°F15.4°C 74% 3.0 mph S4.8 kmh S 13.0 mph20.9 kmh 29.60 in1002.4 mb 0.00 in0.0 mm 0.00 in0.0 mm 0.00 in0.0 mm
03:41 AM 68.3°F20.2°C 59.7°F15.4°C 74% 6.0 mph SW9.7 kmh SW 13.0 mph20.9 kmh 29.60 in1002.4 mb 0.00 in0.0 mm 0.00 in0.0 mm 0.00 in0.0 mm
03:42 AM 68.2°F20.1°C 59.6°F15.3°C 74% 6.0 mph SSW9.7 kmh SSW 13.0 mph20.9 kmh 29.60 in1002.4 mb 0.00 in0.0 mm 0.00 in0.0 mm 0.00 in0.0 mm
03:43 AM 68.2°F20.1°C 59.2°F15.1°C 73% 6.0 mph SSW9.7 kmh SSW 12.0 mph19.3 kmh 29.60 in1002.4 mb 0.00 in0.0 mm 0.00 in0.0 mm 0.00 in0.0 mm
03:44 AM 68.2°F20.1°C 59.2°F15.1°C 73% 7.0 mph SSW11.3 kmh SSW 16.0 mph25.7 kmh 29.60 in1002.4 mb 0.00 in0.0 mm 0.00 in0.0 mm 0.00 in0.0 mm
03:45 AM 68.2°F20.1°C 59.2°F15.1°C 73% 11.0 mph SSW17.7 kmh SSW 18.0 mph29.0 kmh 29.60 in1002.4 mb 0.00 in0.0 mm 0.00 in0.0 mm 0.00 in0.0 mm
03:46 AM 68.2°F20.1°C 59.2°F15.1°C 73% 16.0 mph SSW25.7 kmh SSW 20.0 mph32.2 kmh 29.60 in1002.4 mb 0.00 in0.0 mm 0.00 in0.0 mm 0.00 in0.0 mm
03:47 AM 68.2°F20.1°C 58.8°F14.9°C 72% 7.0 mph S11.3 kmh S 21.0 mph33.8 kmh 29.60 in1002.4 mb 0.00 in0.0 mm 0.00 in0.0 mm 0.00 in0.0 mm
03:48 AM 68.2°F20.1°C 58.8°F14.9°C 72% 12.0 mph S19.3 kmh S 22.0 mph35.4 kmh 29.60 in1002.4 mb 0.00 in0.0 mm 0.00 in0.0 mm 0.00 in0.0 mm
03:49 AM 68.1°F20.1°C 58.7°F14.8°C 72% 15.0 mph SW24.1 kmh SW 22.0 mph35.4 kmh 29.60 in1002.4 mb 0.00 in0.0 mm 0.00 in0.0 mm 0.01 in0.3 mm
03:50 AM 68.2°F20.1°C 58.4°F14.7°C 71% 9.0 mph SSW14.5 kmh SSW 26.0 mph41.8 kmh 29.60 in1002.4 mb 0.00 in0.0 mm 0.00 in0.0 mm 0.01 in0.3 mm
03:51 AM 68.2°F20.1°C 58.8°F14.9°C 72% 9.0 mph SSW14.5 kmh SSW 26.0 mph41.8 kmh 29.60 in1002.4 mb 0.00 in0.0 mm 0.00 in0.0 mm 0.01 in0.3 mm
03:52 AM 68.2°F20.1°C 58.8°F14.9°C 72% 7.0 mph SSW11.3 kmh SSW 26.0 mph41.8 kmh 29.60 in1002.4 mb 0.00 in0.0 mm 0.00 in0.0 mm 0.01 in0.3 mm
03:53 AM 68.2°F20.1°C 58.8°F14.9°C 72% 6.0 mph W9.7 kmh W 26.0 mph41.8 kmh 29.60 in1002.4 mb 0.00 in0.0 mm 0.00 in0.0 mm 0.01 in0.3 mm
03:54 AM 68.1°F20.1°C 58.7°F14.8°C 72% 13.0 mph S20.9 kmh S 26.0 mph41.8 kmh 29.60 in1002.4 mb 0.00 in0.0 mm 0.00 in0.0 mm 0.01 in0.3 mm
03:55 AM 68.1°F20.1°C 58.7°F14.8°C 72% 6.0 mph SW9.7 kmh SW 26.0 mph41.8 kmh 29.60 in1002.4 mb 0.00 in0.0 mm 0.00 in0.0 mm 0.01 in0.3 mm
03:56 AM 68.0°F20.0°C 58.6°F14.8°C 72% 11.0 mph WSW17.7 kmh WSW 26.0 mph41.8 kmh 29.61 in1002.7 mb 0.00 in0.0 mm 0.00 in0.0 mm 0.01 in0.3 mm
03:57 AM 67.9°F19.9°C 58.9°F14.9°C 73% 8.0 mph SW12.9 kmh SW 26.0 mph41.8 kmh 29.61 in1002.7 mb 0.00 in0.0 mm 0.00 in0.0 mm 0.01 in0.3 mm
03:58 AM 67.8°F19.9°C 58.8°F14.9°C 73% 10.0 mph WSW16.1 kmh WSW 27.0 mph43.5 kmh 29.61 in1002.7 mb 0.00 in0.0 mm 0.00 in0.0 mm 0.01 in0.3 mm
03:59 AM 67.7°F19.8°C 58.7°F14.8°C 73% 9.0 mph SW14.5 kmh SW 27.0 mph43.5 kmh 29.61 in1002.7 mb 0.00 in0.0 mm 0.00 in0.0 mm 0.01 in0.3 mm
04:00 AM 67.5°F19.7°C 58.5°F14.7°C 73% 14.0 mph SSW22.5 kmh SSW 27.0 mph43.5 kmh 29.61 in1002.7 mb 0.00 in0.0 mm 0.00 in0.0 mm 0.01 in0.3 mm
04:01 AM 67.4°F19.7°C 58.8°F14.9°C 74% 8.0 mph SSW12.9 kmh SSW 27.0 mph43.5 kmh 29.60 in1002.4 mb 0.00 in0.0 mm 0.00 in0.0 mm 0.01 in0.3 mm
04:02 AM 67.2°F19.6°C 58.6°F14.8°C 74% 8.0 mph S12.9 kmh S 27.0 mph43.5 kmh 29.61 in1002.7 mb 0.00 in0.0 mm 0.00 in0.0 mm 0.01 in0.3 mm
04:03 AM 67.0°F19.4°C 58.8°F14.9°C 75% 12.0 mph SW19.3 kmh SW 27.0 mph43.5 kmh 29.61 in1002.7 mb 0.00 in0.0 mm 0.00 in0.0 mm 0.01 in0.3 mm
04:04 AM 66.9°F19.4°C 58.7°F14.8°C 75% 19.0 mph SE30.6 kmh SE 27.0 mph43.5 kmh 29.61 in1002.7 mb 0.00 in0.0 mm 0.00 in0.0 mm 0.01 in0.3 mm
04:05 AM 66.8°F19.3°C 58.6°F14.8°C 75% 5.0 mph WSW8.0 kmh WSW 27.0 mph43.5 kmh 29.61 in1002.7 mb 0.00 in0.0 mm 0.00 in0.0 mm 0.01 in0.3 mm
04:06 AM 66.6°F19.2°C 58.4°F14.7°C 75% 11.0 mph S17.7 kmh S 27.0 mph43.5 kmh 29.60 in1002.4 mb 0.00 in0.0 mm 0.00 in0.0 mm 0.01 in0.3 mm
04:07 AM 66.5°F19.2°C 58.7°F14.8°C 76% 4.0 mph ENE6.4 kmh ENE 27.0 mph43.5 kmh 29.60 in1002.4 mb 0.00 in0.0 mm 0.00 in0.0 mm 0.01 in0.3 mm
04:08 AM 66.4°F19.1°C 59.0°F15.0°C 77% 6.0 mph SW9.7 kmh SW 20.0 mph32.2 kmh 29.61 in1002.7 mb 0.00 in0.0 mm 0.00 in0.0 mm 0.01 in0.3 mm
04:09 AM 66.2°F19.0°C 58.8°F14.9°C 77% 6.0 mph SW9.7 kmh SW 20.0 mph32.2 kmh 29.61 in1002.7 mb 0.00 in0.0 mm 0.00 in0.0 mm 0.01 in0.3 mm
04:10 AM 66.1°F18.9°C 58.7°F14.8°C 77% 3.0 mph WSW4.8 kmh WSW 20.0 mph32.2 kmh 29.61 in1002.7 mb 0.00 in0.0 mm 0.00 in0.0 mm 0.01 in0.3 mm
04:11 AM 65.9°F18.8°C 58.8°F14.9°C 78% 10.0 mph WSW16.1 kmh WSW 20.0 mph32.2 kmh 29.61 in1002.7 mb 0.00 in0.0 mm 0.00 in0.0 mm 0.01 in0.3 mm
04:12 AM 65.8°F18.8°C 58.7°F14.8°C 78% 9.0 mph SW14.5 kmh SW 20.0 mph32.2 kmh 29.61 in1002.7 mb 0.00 in0.0 mm 0.00 in0.0 mm 0.02 in0.5 mm
04:13 AM 65.7°F18.7°C 59.0°F15.0°C 79% 11.0 mph SW17.7 kmh SW 20.0 mph32.2 kmh 29.61 in1002.7 mb 0.00 in0.0 mm 0.00 in0.0 mm 0.02 in0.5 mm
04:14 AM 65.5°F18.6°C 58.8°F14.9°C 79% 5.0 mph SW8.0 kmh SW 20.0 mph32.2 kmh 29.61 in1002.7 mb 0.00 in0.0 mm 0.00 in0.0 mm 0.02 in0.5 mm
04:15 AM 65.4°F18.6°C 59.1°F15.1°C 80% 9.0 mph SW14.5 kmh SW 20.0 mph32.2 kmh 29.61 in1002.7 mb 0.00 in0.0 mm 0.00 in0.0 mm 0.02 in0.5 mm
04:16 AM 65.2°F18.4°C 58.9°F14.9°C 80% 6.0 mph SW9.7 kmh SW 20.0 mph32.2 kmh 29.61 in1002.7 mb 0.00 in0.0 mm 0.00 in0.0 mm 0.02 in0.5 mm
04:17 AM 65.1°F18.4°C 58.8°F14.9°C 80% 10.0 mph SW16.1 kmh SW 20.0 mph32.2 kmh 29.61 in1002.7 mb 0.00 in0.0 mm 0.00 in0.0 mm 0.02 in0.5 mm
04:18 AM 65.0°F18.3°C 59.0°F15.0°C 81% 10.0 mph W16.1 kmh W 19.0 mph30.6 kmh 29.61 in1002.7 mb 0.10 in2.5 mm 6.00 in152.4 mm 0.03 in0.8 mm
04:19 AM 64.9°F18.3°C 59.3°F15.2°C 82% 10.0 mph SW16.1 kmh SW 19.0 mph30.6 kmh 29.61 in1002.7 mb 0.10 in2.5 mm 0.00 in0.0 mm 0.03 in0.8 mm
04:20 AM 64.8°F18.2°C 59.2°F15.1°C 82% 4.0 mph WSW6.4 kmh WSW 19.0 mph30.6 kmh 29.62 in1003.0 mb 0.10 in2.5 mm 0.00 in0.0 mm 0.03 in0.8 mm
04:21 AM 64.8°F18.2°C 59.2°F15.1°C 82% 8.0 mph SW12.9 kmh SW 18.0 mph29.0 kmh 29.62 in1003.0 mb 0.10 in2.5 mm 0.00 in0.0 mm 0.03 in0.8 mm
04:22 AM 64.7°F18.2°C 59.4°F15.2°C 83% 7.0 mph SW11.3 kmh SW 18.0 mph29.0 kmh 29.61 in1002.7 mb 0.10 in2.5 mm 0.00 in0.0 mm 0.03 in0.8 mm
04:23 AM 64.6°F18.1°C 59.3°F15.2°C 83% 3.0 mph SW4.8 kmh SW 18.0 mph29.0 kmh 29.61 in1002.7 mb 0.12 in3.0 mm 1.20 in30.5 mm 0.04 in1.0 mm
04:24 AM 64.5°F18.1°C 59.2°F15.1°C 83% 3.0 mph S4.8 kmh S 18.0 mph29.0 kmh 29.61 in1002.7 mb 0.12 in3.0 mm 0.00 in0.0 mm 0.04 in1.0 mm
04:25 AM 64.5°F18.1°C 59.6°F15.3°C 84% 4.0 mph SW6.4 kmh SW 18.0 mph29.0 kmh 29.61 in1002.7 mb 0.12 in3.0 mm 0.00 in0.0 mm 0.04 in1.0 mm
04:26 AM 64.4°F18.0°C 59.5°F15.3°C 84% 3.0 mph SW4.8 kmh SW 18.0 mph29.0 kmh 29.61 in1002.7 mb 0.20 in5.1 mm 4.80 in121.9 mm 0.05 in1.3 mm
04:27 AM 64.3°F17.9°C 59.7°F15.4°C 85% 6.0 mph S9.7 kmh S 18.0 mph29.0 kmh 29.61 in1002.7 mb 0.20 in5.1 mm 0.00 in0.0 mm 0.05 in1.3 mm
04:28 AM 64.3°F17.9°C 59.7°F15.4°C 85% 2.0 mph WSW3.2 kmh WSW 18.0 mph29.0 kmh 29.60 in1002.4 mb 0.20 in5.1 mm 0.00 in0.0 mm 0.05 in1.3 mm
04:29 AM 64.2°F17.9°C 59.6°F15.3°C 85% 2.0 mph WNW3.2 kmh WNW 18.0 mph29.0 kmh 29.60 in1002.4 mb 0.18 in4.6 mm 0.00 in0.0 mm 0.06 in1.5 mm
04:30 AM 64.2°F17.9°C 59.6°F15.3°C 85% 5.0 mph WSW8.0 kmh WSW 18.0 mph29.0 kmh 29.60 in1002.4 mb 0.18 in4.6 mm 0.00 in0.0 mm 0.06 in1.5 mm
04:31 AM 64.1°F17.8°C 59.8°F15.4°C 86% 1.0 mph S1.6 kmh S 15.0 mph24.1 kmh 29.60 in1002.4 mb 0.18 in4.6 mm 0.00 in0.0 mm 0.06 in1.5 mm
04:32 AM 64.1°F17.8°C 59.8°F15.4°C 86% 4.0 mph W6.4 kmh W 15.0 mph24.1 kmh 29.59 in1002.0 mb 0.18 in4.6 mm 0.00 in0.0 mm 0.06 in1.5 mm
04:33 AM 64.0°F17.8°C 59.7°F15.4°C 86% 1.0 mph SSW1.6 kmh SSW 15.0 mph24.1 kmh 29.60 in1002.4 mb 0.14 in3.6 mm 0.00 in0.0 mm 0.06 in1.5 mm
04:34 AM 64.0°F17.8°C 59.7°F15.4°C 86% 1.0 mph SW1.6 kmh SW 15.0 mph24.1 kmh 29.59 in1002.0 mb 0.12 in3.0 mm 0.00 in0.0 mm 0.06 in1.5 mm
04:35 AM 63.9°F17.7°C 59.6°F15.3°C 86% Calm Calm 9.0 mph14.5 kmh 29.59 in1002.0 mb 0.10 in2.5 mm 0.00 in0.0 mm 0.07 in1.8 mm
04:36 AM 63.9°F17.7°C 59.6°F15.3°C 86% 2.0 mph W3.2 kmh W 9.0 mph14.5 kmh 29.59 in1002.0 mb 0.10 in2.5 mm 0.00 in0.0 mm 0.07 in1.8 mm
04:37 AM 63.9°F17.7°C 60.0°F15.6°C 87% 3.0 mph WSW4.8 kmh WSW 7.0 mph11.3 kmh 29.59 in1002.0 mb 0.10 in2.5 mm 0.00 in0.0 mm 0.07 in1.8 mm
04:38 AM 63.9°F17.7°C 60.0°F15.6°C 87% 4.0 mph SSW6.4 kmh SSW 7.0 mph11.3 kmh 29.60 in1002.4 mb 0.10 in2.5 mm 0.00 in0.0 mm 0.07 in1.8 mm
04:39 AM 63.8°F17.7°C 59.9°F15.5°C 87% 4.0 mph SSW6.4 kmh SSW 7.0 mph11.3 kmh 29.60 in1002.4 mb 0.10 in2.5 mm 0.00 in0.0 mm 0.07 in1.8 mm
04:40 AM 63.9°F17.7°C 60.0°F15.6°C 87% 4.0 mph SSW6.4 kmh SSW 7.0 mph11.3 kmh 29.60 in1002.4 mb 0.10 in2.5 mm 0.00 in0.0 mm 0.07 in1.8 mm
04:41 AM 63.8°F17.7°C 60.2°F15.7°C 88% 3.0 mph SSW4.8 kmh SSW 7.0 mph11.3 kmh 29.60 in1002.4 mb 0.09 in2.3 mm 0.00 in0.0 mm 0.07 in1.8 mm
04:42 AM 63.8°F17.7°C 60.2°F15.7°C 88% 9.0 mph S14.5 kmh S 9.0 mph14.5 kmh 29.61 in1002.7 mb 0.08 in2.0 mm 0.00 in0.0 mm 0.07 in1.8 mm
04:43 AM 63.8°F17.7°C 60.2°F15.7°C 88% 6.0 mph SSW9.7 kmh SSW 9.0 mph14.5 kmh 29.61 in1002.7 mb 0.07 in1.8 mm 0.00 in0.0 mm 0.07 in1.8 mm
04:44 AM 63.7°F17.6°C 60.1°F15.6°C 88% 6.0 mph S9.7 kmh S 9.0 mph14.5 kmh 29.62 in1003.0 mb 0.06 in1.5 mm 0.00 in0.0 mm 0.07 in1.8 mm
04:45 AM 63.7°F17.6°C 60.1°F15.6°C 88% 4.0 mph SW6.4 kmh SW 9.0 mph14.5 kmh 29.62 in1003.0 mb 0.06 in1.5 mm 0.00 in0.0 mm 0.07 in1.8 mm
04:46 AM 63.7°F17.6°C 60.1°F15.6°C 88% 5.0 mph SW8.0 kmh SW 9.0 mph14.5 kmh 29.62 in1003.0 mb 0.05 in1.3 mm 0.00 in0.0 mm 0.07 in1.8 mm
04:47 AM 63.7°F17.6°C 60.4°F15.8°C 89% 4.0 mph SSW6.4 kmh SSW 9.0 mph14.5 kmh 29.62 in1003.0 mb 0.05 in1.3 mm 0.00 in0.0 mm 0.07 in1.8 mm
04:48 AM 63.7°F17.6°C 60.4°F15.8°C 89% 9.0 mph SW14.5 kmh SW 9.0 mph14.5 kmh 29.62 in1003.0 mb 0.04 in1.0 mm 0.00 in0.0 mm 0.07 in1.8 mm
04:49 AM 63.7°F17.6°C 60.4°F15.8°C 89% 2.0 mph SW3.2 kmh SW 10.0 mph16.1 kmh 29.62 in1003.0 mb 0.04 in1.0 mm 0.00 in0.0 mm 0.07 in1.8 mm
04:50 AM 63.7°F17.6°C 60.4°F15.8°C 89% 8.0 mph E12.9 kmh E 10.0 mph16.1 kmh 29.62 in1003.0 mb 0.04 in1.0 mm 0.00 in0.0 mm 0.07 in1.8 mm
04:51 AM 63.7°F17.6°C 60.4°F15.8°C 89% 3.0 mph WSW4.8 kmh WSW 10.0 mph16.1 kmh 29.63 in1003.4 mb 0.04 in1.0 mm 0.00 in0.0 mm 0.07 in1.8 mm
04:52 AM 63.7°F17.6°C 60.4°F15.8°C 89% 1.0 mph WSW1.6 kmh WSW 10.0 mph16.1 kmh 29.62 in1003.0 mb 0.00 in0.0 mm 0.00 in0.0 mm 0.07 in1.8 mm
04:53 AM 63.7°F17.6°C 60.7°F15.9°C 90% 2.0 mph SW3.2 kmh SW 10.0 mph16.1 kmh 29.62 in1003.0 mb 0.00 in0.0 mm 0.00 in0.0 mm 0.07 in1.8 mm
04:54 AM 63.7°F17.6°C 60.7°F15.9°C 90% 5.0 mph SSW8.0 kmh SSW 10.0 mph16.1 kmh 29.61 in1002.7 mb 0.00 in0.0 mm 0.00 in0.0 mm 0.07 in1.8 mm
04:55 AM 63.7°F17.6°C 60.7°F15.9°C 90% 4.0 mph SSW6.4 kmh SSW 10.0 mph16.1 kmh 29.61 in1002.7 mb 0.00 in0.0 mm 0.00 in0.0 mm 0.08 in2.0 mm
04:56 AM 63.6°F17.6°C 60.6°F15.9°C 90% 7.0 mph SW11.3 kmh SW 10.0 mph16.1 kmh 29.61 in1002.7 mb 0.00 in0.0 mm 0.00 in0.0 mm 0.08 in2.0 mm
04:57 AM 63.6°F17.6°C 60.6°F15.9°C 90% 8.0 mph WSW12.9 kmh WSW 10.0 mph16.1 kmh 29.61 in1002.7 mb 0.00 in0.0 mm 0.00 in0.0 mm 0.08 in2.0 mm
04:58 AM 63.6°F17.6°C 60.6°F15.9°C 90% 3.0 mph SSW4.8 kmh SSW 11.0 mph17.7 kmh 29.61 in1002.7 mb 0.00 in0.0 mm 0.00 in0.0 mm 0.08 in2.0 mm
04:59 AM 63.6°F17.6°C 60.6°F15.9°C 90% 8.0 mph SW12.9 kmh SW 11.0 mph17.7 kmh 29.61 in1002.7 mb 0.15 in3.8 mm 9.00 in228.6 mm 0.09 in2.3 mm
05:00 AM 63.6°F17.6°C 60.6°F15.9°C 90% 2.0 mph SW3.2 kmh SW 11.0 mph17.7 kmh 29.62 in1003.0 mb 0.15 in3.8 mm 0.00 in0.0 mm 0.09 in2.3 mm
05:01 AM 63.5°F17.5°C 60.5°F15.8°C 90% 3.0 mph SW4.8 kmh SW 11.0 mph17.7 kmh 29.62 in1003.0 mb 0.15 in3.8 mm 0.00 in0.0 mm 0.09 in2.3 mm
05:02 AM 63.5°F17.5°C 60.5°F15.8°C 90% 10.0 mph S16.1 kmh S 11.0 mph17.7 kmh 29.62 in1003.0 mb 0.15 in3.8 mm 0.00 in0.0 mm 0.09 in2.3 mm
05:03 AM 63.5°F17.5°C 60.5°F15.8°C 90% 5.0 mph WSW8.0 kmh WSW 11.0 mph17.7 kmh 29.62 in1003.0 mb 0.13 in3.3 mm 0.00 in0.0 mm 0.09 in2.3 mm
05:04 AM 63.5°F17.5°C 60.5°F15.8°C 90% 6.0 mph SW9.7 kmh SW 11.0 mph17.7 kmh 29.62 in1003.0 mb 0.13 in3.3 mm 0.00 in0.0 mm 0.10 in2.5 mm
05:05 AM 63.5°F17.5°C 60.5°F15.8°C 90% 5.0 mph SSW8.0 kmh SSW 11.0 mph17.7 kmh 29.62 in1003.0 mb 0.13 in3.3 mm 0.00 in0.0 mm 0.10 in2.5 mm
05:06 AM 63.4°F17.4°C 60.4°F15.8°C 90% 8.0 mph SSW12.9 kmh SSW 11.0 mph17.7 kmh 29.62 in1003.0 mb 0.13 in3.3 mm 0.00 in0.0 mm 0.10 in2.5 mm
05:07 AM 63.4°F17.4°C 60.7°F15.9°C 91% 4.0 mph SSW6.4 kmh SSW 11.0 mph17.7 kmh 29.61 in1002.7 mb 0.13 in3.3 mm 0.00 in0.0 mm 0.10 in2.5 mm
05:08 AM 63.4°F17.4°C 60.7°F15.9°C 91% 2.0 mph SSW3.2 kmh SSW 10.0 mph16.1 kmh 29.61 in1002.7 mb 0.14 in3.6 mm 0.60 in15.2 mm 0.11 in2.8 mm
05:09 AM 63.4°F17.4°C 60.7°F15.9°C 91% 3.0 mph SSW4.8 kmh SSW 10.0 mph16.1 kmh 29.61 in1002.7 mb 0.14 in3.6 mm 0.00 in0.0 mm 0.11 in2.8 mm
05:10 AM 63.4°F17.4°C 60.7°F15.9°C 91% 4.0 mph SW6.4 kmh SW 10.0 mph16.1 kmh 29.61 in1002.7 mb 0.14 in3.6 mm 0.00 in0.0 mm 0.11 in2.8 mm
05:11 AM 63.3°F17.4°C 60.6°F15.9°C 91% 5.0 mph SW8.0 kmh SW 10.0 mph16.1 kmh 29.61 in1002.7 mb 0.14 in3.6 mm 0.00 in0.0 mm 0.11 in2.8 mm
05:12 AM 63.3°F17.4°C 60.6°F15.9°C 91% 1.0 mph SW1.6 kmh SW 10.0 mph16.1 kmh 29.61 in1002.7 mb 0.13 in3.3 mm 0.00 in0.0 mm 0.11 in2.8 mm
05:13 AM 63.3°F17.4°C 60.6°F15.9°C 91% 6.0 mph SW9.7 kmh SW 9.0 mph14.5 kmh 29.61 in1002.7 mb 0.11 in2.8 mm 0.00 in0.0 mm 0.11 in2.8 mm
05:14 AM 63.3°F17.4°C 60.6°F15.9°C 91% 3.0 mph S4.8 kmh S 9.0 mph14.5 kmh 29.61 in1002.7 mb 0.09 in2.3 mm 0.00 in0.0 mm 0.11 in2.8 mm
05:15 AM 63.2°F17.3°C 60.5°F15.8°C 91% 3.0 mph S4.8 kmh S 9.0 mph14.5 kmh 29.62 in1003.0 mb 0.08 in2.0 mm 0.00 in0.0 mm 0.11 in2.8 mm
05:16 AM 63.2°F17.3°C 60.5°F15.8°C 91% 3.0 mph SSW4.8 kmh SSW 9.0 mph14.5 kmh 29.62 in1003.0 mb 0.07 in1.8 mm 0.00 in0.0 mm 0.11 in2.8 mm
05:17 AM 63.2°F17.3°C 60.5°F15.8°C 91% 3.0 mph WSW4.8 kmh WSW 8.0 mph12.9 kmh 29.62 in1003.0 mb 0.06 in1.5 mm 0.00 in0.0 mm 0.11 in2.8 mm
05:18 AM 63.2°F17.3°C 60.5°F15.8°C 91% 5.0 mph SSE8.0 kmh SSE 8.0 mph12.9 kmh 29.62 in1003.0 mb 0.06 in1.5 mm 0.00 in0.0 mm 0.11 in2.8 mm
05:19 AM 63.2°F17.3°C 60.5°F15.8°C 91% 5.0 mph SSE8.0 kmh SSE 8.0 mph12.9 kmh 29.62 in1003.0 mb 0.05 in1.3 mm 0.00 in0.0 mm 0.11 in2.8 mm
05:20 AM 63.2°F17.3°C 60.5°F15.8°C 91% 2.0 mph SE3.2 kmh SE 8.0 mph12.9 kmh 29.61 in1002.7 mb 0.05 in1.3 mm 0.00 in0.0 mm 0.11 in2.8 mm
05:21 AM 63.2°F17.3°C 60.5°F15.8°C 91% 3.0 mph S4.8 kmh S 8.0 mph12.9 kmh 29.61 in1002.7 mb 0.04 in1.0 mm 0.00 in0.0 mm 0.11 in2.8 mm
05:22 AM 63.1°F17.3°C 60.4°F15.8°C 91% 5.0 mph SSE8.0 kmh SSE 8.0 mph12.9 kmh 29.61 in1002.7 mb 0.04 in1.0 mm 0.00 in0.0 mm 0.11 in2.8 mm
05:23 AM 63.1°F17.3°C 60.4°F15.8°C 91% 6.0 mph SSW9.7 kmh SSW 8.0 mph12.9 kmh 29.61 in1002.7 mb 0.04 in1.0 mm 0.00 in0.0 mm 0.12 in3.0 mm
05:24 AM 63.1°F17.3°C 60.4°F15.8°C 91% 6.0 mph SSW9.7 kmh SSW 8.0 mph12.9 kmh 29.61 in1002.7 mb 0.04 in1.0 mm 0.00 in0.0 mm 0.12 in3.0 mm
05:25 AM 63.0°F17.2°C 60.3°F15.7°C 91% 7.0 mph SSE11.3 kmh SSE 8.0 mph12.9 kmh 29.61 in1002.7 mb 0.04 in1.0 mm 0.00 in0.0 mm 0.12 in3.0 mm
05:26 AM 63.0°F17.2°C 60.3°F15.7°C 91% 4.0 mph SE6.4 kmh SE 8.0 mph12.9 kmh 29.61 in1002.7 mb 0.04 in1.0 mm 0.00 in0.0 mm 0.12 in3.0 mm
05:27 AM 63.0°F17.2°C 60.3°F15.7°C 91% 2.0 mph SSE3.2 kmh SSE 8.0 mph12.9 kmh 29.60 in1002.4 mb 0.04 in1.0 mm 0.00 in0.0 mm 0.12 in3.0 mm
05:28 AM 63.0°F17.2°C 60.3°F15.7°C 91% 3.0 mph ESE4.8 kmh ESE 8.0 mph12.9 kmh 29.60 in1002.4 mb 0.04 in1.0 mm 0.00 in0.0 mm 0.12 in3.0 mm
05:29 AM 63.0°F17.2°C 60.3°F15.7°C 91% 4.0 mph SE6.4 kmh SE 8.0 mph12.9 kmh 29.60 in1002.4 mb 0.04 in1.0 mm 0.00 in0.0 mm 0.12 in3.0 mm
05:30 AM 63.0°F17.2°C 60.3°F15.7°C 91% 1.0 mph S1.6 kmh S 8.0 mph12.9 kmh 29.60 in1002.4 mb 0.04 in1.0 mm 0.00 in0.0 mm 0.12 in3.0 mm
05:31 AM 62.9°F17.2°C 60.2°F15.7°C 91% 4.0 mph SSE6.4 kmh SSE 8.0 mph12.9 kmh 29.60 in1002.4 mb 0.04 in1.0 mm 0.00 in0.0 mm 0.12 in3.0 mm
05:32 AM 62.9°F17.2°C 60.2°F15.7°C 91% 5.0 mph SSE8.0 kmh SSE 8.0 mph12.9 kmh 29.60 in1002.4 mb 0.04 in1.0 mm 0.00 in0.0 mm 0.12 in3.0 mm
05:33 AM 62.9°F17.2°C 60.2°F15.7°C 91% 4.0 mph SE6.4 kmh SE 9.0 mph14.5 kmh 29.60 in1002.4 mb 0.04 in1.0 mm 0.00 in0.0 mm 0.12 in3.0 mm
05:34 AM 62.9°F17.2°C 60.2°F15.7°C 91% 3.0 mph SE4.8 kmh SE 9.0 mph14.5 kmh 29.59 in1002.0 mb 0.04 in1.0 mm 0.00 in0.0 mm 0.12 in3.0 mm
05:35 AM 62.9°F17.2°C 60.5°F15.8°C 92% 3.0 mph SE4.8 kmh SE 9.0 mph14.5 kmh 29.59 in1002.0 mb 0.04 in1.0 mm 0.00 in0.0 mm 0.12 in3.0 mm
05:36 AM 62.9°F17.2°C 60.5°F15.8°C 92% 4.0 mph SE6.4 kmh SE 9.0 mph14.5 kmh 29.58 in1001.7 mb 0.04 in1.0 mm 0.00 in0.0 mm 0.12 in3.0 mm
05:37 AM 62.9°F17.2°C 60.5°F15.8°C 92% 1.0 mph ESE1.6 kmh ESE 9.0 mph14.5 kmh 29.58 in1001.7 mb 0.04 in1.0 mm 0.00 in0.0 mm 0.12 in3.0 mm
05:38 AM 62.9°F17.2°C 60.5°F15.8°C 92% 5.0 mph SE8.0 kmh SE 9.0 mph14.5 kmh 29.58 in1001.7 mb 0.04 in1.0 mm 0.00 in0.0 mm 0.12 in3.0 mm
05:39 AM 62.9°F17.2°C 60.5°F15.8°C 92% 2.0 mph S3.2 kmh S 9.0 mph14.5 kmh 29.58 in1001.7 mb 0.04 in1.0 mm 0.00 in0.0 mm 0.12 in3.0 mm
05:40 AM 62.8°F17.1°C 60.4°F15.8°C 92% 1.0 mph SE1.6 kmh SE 9.0 mph14.5 kmh 29.60 in1002.4 mb 0.00 in0.0 mm 0.00 in0.0 mm 0.13 in3.3 mm
05:41 AM 62.8°F17.1°C 60.1°F15.6°C 91% 1.0 mph SE1.6 kmh SE 9.0 mph14.5 kmh 29.59 in1002.0 mb 0.00 in0.0 mm 0.00 in0.0 mm 0.13 in3.3 mm
05:42 AM 62.7°F17.1°C 60.0°F15.6°C 91% Calm Calm 9.0 mph14.5 kmh 29.59 in1002.0 mb 0.00 in0.0 mm 0.00 in0.0 mm 0.13 in3.3 mm
05:43 AM 62.7°F17.1°C 60.0°F15.6°C 91% 3.0 mph SSE4.8 kmh SSE 7.0 mph11.3 kmh 29.59 in1002.0 mb 0.00 in0.0 mm 0.00 in0.0 mm 0.13 in3.3 mm
05:44 AM 62.7°F17.1°C 60.0°F15.6°C 91% 4.0 mph SE6.4 kmh SE 7.0 mph11.3 kmh 29.59 in1002.0 mb 0.00 in0.0 mm 0.00 in0.0 mm 0.13 in3.3 mm
05:45 AM 62.7°F17.1°C 60.0°F15.6°C 91% 3.0 mph ESE4.8 kmh ESE 8.0 mph12.9 kmh 29.59 in1002.0 mb 0.00 in0.0 mm 0.00 in0.0 mm 0.13 in3.3 mm
05:46 AM 62.7°F17.1°C 60.3°F15.7°C 92% 4.0 mph E6.4 kmh E 8.0 mph12.9 kmh 29.58 in1001.7 mb 0.00 in0.0 mm 0.00 in0.0 mm 0.13 in3.3 mm
05:47 AM 62.7°F17.1°C 60.3°F15.7°C 92% Calm Calm 8.0 mph12.9 kmh 29.58 in1001.7 mb 0.00 in0.0 mm 0.00 in0.0 mm 0.13 in3.3 mm
05:48 AM 62.7°F17.1°C 60.3°F15.7°C 92% Calm Calm 8.0 mph12.9 kmh 29.58 in1001.7 mb 0.00 in0.0 mm 0.00 in0.0 mm 0.13 in3.3 mm
05:49 AM 62.7°F17.1°C 60.3°F15.7°C 92% 4.0 mph E6.4 kmh E 8.0 mph12.9 kmh 29.57 in1001.4 mb 0.00 in0.0 mm 0.00 in0.0 mm 0.13 in3.3 mm
05:50 AM 62.6°F17.0°C 60.2°F15.7°C 92% 2.0 mph ENE3.2 kmh ENE 8.0 mph12.9 kmh 29.57 in1001.4 mb 0.00 in0.0 mm 0.00 in0.0 mm 0.13 in3.3 mm
05:51 AM 62.6°F17.0°C 60.2°F15.7°C 92% 3.0 mph E4.8 kmh E 8.0 mph12.9 kmh 29.56 in1001.0 mb 0.00 in0.0 mm 0.00 in0.0 mm 0.13 in3.3 mm
05:52 AM 62.6°F17.0°C 60.2°F15.7°C 92% 1.0 mph ENE1.6 kmh ENE 8.0 mph12.9 kmh 29.57 in1001.4 mb 0.00 in0.0 mm 0.00 in0.0 mm 0.13 in3.3 mm
05:53 AM 62.5°F16.9°C 60.1°F15.6°C 92% 3.0 mph E4.8 kmh E 8.0 mph12.9 kmh 29.57 in1001.4 mb 0.00 in0.0 mm 0.00 in0.0 mm 0.13 in3.3 mm
05:54 AM 62.6°F17.0°C 60.2°F15.7°C 92% 2.0 mph ENE3.2 kmh ENE 8.0 mph12.9 kmh 29.56 in1001.0 mb 0.00 in0.0 mm 0.00 in0.0 mm 0.13 in3.3 mm
05:55 AM 62.5°F16.9°C 60.1°F15.6°C 92% 3.0 mph ENE4.8 kmh ENE 7.0 mph11.3 kmh 29.56 in1001.0 mb 0.00 in0.0 mm 0.00 in0.0 mm 0.13 in3.3 mm
05:56 AM 62.5°F16.9°C 59.8°F15.4°C 91% 2.0 mph E3.2 kmh E 7.0 mph11.3 kmh 29.56 in1001.0 mb 0.00 in0.0 mm 0.00 in0.0 mm 0.13 in3.3 mm
05:57 AM 62.4°F16.9°C 59.7°F15.4°C 91% 1.0 mph E1.6 kmh E 7.0 mph11.3 kmh 29.55 in1000.7 mb 0.00 in0.0 mm 0.00 in0.0 mm 0.13 in3.3 mm
05:58 AM 62.4°F16.9°C 59.7°F15.4°C 91% 2.0 mph E3.2 kmh E 7.0 mph11.3 kmh 29.55 in1000.7 mb 0.00 in0.0 mm 0.00 in0.0 mm 0.13 in3.3 mm
05:59 AM 62.4°F16.9°C 59.7°F15.4°C 91% 1.0 mph E1.6 kmh E 7.0 mph11.3 kmh 29.55 in1000.7 mb 0.00 in0.0 mm 0.00 in0.0 mm 0.13 in3.3 mm
06:00 AM 62.4°F16.9°C 59.7°F15.4°C 91% 2.0 mph SE3.2 kmh SE 7.0 mph11.3 kmh 29.54 in1000.3 mb 0.00 in0.0 mm 0.00 in0.0 mm 0.13 in3.3 mm
06:01 AM 62.4°F16.9°C 59.7°F15.4°C 91% 1.0 mph SE1.6 kmh SE 7.0 mph11.3 kmh 29.54 in1000.3 mb 0.00 in0.0 mm 0.00 in0.0 mm 0.13 in3.3 mm
06:02 AM 62.4°F16.9°C 59.7°F15.4°C 91% 2.0 mph E3.2 kmh E 7.0 mph11.3 kmh 29.54 in1000.3 mb 0.00 in0.0 mm 0.00 in0.0 mm 0.13 in3.3 mm
06:03 AM 62.3°F16.8°C 59.6°F15.3°C 91% 3.0 mph ENE4.8 kmh ENE 7.0 mph11.3 kmh 29.54 in1000.3 mb 0.00 in0.0 mm 0.00 in0.0 mm 0.13 in3.3 mm
06:04 AM 62.4°F16.9°C 59.7°F15.4°C 91% 4.0 mph E6.4 kmh E 5.0 mph8.0 kmh 29.53 in1000.0 mb 0.00 in0.0 mm 0.00 in0.0 mm 0.13 in3.3 mm
06:05 AM 62.4°F16.9°C 59.7°F15.4°C 91% 3.0 mph E4.8 kmh E 5.0 mph8.0 kmh 29.53 in1000.0 mb 0.00 in0.0 mm 0.00 in0.0 mm 0.13 in3.3 mm
06:06 AM 62.4°F16.9°C 59.7°F15.4°C 91% 3.0 mph E4.8 kmh E 5.0 mph8.0 kmh 29.53 in1000.0 mb 0.00 in0.0 mm 0.00 in0.0 mm 0.13 in3.3 mm
06:07 AM 62.4°F16.9°C 59.7°F15.4°C 91% 2.0 mph E3.2 kmh E 5.0 mph8.0 kmh 29.53 in1000.0 mb 0.00 in0.0 mm 0.00 in0.0 mm 0.13 in3.3 mm
06:08 AM 62.4°F16.9°C 59.7°F15.4°C 91% 3.0 mph E4.8 kmh E 5.0 mph8.0 kmh 29.53 in1000.0 mb 0.00 in0.0 mm 0.00 in0.0 mm 0.13 in3.3 mm
06:09 AM 62.4°F16.9°C 59.7°F15.4°C 91% 2.0 mph ESE3.2 kmh ESE 5.0 mph8.0 kmh 29.54 in1000.3 mb 0.00 in0.0 mm 0.00 in0.0 mm 0.13 in3.3 mm
06:10 AM 62.4°F16.9°C 59.7°F15.4°C 91% 3.0 mph SE4.8 kmh SE 5.0 mph8.0 kmh 29.54 in1000.3 mb 0.00 in0.0 mm 0.00 in0.0 mm 0.13 in3.3 mm
06:11 AM 62.3°F16.8°C 59.6°F15.3°C 91% 2.0 mph E3.2 kmh E 6.0 mph9.7 kmh 29.54 in1000.3 mb 0.00 in0.0 mm 0.00 in0.0 mm 0.13 in3.3 mm
06:12 AM 62.3°F16.8°C 59.6°F15.3°C 91% 3.0 mph SE4.8 kmh SE 6.0 mph9.7 kmh 29.54 in1000.3 mb 0.00 in0.0 mm 0.00 in0.0 mm 0.13 in3.3 mm
06:13 AM 62.3°F16.8°C 59.6°F15.3°C 91% 2.0 mph E3.2 kmh E 7.0 mph11.3 kmh 29.54 in1000.3 mb 0.00 in0.0 mm 0.00 in0.0 mm 0.13 in3.3 mm
06:14 AM 62.4°F16.9°C 59.7°F15.4°C 91% 3.0 mph SE4.8 kmh SE 7.0 mph11.3 kmh 29.53 in1000.0 mb 0.00 in0.0 mm 0.00 in0.0 mm 0.13 in3.3 mm
06:15 AM 62.4°F16.9°C 59.7°F15.4°C 91% 8.0 mph ESE12.9 kmh ESE 8.0 mph12.9 kmh 29.53 in1000.0 mb 0.00 in0.0 mm 0.00 in0.0 mm 0.13 in3.3 mm
06:16 AM 62.4°F16.9°C 59.7°F15.4°C 91% 4.0 mph SE6.4 kmh SE 8.0 mph12.9 kmh 29.53 in1000.0 mb 0.00 in0.0 mm 0.00 in0.0 mm 0.13 in3.3 mm
06:17 AM 62.4°F16.9°C 59.7°F15.4°C 91% 4.0 mph E6.4 kmh E 8.0 mph12.9 kmh 29.53 in1000.0 mb 0.00 in0.0 mm 0.00 in0.0 mm 0.13 in3.3 mm
06:18 AM 62.4°F16.9°C 59.7°F15.4°C 91% 5.0 mph S8.0 kmh S 12.0 mph19.3 kmh 29.53 in1000.0 mb 0.00 in0.0 mm 0.00 in0.0 mm 0.13 in3.3 mm
06:19 AM 62.3°F16.8°C 59.3°F15.2°C 90% 4.0 mph E6.4 kmh E 14.0 mph22.5 kmh 29.53 in1000.0 mb 0.00 in0.0 mm 0.00 in0.0 mm 0.13 in3.3 mm
06:20 AM 62.3°F16.8°C 59.3°F15.2°C 90% 3.0 mph E4.8 kmh E 14.0 mph22.5 kmh 29.52 in999.7 mb 0.00 in0.0 mm 0.00 in0.0 mm 0.13 in3.3 mm
06:21 AM 62.3°F16.8°C 59.3°F15.2°C 90% 2.0 mph ENE3.2 kmh ENE 14.0 mph22.5 kmh 29.51 in999.3 mb 0.00 in0.0 mm 0.00 in0.0 mm 0.13 in3.3 mm
06:22 AM 62.3°F16.8°C 59.6°F15.3°C 91% 2.0 mph E3.2 kmh E 14.0 mph22.5 kmh 29.50 in999.0 mb 0.00 in0.0 mm 0.00 in0.0 mm 0.13 in3.3 mm
06:23 AM 62.3°F16.8°C 59.3°F15.2°C 90% 4.0 mph E6.4 kmh E 14.0 mph22.5 kmh 29.50 in999.0 mb 0.00 in0.0 mm 0.00 in0.0 mm 0.13 in3.3 mm
06:24 AM 62.3°F16.8°C 59.3°F15.2°C 90% 7.0 mph ESE11.3 kmh ESE 14.0 mph22.5 kmh 29.50 in999.0 mb 0.00 in0.0 mm 0.00 in0.0 mm 0.13 in3.3 mm
06:25 AM 62.3°F16.8°C 59.3°F15.2°C 90% 3.0 mph SSE4.8 kmh SSE 14.0 mph22.5 kmh 29.50 in999.0 mb 0.00 in0.0 mm 0.00 in0.0 mm 0.13 in3.3 mm
06:26 AM 62.3°F16.8°C 59.3°F15.2°C 90% 3.0 mph E4.8 kmh E 14.0 mph22.5 kmh 29.51 in999.3 mb 0.00 in0.0 mm 0.00 in0.0 mm 0.13 in3.3 mm
06:27 AM 62.3°F16.8°C 59.3°F15.2°C 90% 9.0 mph SE14.5 kmh SE 14.0 mph22.5 kmh 29.52 in999.7 mb 0.00 in0.0 mm 0.00 in0.0 mm 0.13 in3.3 mm
06:28 AM 62.3°F16.8°C 59.3°F15.2°C 90% 4.0 mph SE6.4 kmh SE 14.0 mph22.5 kmh 29.52 in999.7 mb 0.00 in0.0 mm 0.00 in0.0 mm 0.13 in3.3 mm
06:29 AM 62.2°F16.8°C 59.2°F15.1°C 90% 2.0 mph SE3.2 kmh SE 13.0 mph20.9 kmh 29.52 in999.7 mb 0.00 in0.0 mm 0.00 in0.0 mm 0.13 in3.3 mm
06:30 AM 62.2°F16.8°C 59.2°F15.1°C 90% 10.0 mph S16.1 kmh S 13.0 mph20.9 kmh 29.53 in1000.0 mb 0.00 in0.0 mm 0.00 in0.0 mm 0.13 in3.3 mm
06:31 AM 62.2°F16.8°C 59.2°F15.1°C 90% 2.0 mph SE3.2 kmh SE 13.0 mph20.9 kmh 29.53 in1000.0 mb 0.00 in0.0 mm 0.00 in0.0 mm 0.13 in3.3 mm
06:32 AM 62.2°F16.8°C 59.2°F15.1°C 90% 2.0 mph SE3.2 kmh SE 13.0 mph20.9 kmh 29.53 in1000.0 mb 0.00 in0.0 mm 0.00 in0.0 mm 0.13 in3.3 mm
06:33 AM 62.2°F16.8°C 59.2°F15.1°C 90% 7.0 mph SE11.3 kmh SE 13.0 mph20.9 kmh 29.53 in1000.0 mb 0.00 in0.0 mm 0.00 in0.0 mm 0.13 in3.3 mm
06:34 AM 62.2°F16.8°C 59.2°F15.1°C 90% 3.0 mph ESE4.8 kmh ESE 13.0 mph20.9 kmh 29.53 in1000.0 mb 0.00 in0.0 mm 0.00 in0.0 mm 0.13 in3.3 mm
06:35 AM 62.1°F16.7°C 59.1°F15.1°C 90% 5.0 mph SE8.0 kmh SE 13.0 mph20.9 kmh 29.53 in1000.0 mb 0.00 in0.0 mm 0.00 in0.0 mm 0.13 in3.3 mm
06:36 AM 62.1°F16.7°C 59.1°F15.1°C 90% 9.0 mph SSE14.5 kmh SSE 14.0 mph22.5 kmh 29.53 in1000.0 mb 0.00 in0.0 mm 0.00 in0.0 mm 0.13 in3.3 mm
06:37 AM 62.1°F16.7°C 59.1°F15.1°C 90% 6.0 mph E9.7 kmh E 14.0 mph22.5 kmh 29.53 in1000.0 mb 0.00 in0.0 mm 0.00 in0.0 mm 0.14 in3.6 mm
06:38 AM 62.1°F16.7°C 59.1°F15.1°C 90% 2.0 mph E3.2 kmh E 14.0 mph22.5 kmh 29.53 in1000.0 mb 0.00 in0.0 mm 0.00 in0.0 mm 0.14 in3.6 mm
06:39 AM 62.2°F16.8°C 59.2°F15.1°C 90% 9.0 mph SSE14.5 kmh SSE 14.0 mph22.5 kmh 29.53 in1000.0 mb 0.00 in0.0 mm 0.00 in0.0 mm 0.14 in3.6 mm
06:40 AM 62.2°F16.8°C 59.2°F15.1°C 90% 11.0 mph SE17.7 kmh SE 15.0 mph24.1 kmh 29.52 in999.7 mb 0.00 in0.0 mm 0.00 in0.0 mm 0.14 in3.6 mm
06:41 AM 62.2°F16.8°C 59.2°F15.1°C 90% 4.0 mph SSE6.4 kmh SSE 15.0 mph24.1 kmh 29.53 in1000.0 mb 0.00 in0.0 mm 0.00 in0.0 mm 0.14 in3.6 mm
06:42 AM 62.1°F16.7°C 59.1°F15.1°C 90% 12.0 mph ESE19.3 kmh ESE 15.0 mph24.1 kmh 29.53 in1000.0 mb 0.00 in0.0 mm 0.00 in0.0 mm 0.14 in3.6 mm
06:43 AM 62.2°F16.8°C 59.2°F15.1°C 90% 2.0 mph S3.2 kmh S 15.0 mph24.1 kmh 29.53 in1000.0 mb 0.00 in0.0 mm 0.00 in0.0 mm 0.14 in3.6 mm
06:44 AM 62.2°F16.8°C 58.9°F14.9°C 89% 3.0 mph SSW4.8 kmh SSW 15.0 mph24.1 kmh 29.53 in1000.0 mb 0.00 in0.0 mm 0.00 in0.0 mm 0.14 in3.6 mm
06:45 AM 62.2°F16.8°C 58.9°F14.9°C 89% 5.0 mph ENE8.0 kmh ENE 15.0 mph24.1 kmh 29.53 in1000.0 mb 0.00 in0.0 mm 0.00 in0.0 mm 0.14 in3.6 mm
06:46 AM 62.2°F16.8°C 58.9°F14.9°C 89% 5.0 mph SE8.0 kmh SE 15.0 mph24.1 kmh 29.53 in1000.0 mb 0.00 in0.0 mm 0.00 in0.0 mm 0.14 in3.6 mm
06:47 AM 62.2°F16.8°C 58.9°F14.9°C 89% 4.0 mph SE6.4 kmh SE 15.0 mph24.1 kmh 29.53 in1000.0 mb 0.00 in0.0 mm 0.00 in0.0 mm 0.14 in3.6 mm
06:48 AM 62.2°F16.8°C 58.9°F14.9°C 89% 5.0 mph SE8.0 kmh SE 15.0 mph24.1 kmh 29.53 in1000.0 mb 0.00 in0.0 mm 0.00 in0.0 mm 0.14 in3.6 mm
06:49 AM 62.2°F16.8°C 58.9°F14.9°C 89% 6.0 mph S9.7 kmh S 15.0 mph24.1 kmh 29.53 in1000.0 mb 0.00 in0.0 mm 0.00 in0.0 mm 0.14 in3.6 mm
06:50 AM 62.2°F16.8°C 58.9°F14.9°C 89% 5.0 mph SE8.0 kmh SE 12.0 mph19.3 kmh 29.53 in1000.0 mb 0.00 in0.0 mm 0.00 in0.0 mm 0.14 in3.6 mm
06:51 AM 62.2°F16.8°C 58.9°F14.9°C 89% 2.0 mph E3.2 kmh E 12.0 mph19.3 kmh 29.53 in1000.0 mb 0.00 in0.0 mm 0.00 in0.0 mm 0.14 in3.6 mm
06:52 AM 62.2°F16.8°C 58.9°F14.9°C 89% 2.0 mph S3.2 kmh S 12.0 mph19.3 kmh 29.54 in1000.3 mb 0.00 in0.0 mm 0.00 in0.0 mm 0.14 in3.6 mm
06:53 AM 62.3°F16.8°C 59.0°F15.0°C 89% 2.0 mph S3.2 kmh S 12.0 mph19.3 kmh 29.54 in1000.3 mb 0.00 in0.0 mm 0.00 in0.0 mm 0.14 in3.6 mm
06:54 AM 62.2°F16.8°C 58.9°F14.9°C 89% 12.0 mph SE19.3 kmh SE 12.0 mph19.3 kmh 29.54 in1000.3 mb 0.00 in0.0 mm 0.00 in0.0 mm 0.14 in3.6 mm
06:55 AM 62.3°F16.8°C 59.0°F15.0°C 89% 8.0 mph SSE12.9 kmh SSE 12.0 mph19.3 kmh 29.54 in1000.3 mb 0.00 in0.0 mm 0.00 in0.0 mm 0.14 in3.6 mm
06:56 AM 62.2°F16.8°C 58.9°F14.9°C 89% 5.0 mph SE8.0 kmh SE 12.0 mph19.3 kmh 29.54 in1000.3 mb 0.00 in0.0 mm 0.00 in0.0 mm 0.14 in3.6 mm
06:57 AM 62.3°F16.8°C 59.0°F15.0°C 89% 4.0 mph ESE6.4 kmh ESE 12.0 mph19.3 kmh 29.53 in1000.0 mb 0.00 in0.0 mm 0.00 in0.0 mm 0.14 in3.6 mm
06:58 AM 62.3°F16.8°C 59.0°F15.0°C 89% 2.0 mph ESE3.2 kmh ESE 12.0 mph19.3 kmh 29.53 in1000.0 mb 0.00 in0.0 mm 0.00 in0.0 mm 0.14 in3.6 mm
06:59 AM 62.3°F16.8°C 59.0°F15.0°C 89% 7.0 mph SSE11.3 kmh SSE 12.0 mph19.3 kmh 29.53 in1000.0 mb 0.00 in0.0 mm 0.00 in0.0 mm 0.14 in3.6 mm
07:00 AM 62.2°F16.8°C 58.9°F14.9°C 89% 6.0 mph S9.7 kmh S 12.0 mph19.3 kmh 29.54 in1000.3 mb 0.00 in0.0 mm 0.00 in0.0 mm 0.14 in3.6 mm
07:01 AM 62.2°F16.8°C 58.9°F14.9°C 89% 5.0 mph SE8.0 kmh SE 12.0 mph19.3 kmh 29.54 in1000.3 mb 0.00 in0.0 mm 0.00 in0.0 mm 0.14 in3.6 mm
07:02 AM 62.2°F16.8°C 58.9°F14.9°C 89% 9.0 mph SE14.5 kmh SE 13.0 mph20.9 kmh 29.54 in1000.3 mb 0.00 in0.0 mm 0.00 in0.0 mm 0.14 in3.6 mm
07:03 AM 62.2°F16.8°C 58.9°F14.9°C 89% 10.0 mph SE16.1 kmh SE 16.0 mph25.7 kmh 29.54 in1000.3 mb 0.00 in0.0 mm 0.00 in0.0 mm 0.14 in3.6 mm
07:04 AM 62.2°F16.8°C 58.9°F14.9°C 89% 5.0 mph SE8.0 kmh SE 16.0 mph25.7 kmh 29.54 in1000.3 mb 0.00 in0.0 mm 0.00 in0.0 mm 0.14 in3.6 mm
07:05 AM 62.2°F16.8°C 58.9°F14.9°C 89% 3.0 mph SE4.8 kmh SE 16.0 mph25.7 kmh 29.53 in1000.0 mb 0.00 in0.0 mm 0.00 in0.0 mm 0.14 in3.6 mm
07:06 AM 62.2°F16.8°C 58.9°F14.9°C 89% 3.0 mph SE4.8 kmh SE 16.0 mph25.7 kmh 29.53 in1000.0 mb 0.00 in0.0 mm 0.00 in0.0 mm 0.14 in3.6 mm
07:07 AM 62.1°F16.7°C 58.8°F14.9°C 89% 4.0 mph ENE6.4 kmh ENE 16.0 mph25.7 kmh 29.52 in999.7 mb 0.00 in0.0 mm 0.00 in0.0 mm 0.14 in3.6 mm
07:08 AM 62.1°F16.7°C 58.8°F14.9°C 89% 4.0 mph E6.4 kmh E 16.0 mph25.7 kmh 29.52 in999.7 mb 0.00 in0.0 mm 0.00 in0.0 mm 0.14 in3.6 mm
07:09 AM 62.1°F16.7°C 58.5°F14.7°C 88% 9.0 mph SE14.5 kmh SE 16.0 mph25.7 kmh 29.52 in999.7 mb 0.00 in0.0 mm 0.00 in0.0 mm 0.14 in3.6 mm
07:10 AM 62.0°F16.7°C 58.4°F14.7°C 88% 7.0 mph SE11.3 kmh SE 16.0 mph25.7 kmh 29.52 in999.7 mb 0.00 in0.0 mm 0.00 in0.0 mm 0.14 in3.6 mm
07:11 AM 62.0°F16.7°C 58.4°F14.7°C 88% 2.0 mph SSE3.2 kmh SSE 16.0 mph25.7 kmh 29.51 in999.3 mb 0.00 in0.0 mm 0.00 in0.0 mm 0.14 in3.6 mm
07:12 AM 62.1°F16.7°C 58.5°F14.7°C 88% 3.0 mph ESE4.8 kmh ESE 16.0 mph25.7 kmh 29.51 in999.3 mb 0.00 in0.0 mm 0.00 in0.0 mm 0.14 in3.6 mm
07:13 AM 62.1°F16.7°C 58.5°F14.7°C 88% 3.0 mph E4.8 kmh E 11.0 mph17.7 kmh 29.51 in999.3 mb 0.00 in0.0 mm 0.00 in0.0 mm 0.14 in3.6 mm
07:14 AM 62.2°F16.8°C 58.6°F14.8°C 88% 6.0 mph SSE9.7 kmh SSE 10.0 mph16.1 kmh 29.51 in999.3 mb 0.00 in0.0 mm 0.00 in0.0 mm 0.14 in3.6 mm
07:15 AM 62.2°F16.8°C 58.3°F14.6°C 87% 3.0 mph SE4.8 kmh SE 10.0 mph16.1 kmh 29.51 in999.3 mb 0.00 in0.0 mm 0.00 in0.0 mm 0.14 in3.6 mm
07:16 AM 62.2°F16.8°C 58.3°F14.6°C 87% 1.0 mph SSE1.6 kmh SSE 10.0 mph16.1 kmh 29.52 in999.7 mb 0.00 in0.0 mm 0.00 in0.0 mm 0.14 in3.6 mm
07:17 AM 62.2°F16.8°C 58.3°F14.6°C 87% 2.0 mph SE3.2 kmh SE 10.0 mph16.1 kmh 29.53 in1000.0 mb 0.00 in0.0 mm 0.00 in0.0 mm 0.14 in3.6 mm
07:18 AM 62.3°F16.8°C 58.4°F14.7°C 87% 2.0 mph S3.2 kmh S 10.0 mph16.1 kmh 29.53 in1000.0 mb 0.00 in0.0 mm 0.00 in0.0 mm 0.14 in3.6 mm
07:19 AM 62.3°F16.8°C 58.4°F14.7°C 87% 3.0 mph SE4.8 kmh SE 10.0 mph16.1 kmh 29.54 in1000.3 mb 0.00 in0.0 mm 0.00 in0.0 mm 0.14 in3.6 mm
07:20 AM 62.3°F16.8°C 58.4°F14.7°C 87% 1.0 mph SSE1.6 kmh SSE 10.0 mph16.1 kmh 29.50 in999.0 mb 0.00 in0.0 mm 0.00 in0.0 mm 0.14 in3.6 mm
07:21 AM 62.4°F16.9°C 58.2°F14.6°C 86% 2.0 mph SE3.2 kmh SE 10.0 mph16.1 kmh 29.50 in999.0 mb 0.00 in0.0 mm 0.00 in0.0 mm 0.14 in3.6 mm
07:22 AM 62.4°F16.9°C 58.2°F14.6°C 86% 4.0 mph SE6.4 kmh SE 10.0 mph16.1 kmh 29.50 in999.0 mb 0.00 in0.0 mm 0.00 in0.0 mm 0.14 in3.6 mm
07:23 AM 62.4°F16.9°C 58.2°F14.6°C 86% 4.0 mph SE6.4 kmh SE 8.0 mph12.9 kmh 29.50 in999.0 mb 0.00 in0.0 mm 0.00 in0.0 mm 0.14 in3.6 mm
07:24 AM 62.4°F16.9°C 58.2°F14.6°C 86% 6.0 mph SSW9.7 kmh SSW 8.0 mph12.9 kmh 29.50 in999.0 mb 0.00 in0.0 mm 0.00 in0.0 mm 0.14 in3.6 mm
07:25 AM 62.4°F16.9°C 58.2°F14.6°C 86% 5.0 mph SE8.0 kmh SE 8.0 mph12.9 kmh 29.50 in999.0 mb 0.00 in0.0 mm 0.00 in0.0 mm 0.14 in3.6 mm
07:26 AM 62.4°F16.9°C 58.2°F14.6°C 86% 3.0 mph S4.8 kmh S 8.0 mph12.9 kmh 29.50 in999.0 mb 0.00 in0.0 mm 0.00 in0.0 mm 0.14 in3.6 mm
07:27 AM 62.4°F16.9°C 58.2°F14.6°C 86% 2.0 mph E3.2 kmh E 8.0 mph12.9 kmh 29.49 in998.6 mb 0.00 in0.0 mm 0.00 in0.0 mm 0.14 in3.6 mm
07:28 AM 62.4°F16.9°C 58.2°F14.6°C 86% Calm Calm 8.0 mph12.9 kmh 29.49 in998.6 mb 0.00 in0.0 mm 0.00 in0.0 mm 0.14 in3.6 mm
07:29 AM 62.5°F16.9°C 58.3°F14.6°C 86% 1.0 mph E1.6 kmh E 8.0 mph12.9 kmh 29.49 in998.6 mb 0.00 in0.0 mm 0.00 in0.0 mm 0.14 in3.6 mm
07:30 AM 62.5°F16.9°C 58.3°F14.6°C 86% Calm Calm 8.0 mph12.9 kmh 29.48 in998.3 mb 0.00 in0.0 mm 0.00 in0.0 mm 0.14 in3.6 mm
07:31 AM 62.5°F16.9°C 57.9°F14.4°C 85% 1.0 mph E1.6 kmh E 8.0 mph12.9 kmh 29.48 in998.3 mb 0.00 in0.0 mm 0.00 in0.0 mm 0.14 in3.6 mm
07:32 AM 62.5°F16.9°C 57.9°F14.4°C 85% Calm Calm 8.0 mph12.9 kmh 29.48 in998.3 mb 0.00 in0.0 mm 0.00 in0.0 mm 0.14 in3.6 mm
07:33 AM 62.6°F17.0°C 58.0°F14.4°C 85% 1.0 mph E1.6 kmh E 8.0 mph12.9 kmh 29.48 in998.3 mb 0.00 in0.0 mm 0.00 in0.0 mm 0.14 in3.6 mm
07:34 AM 62.6°F17.0°C 58.0°F14.4°C 85% 1.0 mph SE1.6 kmh SE 8.0 mph12.9 kmh 29.48 in998.3 mb 0.00 in0.0 mm 0.00 in0.0 mm 0.14 in3.6 mm
07:35 AM 62.7°F17.1°C 57.8°F14.3°C 84% 2.0 mph E3.2 kmh E 7.0 mph11.3 kmh 29.48 in998.3 mb 0.00 in0.0 mm 0.00 in0.0 mm 0.14 in3.6 mm
07:36 AM 62.8°F17.1°C 57.9°F14.4°C 84% 3.0 mph E4.8 kmh E 5.0 mph8.0 kmh 29.47 in998.0 mb 0.00 in0.0 mm 0.00 in0.0 mm 0.14 in3.6 mm
07:37 AM 62.9°F17.2°C 58.0°F14.4°C 84% 4.0 mph NE6.4 kmh NE 6.0 mph9.7 kmh 29.46 in997.6 mb 0.00 in0.0 mm 0.00 in0.0 mm 0.14 in3.6 mm
07:38 AM 62.9°F17.2°C 58.0°F14.4°C 84% 3.0 mph ENE4.8 kmh ENE 6.0 mph9.7 kmh 29.45 in997.3 mb 0.00 in0.0 mm 0.00 in0.0 mm 0.14 in3.6 mm
07:39 AM 63.1°F17.3°C 57.9°F14.4°C 83% 3.0 mph ENE4.8 kmh ENE 6.0 mph9.7 kmh 29.45 in997.3 mb 0.00 in0.0 mm 0.00 in0.0 mm 0.14 in3.6 mm
07:40 AM 63.1°F17.3°C 57.9°F14.4°C 83% 2.0 mph ENE3.2 kmh ENE 7.0 mph11.3 kmh 29.52 in999.7 mb 0.00 in0.0 mm 0.00 in0.0 mm 0.14 in3.6 mm
07:41 AM 63.2°F17.3°C 57.9°F14.4°C 83% 2.0 mph SSE3.2 kmh SSE 7.0 mph11.3 kmh 29.53 in1000.0 mb 0.00 in0.0 mm 0.00 in0.0 mm 0.14 in3.6 mm
07:42 AM 63.3°F17.4°C 58.0°F14.4°C 83% 2.0 mph SE3.2 kmh SE 7.0 mph11.3 kmh 29.54 in1000.3 mb 0.00 in0.0 mm 0.00 in0.0 mm 0.14 in3.6 mm
07:43 AM 63.3°F17.4°C 58.0°F14.4°C 83% 5.0 mph S8.0 kmh S 10.0 mph16.1 kmh 29.55 in1000.7 mb 0.00 in0.0 mm 0.00 in0.0 mm 0.14 in3.6 mm
07:44 AM 63.4°F17.4°C 58.1°F14.5°C 83% 5.0 mph SE8.0 kmh SE 10.0 mph16.1 kmh 29.55 in1000.7 mb 0.00 in0.0 mm 0.00 in0.0 mm 0.14 in3.6 mm
07:45 AM 63.3°F17.4°C 58.0°F14.4°C 83% 5.0 mph SSE8.0 kmh SSE 10.0 mph16.1 kmh 29.55 in1000.7 mb 0.00 in0.0 mm 0.00 in0.0 mm 0.14 in3.6 mm
07:46 AM 63.3°F17.4°C 58.0°F14.4°C 83% 2.0 mph SSE3.2 kmh SSE 10.0 mph16.1 kmh 29.56 in1001.0 mb 0.00 in0.0 mm 0.00 in0.0 mm 0.14 in3.6 mm
07:47 AM 63.3°F17.4°C 58.0°F14.4°C 83% 1.0 mph SSE1.6 kmh SSE 10.0 mph16.1 kmh 29.56 in1001.0 mb 0.00 in0.0 mm 0.00 in0.0 mm 0.14 in3.6 mm
07:48 AM 63.3°F17.4°C 58.0°F14.4°C 83% Calm Calm 10.0 mph16.1 kmh 29.56 in1001.0 mb 0.00 in0.0 mm 0.00 in0.0 mm 0.14 in3.6 mm
07:49 AM 63.3°F17.4°C 58.0°F14.4°C 83% Calm Calm 10.0 mph16.1 kmh 29.56 in1001.0 mb 0.00 in0.0 mm 0.00 in0.0 mm 0.14 in3.6 mm
07:50 AM 63.3°F17.4°C 58.0°F14.4°C 83% 1.0 mph NNE1.6 kmh NNE 10.0 mph16.1 kmh 29.56 in1001.0 mb 0.00 in0.0 mm 0.00 in0.0 mm 0.14 in3.6 mm
07:51 AM 63.3°F17.4°C 58.0°F14.4°C 83% Calm Calm 10.0 mph16.1 kmh 29.56 in1001.0 mb 0.00 in0.0 mm 0.00 in0.0 mm 0.14 in3.6 mm
07:52 AM 63.3°F17.4°C 58.0°F14.4°C 83% 1.0 mph SE1.6 kmh SE 10.0 mph16.1 kmh 29.56 in1001.0 mb 0.00 in0.0 mm 0.00 in0.0 mm 0.14 in3.6 mm
07:53 AM 63.3°F17.4°C 58.0°F14.4°C 83% 2.0 mph SE3.2 kmh SE 8.0 mph12.9 kmh 29.55 in1000.7 mb 0.00 in0.0 mm 0.00 in0.0 mm 0.14 in3.6 mm
07:54 AM 63.3°F17.4°C 58.0°F14.4°C 83% 1.0 mph S1.6 kmh S 7.0 mph11.3 kmh 29.56 in1001.0 mb 0.00 in0.0 mm 0.00 in0.0 mm 0.14 in3.6 mm
07:55 AM 63.4°F17.4°C 58.1°F14.5°C 83% 2.0 mph S3.2 kmh S 5.0 mph8.0 kmh 29.56 in1001.0 mb 0.00 in0.0 mm 0.00 in0.0 mm 0.14 in3.6 mm
07:56 AM 63.4°F17.4°C 58.1°F14.5°C 83% 2.0 mph S3.2 kmh S 4.0 mph6.4 kmh 29.57 in1001.4 mb 0.00 in0.0 mm 0.00 in0.0 mm 0.14 in3.6 mm
07:57 AM 63.4°F17.4°C 58.1°F14.5°C 83% 1.0 mph S1.6 kmh S 4.0 mph6.4 kmh 29.57 in1001.4 mb 0.00 in0.0 mm 0.00 in0.0 mm 0.14 in3.6 mm
07:58 AM 63.4°F17.4°C 58.1°F14.5°C 83% 4.0 mph S6.4 kmh S 4.0 mph6.4 kmh 29.57 in1001.4 mb 0.00 in0.0 mm 0.00 in0.0 mm 0.14 in3.6 mm
07:59 AM 63.4°F17.4°C 58.1°F14.5°C 83% 5.0 mph SSE8.0 kmh SSE 6.0 mph9.7 kmh 29.57 in1001.4 mb 0.00 in0.0 mm 0.00 in0.0 mm 0.14 in3.6 mm
08:00 AM 63.4°F17.4°C 58.1°F14.5°C 83% 2.0 mph S3.2 kmh S 6.0 mph9.7 kmh 29.52 in999.7 mb 0.00 in0.0 mm 0.00 in0.0 mm 0.14 in3.6 mm
08:01 AM 63.4°F17.4°C 58.1°F14.5°C 83% 3.0 mph SW4.8 kmh SW 6.0 mph9.7 kmh 29.52 in999.7 mb 0.00 in0.0 mm 0.00 in0.0 mm 0.14 in3.6 mm
08:02 AM 63.4°F17.4°C 58.1°F14.5°C 83% 4.0 mph SW6.4 kmh SW 6.0 mph9.7 kmh 29.53 in1000.0 mb 0.00 in0.0 mm 0.00 in0.0 mm 0.14 in3.6 mm
08:03 AM 63.4°F17.4°C 58.1°F14.5°C 83% 4.0 mph WSW6.4 kmh WSW 10.0 mph16.1 kmh 29.53 in1000.0 mb 0.00 in0.0 mm 0.00 in0.0 mm 0.14 in3.6 mm
08:04 AM 63.4°F17.4°C 58.1°F14.5°C 83% 6.0 mph WSW9.7 kmh WSW 10.0 mph16.1 kmh 29.53 in1000.0 mb 0.00 in0.0 mm 0.00 in0.0 mm 0.14 in3.6 mm
08:05 AM 63.4°F17.4°C 58.1°F14.5°C 83% 8.0 mph WSW12.9 kmh WSW 12.0 mph19.3 kmh 29.54 in1000.3 mb 0.00 in0.0 mm 0.00 in0.0 mm 0.14 in3.6 mm
08:06 AM 63.4°F17.4°C 58.1°F14.5°C 83% 4.0 mph S6.4 kmh S 12.0 mph19.3 kmh 29.54 in1000.3 mb 0.00 in0.0 mm 0.00 in0.0 mm 0.14 in3.6 mm
08:07 AM 63.4°F17.4°C 58.1°F14.5°C 83% 2.0 mph WSW3.2 kmh WSW 12.0 mph19.3 kmh 29.54 in1000.3 mb 0.00 in0.0 mm 0.00 in0.0 mm 0.14 in3.6 mm
08:08 AM 63.5°F17.5°C 58.2°F14.6°C 83% 7.0 mph WSW11.3 kmh WSW 12.0 mph19.3 kmh 29.54 in1000.3 mb 0.00 in0.0 mm 0.00 in0.0 mm 0.14 in3.6 mm
08:09 AM 63.5°F17.5°C 58.2°F14.6°C 83% 3.0 mph WSW4.8 kmh WSW 12.0 mph19.3 kmh 29.55 in1000.7 mb 0.00 in0.0 mm 0.00 in0.0 mm 0.14 in3.6 mm
08:10 AM 63.6°F17.6°C 58.3°F14.6°C 83% 3.0 mph SW4.8 kmh SW 12.0 mph19.3 kmh 29.55 in1000.7 mb 0.00 in0.0 mm 0.00 in0.0 mm 0.14 in3.6 mm
08:11 AM 63.7°F17.6°C 58.4°F14.7°C 83% 9.0 mph SW14.5 kmh SW 12.0 mph19.3 kmh 29.55 in1000.7 mb 0.00 in0.0 mm 0.00 in0.0 mm 0.14 in3.6 mm
08:12 AM 63.8°F17.7°C 58.5°F14.7°C 83% 5.0 mph WSW8.0 kmh WSW 12.0 mph19.3 kmh 29.55 in1000.7 mb 0.00 in0.0 mm 0.00 in0.0 mm 0.14 in3.6 mm
08:13 AM 63.8°F17.7°C 58.5°F14.7°C 83% 1.0 mph SW1.6 kmh SW 12.0 mph19.3 kmh 29.55 in1000.7 mb 0.00 in0.0 mm 0.00 in0.0 mm 0.14 in3.6 mm
08:14 AM 63.8°F17.7°C 58.5°F14.7°C 83% 5.0 mph S8.0 kmh S 12.0 mph19.3 kmh 29.55 in1000.7 mb 0.00 in0.0 mm 0.00 in0.0 mm 0.14 in3.6 mm
08:15 AM 64.0°F17.8°C 58.7°F14.8°C 83% 8.0 mph SW12.9 kmh SW 11.0 mph17.7 kmh 29.55 in1000.7 mb 0.00 in0.0 mm 0.00 in0.0 mm 0.14 in3.6 mm
08:16 AM 64.0°F17.8°C 58.4°F14.7°C 82% 3.0 mph W4.8 kmh W 11.0 mph17.7 kmh 29.55 in1000.7 mb 0.00 in0.0 mm 0.00 in0.0 mm 0.14 in3.6 mm
08:17 AM 64.1°F17.8°C 58.5°F14.7°C 82% 3.0 mph SW4.8 kmh SW 11.0 mph17.7 kmh 29.55 in1000.7 mb 0.00 in0.0 mm 0.00 in0.0 mm 0.14 in3.6 mm
08:18 AM 64.3°F17.9°C 58.7°F14.8°C 82% 4.0 mph W6.4 kmh W 11.0 mph17.7 kmh 29.55 in1000.7 mb 0.00 in0.0 mm 0.00 in0.0 mm 0.14 in3.6 mm
08:19 AM 64.3°F17.9°C 58.7°F14.8°C 82% 2.0 mph SW3.2 kmh SW 11.0 mph17.7 kmh 29.56 in1001.0 mb 0.00 in0.0 mm 0.00 in0.0 mm 0.14 in3.6 mm
08:20 AM 64.5°F18.1°C 58.9°F14.9°C 82% 2.0 mph WSW3.2 kmh WSW 11.0 mph17.7 kmh 29.57 in1001.4 mb 0.00 in0.0 mm 0.00 in0.0 mm 0.14 in3.6 mm
08:21 AM 64.6°F18.1°C 59.0°F15.0°C 82% 4.0 mph SSW6.4 kmh SSW 12.0 mph19.3 kmh 29.57 in1001.4 mb 0.00 in0.0 mm 0.00 in0.0 mm 0.14 in3.6 mm
08:22 AM 64.7°F18.2°C 59.1°F15.1°C 82% 4.0 mph S6.4 kmh S 12.0 mph19.3 kmh 29.57 in1001.4 mb 0.00 in0.0 mm 0.00 in0.0 mm 0.14 in3.6 mm
08:23 AM 64.8°F18.2°C 58.8°F14.9°C 81% 5.0 mph SSW8.0 kmh SSW 12.0 mph19.3 kmh 29.57 in1001.4 mb 0.00 in0.0 mm 0.00 in0.0 mm 0.14 in3.6 mm
08:24 AM 64.9°F18.3°C 58.9°F14.9°C 81% 3.0 mph SSW4.8 kmh SSW 12.0 mph19.3 kmh 29.57 in1001.4 mb 0.00 in0.0 mm 0.00 in0.0 mm 0.14 in3.6 mm
08:25 AM 65.0°F18.3°C 59.0°F15.0°C 81% 4.0 mph W6.4 kmh W 12.0 mph19.3 kmh 29.57 in1001.4 mb 0.00 in0.0 mm 0.00 in0.0 mm 0.14 in3.6 mm
08:26 AM 65.0°F18.3°C 59.0°F15.0°C 81% 3.0 mph SW4.8 kmh SW 12.0 mph19.3 kmh 29.57 in1001.4 mb 0.00 in0.0 mm 0.00 in0.0 mm 0.14 in3.6 mm
08:27 AM 65.2°F18.4°C 59.2°F15.1°C 81% 5.0 mph S8.0 kmh S 12.0 mph19.3 kmh 29.57 in1001.4 mb 0.00 in0.0 mm 0.00 in0.0 mm 0.14 in3.6 mm
08:28 AM 65.3°F18.5°C 59.0°F15.0°C 80% 9.0 mph SW14.5 kmh SW 12.0 mph19.3 kmh 29.57 in1001.4 mb 0.00 in0.0 mm 0.00 in0.0 mm 0.14 in3.6 mm
08:29 AM 65.4°F18.6°C 59.1°F15.1°C 80% 4.0 mph SSW6.4 kmh SSW 12.0 mph19.3 kmh 29.58 in1001.7 mb 0.00 in0.0 mm 0.00 in0.0 mm 0.14 in3.6 mm
08:30 AM 65.4°F18.6°C 59.1°F15.1°C 80% 11.0 mph SSW17.7 kmh SSW 12.0 mph19.3 kmh 29.58 in1001.7 mb 0.00 in0.0 mm 0.00 in0.0 mm 0.14 in3.6 mm
08:31 AM 65.5°F18.6°C 59.2°F15.1°C 80% 4.0 mph SW6.4 kmh SW 12.0 mph19.3 kmh 29.58 in1001.7 mb 0.00 in0.0 mm 0.00 in0.0 mm 0.14 in3.6 mm
08:32 AM 65.7°F18.7°C 59.4°F15.2°C 80% 5.0 mph SSW8.0 kmh SSW 12.0 mph19.3 kmh 29.58 in1001.7 mb 0.00 in0.0 mm 0.00 in0.0 mm 0.14 in3.6 mm
08:33 AM 65.7°F18.7°C 59.0°F15.0°C 79% 10.0 mph SW16.1 kmh SW 12.0 mph19.3 kmh 29.58 in1001.7 mb 0.00 in0.0 mm 0.00 in0.0 mm 0.14 in3.6 mm
08:34 AM 65.8°F18.8°C 59.1°F15.1°C 79% 2.0 mph WSW3.2 kmh WSW 12.0 mph19.3 kmh 29.58 in1001.7 mb 0.00 in0.0 mm 0.00 in0.0 mm 0.14 in3.6 mm
08:35 AM 65.9°F18.8°C 59.2°F15.1°C 79% 11.0 mph WSW17.7 kmh WSW 13.0 mph20.9 kmh 29.58 in1001.7 mb 0.00 in0.0 mm 0.00 in0.0 mm 0.14 in3.6 mm
08:36 AM 66.1°F18.9°C 59.4°F15.2°C 79% 6.0 mph SW9.7 kmh SW 13.0 mph20.9 kmh 29.58 in1001.7 mb 0.00 in0.0 mm 0.00 in0.0 mm 0.14 in3.6 mm
08:37 AM 66.1°F18.9°C 59.0°F15.0°C 78% 3.0 mph SW4.8 kmh SW 16.0 mph25.7 kmh 29.58 in1001.7 mb 0.00 in0.0 mm 0.00 in0.0 mm 0.14 in3.6 mm
08:38 AM 66.2°F19.0°C 59.1°F15.1°C 78% 7.0 mph SW11.3 kmh SW 16.0 mph25.7 kmh 29.58 in1001.7 mb 0.00 in0.0 mm 0.00 in0.0 mm 0.14 in3.6 mm
08:39 AM 66.4°F19.1°C 59.0°F15.0°C 77% 7.0 mph S11.3 kmh S 16.0 mph25.7 kmh 29.58 in1001.7 mb 0.00 in0.0 mm 0.00 in0.0 mm 0.14 in3.6 mm
08:40 AM 66.5°F19.2°C 59.1°F15.1°C 77% 5.0 mph SW8.0 kmh SW 16.0 mph25.7 kmh 29.59 in1002.0 mb 0.00 in0.0 mm 0.00 in0.0 mm 0.14 in3.6 mm
08:41 AM 66.5°F19.2°C 59.1°F15.1°C 77% 9.0 mph SSW14.5 kmh SSW 16.0 mph25.7 kmh 29.59 in1002.0 mb 0.00 in0.0 mm 0.00 in0.0 mm 0.14 in3.6 mm
08:42 AM 66.6°F19.2°C 58.8°F14.9°C 76% 4.0 mph SW6.4 kmh SW 16.0 mph25.7 kmh 29.59 in1002.0 mb 0.00 in0.0 mm 0.00 in0.0 mm 0.14 in3.6 mm
08:43 AM 66.7°F19.3°C 58.9°F14.9°C 76% 9.0 mph SSW14.5 kmh SSW 16.0 mph25.7 kmh 29.59 in1002.0 mb 0.00 in0.0 mm 0.00 in0.0 mm 0.14 in3.6 mm
08:44 AM 66.7°F19.3°C 58.9°F14.9°C 76% 4.0 mph S6.4 kmh S 16.0 mph25.7 kmh 29.59 in1002.0 mb 0.00 in0.0 mm 0.00 in0.0 mm 0.14 in3.6 mm
08:45 AM 66.8°F19.3°C 59.0°F15.0°C 76% 4.0 mph S6.4 kmh S 16.0 mph25.7 kmh 29.58 in1001.7 mb 0.00 in0.0 mm 0.00 in0.0 mm 0.14 in3.6 mm
08:46 AM 67.0°F19.4°C 59.2°F15.1°C 76% 9.0 mph SW14.5 kmh SW 16.0 mph25.7 kmh 29.58 in1001.7 mb 0.00 in0.0 mm 0.00 in0.0 mm 0.14 in3.6 mm
08:47 AM 67.0°F19.4°C 59.2°F15.1°C 76% 4.0 mph SW6.4 kmh SW 13.0 mph20.9 kmh 29.58 in1001.7 mb 0.00 in0.0 mm 0.00 in0.0 mm 0.14 in3.6 mm
08:48 AM 67.1°F19.5°C 59.3°F15.2°C 76% 4.0 mph SW6.4 kmh SW 13.0 mph20.9 kmh 29.58 in1001.7 mb 0.00 in0.0 mm 0.00 in0.0 mm 0.14 in3.6 mm
08:49 AM 67.2°F19.6°C 59.4°F15.2°C 76% 7.0 mph W11.3 kmh W 13.0 mph20.9 kmh 29.58 in1001.7 mb 0.00 in0.0 mm 0.00 in0.0 mm 0.14 in3.6 mm
08:50 AM 67.2°F19.6°C 59.4°F15.2°C 76% 5.0 mph SW8.0 kmh SW 13.0 mph20.9 kmh 29.57 in1001.4 mb 0.00 in0.0 mm 0.00 in0.0 mm 0.14 in3.6 mm
08:51 AM 67.2°F19.6°C 59.0°F15.0°C 75% 5.0 mph S8.0 kmh S 13.0 mph20.9 kmh 29.57 in1001.4 mb 0.00 in0.0 mm 0.00 in0.0 mm 0.14 in3.6 mm
08:52 AM 67.3°F19.6°C 59.1°F15.1°C 75% 7.0 mph WSW11.3 kmh WSW 13.0 mph20.9 kmh 29.57 in1001.4 mb 0.00 in0.0 mm 0.00 in0.0 mm 0.14 in3.6 mm
08:53 AM 67.4°F19.7°C 59.2°F15.1°C 75% 5.0 mph SW8.0 kmh SW 12.0 mph19.3 kmh 29.57 in1001.4 mb 0.00 in0.0 mm 0.00 in0.0 mm 0.14 in3.6 mm
08:54 AM 67.5°F19.7°C 59.3°F15.2°C 75% 2.0 mph WSW3.2 kmh WSW 12.0 mph19.3 kmh 29.57 in1001.4 mb 0.00 in0.0 mm 0.00 in0.0 mm 0.14 in3.6 mm
08:55 AM 67.6°F19.8°C 59.0°F15.0°C 74% 8.0 mph SW12.9 kmh SW 12.0 mph19.3 kmh 29.57 in1001.4 mb 0.00 in0.0 mm 0.00 in0.0 mm 0.14 in3.6 mm
08:56 AM 67.6°F19.8°C 59.0°F15.0°C 74% 4.0 mph SSE6.4 kmh SSE 12.0 mph19.3 kmh 29.58 in1001.7 mb 0.00 in0.0 mm 0.00 in0.0 mm 0.14 in3.6 mm
08:57 AM 67.8°F19.9°C 59.6°F15.3°C 75% 4.0 mph SSW6.4 kmh SSW 12.0 mph19.3 kmh 29.58 in1001.7 mb 0.00 in0.0 mm 0.00 in0.0 mm 0.14 in3.6 mm
08:58 AM 67.9°F19.9°C 59.7°F15.4°C 75% 4.0 mph SW6.4 kmh SW 12.0 mph19.3 kmh 29.57 in1001.4 mb 0.00 in0.0 mm 0.00 in0.0 mm 0.14 in3.6 mm
08:59 AM 68.0°F20.0°C 59.8°F15.4°C 75% 5.0 mph SW8.0 kmh SW 10.0 mph16.1 kmh 29.57 in1001.4 mb 0.00 in0.0 mm 0.00 in0.0 mm 0.14 in3.6 mm
09:00 AM 68.0°F20.0°C 59.8°F15.4°C 75% 2.0 mph SSW3.2 kmh SSW 10.0 mph16.1 kmh 29.57 in1001.4 mb 0.00 in0.0 mm 0.00 in0.0 mm 0.14 in3.6 mm
09:01 AM 68.1°F20.1°C 59.9°F15.5°C 75% 4.0 mph SW6.4 kmh SW 10.0 mph16.1 kmh 29.57 in1001.4 mb 0.00 in0.0 mm 0.00 in0.0 mm 0.14 in3.6 mm
09:02 AM 68.2°F20.1°C 60.0°F15.6°C 75% 5.0 mph SW8.0 kmh SW 10.0 mph16.1 kmh 29.57 in1001.4 mb 0.00 in0.0 mm 0.00 in0.0 mm 0.14 in3.6 mm
09:03 AM 68.3°F20.2°C 60.1°F15.6°C 75% 3.0 mph SW4.8 kmh SW 10.0 mph16.1 kmh 29.57 in1001.4 mb 0.00 in0.0 mm 0.00 in0.0 mm 0.14 in3.6 mm
09:04 AM 68.3°F20.2°C 60.1°F15.6°C 75% 2.0 mph SW3.2 kmh SW 10.0 mph16.1 kmh 29.57 in1001.4 mb 0.00 in0.0 mm 0.00 in0.0 mm 0.14 in3.6 mm
09:05 AM 68.4°F20.2°C 60.2°F15.7°C 75% 4.0 mph SW6.4 kmh SW 10.0 mph16.1 kmh 29.57 in1001.4 mb 0.00 in0.0 mm 0.00 in0.0 mm 0.14 in3.6 mm
09:06 AM 68.5°F20.3°C 59.9°F15.5°C 74% 4.0 mph WSW6.4 kmh WSW 9.0 mph14.5 kmh 29.57 in1001.4 mb 0.00 in0.0 mm 0.00 in0.0 mm 0.14 in3.6 mm
09:07 AM 68.5°F20.3°C 59.9°F15.5°C 74% 2.0 mph SSW3.2 kmh SSW 10.0 mph16.1 kmh 29.57 in1001.4 mb 0.00 in0.0 mm 0.00 in0.0 mm 0.14 in3.6 mm
09:08 AM 68.6°F20.3°C 60.0°F15.6°C 74% 3.0 mph S4.8 kmh S 10.0 mph16.1 kmh 29.57 in1001.4 mb 0.00 in0.0 mm 0.00 in0.0 mm 0.14 in3.6 mm
09:09 AM 68.6°F20.3°C 60.0°F15.6°C 74% 5.0 mph S8.0 kmh S 10.0 mph16.1 kmh 29.57 in1001.4 mb 0.00 in0.0 mm 0.00 in0.0 mm 0.14 in3.6 mm
09:10 AM 68.8°F20.4°C 60.2°F15.7°C 74% 8.0 mph S12.9 kmh S 12.0 mph19.3 kmh 29.57 in1001.4 mb 0.00 in0.0 mm 0.00 in0.0 mm 0.14 in3.6 mm
09:11 AM 68.8°F20.4°C 59.8°F15.4°C 73% 3.0 mph SSW4.8 kmh SSW 12.0 mph19.3 kmh 29.57 in1001.4 mb 0.00 in0.0 mm 0.00 in0.0 mm 0.14 in3.6 mm
09:12 AM 68.8°F20.4°C 59.4°F15.2°C 72% 5.0 mph SSW8.0 kmh SSW 12.0 mph19.3 kmh 29.57 in1001.4 mb 0.00 in0.0 mm 0.00 in0.0 mm 0.14 in3.6 mm
09:13 AM 68.8°F20.4°C 59.4°F15.2°C 72% 3.0 mph S4.8 kmh S 12.0 mph19.3 kmh 29.57 in1001.4 mb 0.00 in0.0 mm 0.00 in0.0 mm 0.14 in3.6 mm
09:14 AM 68.8°F20.4°C 59.4°F15.2°C 72% 7.0 mph SW11.3 kmh SW 13.0 mph20.9 kmh 29.57 in1001.4 mb 0.00 in0.0 mm 0.00 in0.0 mm 0.14 in3.6 mm
09:15 AM 68.9°F20.5°C 59.5°F15.3°C 72% 4.0 mph W6.4 kmh W 14.0 mph22.5 kmh 29.57 in1001.4 mb 0.00 in0.0 mm 0.00 in0.0 mm 0.14 in3.6 mm
09:16 AM 68.9°F20.5°C 59.5°F15.3°C 72% 10.0 mph SW16.1 kmh SW 14.0 mph22.5 kmh 29.57 in1001.4 mb 0.00 in0.0 mm 0.00 in0.0 mm 0.14 in3.6 mm
09:17 AM 69.0°F20.6°C 59.6°F15.3°C 72% 4.0 mph S6.4 kmh S 14.0 mph22.5 kmh 29.57 in1001.4 mb 0.00 in0.0 mm 0.00 in0.0 mm 0.14 in3.6 mm
09:18 AM 69.0°F20.6°C 59.6°F15.3°C 72% 4.0 mph SW6.4 kmh SW 14.0 mph22.5 kmh 29.57 in1001.4 mb 0.00 in0.0 mm 0.00 in0.0 mm 0.14 in3.6 mm
09:19 AM 69.0°F20.6°C 60.0°F15.6°C 73% 8.0 mph S12.9 kmh S 14.0 mph22.5 kmh 29.57 in1001.4 mb 0.00 in0.0 mm 0.00 in0.0 mm 0.14 in3.6 mm
09:20 AM 69.1°F20.6°C 60.1°F15.6°C 73% 6.0 mph SW9.7 kmh SW 14.0 mph22.5 kmh 29.57 in1001.4 mb 0.00 in0.0 mm 0.00 in0.0 mm 0.14 in3.6 mm
09:21 AM 69.1°F20.6°C 60.1°F15.6°C 73% 4.0 mph S6.4 kmh S 14.0 mph22.5 kmh 29.57 in1001.4 mb 0.00 in0.0 mm 0.00 in0.0 mm 0.14 in3.6 mm
09:22 AM 69.2°F20.7°C 60.2°F15.7°C 73% 4.0 mph SW6.4 kmh SW 14.0 mph22.5 kmh 29.57 in1001.4 mb 0.00 in0.0 mm 0.00 in0.0 mm 0.14 in3.6 mm
09:23 AM 69.2°F20.7°C 60.2°F15.7°C 73% 5.0 mph S8.0 kmh S 14.0 mph22.5 kmh 29.57 in1001.4 mb 0.00 in0.0 mm 0.00 in0.0 mm 0.14 in3.6 mm
09:24 AM 69.3°F20.7°C 60.3°F15.7°C 73% 1.0 mph S1.6 kmh S 14.0 mph22.5 kmh 29.57 in1001.4 mb 0.00 in0.0 mm 0.00 in0.0 mm 0.14 in3.6 mm
09:25 AM 69.3°F20.7°C 59.9°F15.5°C 72% 5.0 mph S8.0 kmh S 14.0 mph22.5 kmh 29.57 in1001.4 mb 0.00 in0.0 mm 0.00 in0.0 mm 0.14 in3.6 mm
09:26 AM 69.3°F20.7°C 59.9°F15.5°C 72% 10.0 mph WSW16.1 kmh WSW 14.0 mph22.5 kmh 29.57 in1001.4 mb 0.00 in0.0 mm 0.00 in0.0 mm 0.14 in3.6 mm
09:27 AM 69.4°F20.8°C 60.0°F15.6°C 72% 3.0 mph SW4.8 kmh SW 14.0 mph22.5 kmh 29.57 in1001.4 mb 0.00 in0.0 mm 0.00 in0.0 mm 0.14 in3.6 mm
09:28 AM 69.5°F20.8°C 60.1°F15.6°C 72% 4.0 mph SSW6.4 kmh SSW 14.0 mph22.5 kmh 29.57 in1001.4 mb 0.00 in0.0 mm 0.00 in0.0 mm 0.14 in3.6 mm
09:29 AM 69.6°F20.9°C 60.2°F15.7°C 72% 2.0 mph SSW3.2 kmh SSW 14.0 mph22.5 kmh 29.57 in1001.4 mb 0.00 in0.0 mm 0.00 in0.0 mm 0.14 in3.6 mm
09:30 AM 69.7°F20.9°C 60.3°F15.7°C 72% 9.0 mph S14.5 kmh S 14.0 mph22.5 kmh 29.57 in1001.4 mb 0.00 in0.0 mm 0.00 in0.0 mm 0.14 in3.6 mm
09:31 AM 69.7°F20.9°C 60.3°F15.7°C 72% 6.0 mph S9.7 kmh S 14.0 mph22.5 kmh 29.57 in1001.4 mb 0.00 in0.0 mm 0.00 in0.0 mm 0.14 in3.6 mm
09:32 AM 69.8°F21.0°C 60.4°F15.8°C 72% 7.0 mph S11.3 kmh S 14.0 mph22.5 kmh 29.57 in1001.4 mb 0.00 in0.0 mm 0.00 in0.0 mm 0.14 in3.6 mm
09:33 AM 69.8°F21.0°C 60.4°F15.8°C 72% 3.0 mph SSW4.8 kmh SSW 14.0 mph22.5 kmh 29.57 in1001.4 mb 0.00 in0.0 mm 0.00 in0.0 mm 0.14 in3.6 mm
09:34 AM 69.9°F21.1°C 60.5°F15.8°C 72% 4.0 mph S6.4 kmh S 14.0 mph22.5 kmh 29.57 in1001.4 mb 0.00 in0.0 mm 0.00 in0.0 mm 0.14 in3.6 mm
09:35 AM 70.0°F21.1°C 60.2°F15.7°C 71% 2.0 mph SSW3.2 kmh SSW 14.0 mph22.5 kmh 29.57 in1001.4 mb 0.00 in0.0 mm 0.00 in0.0 mm 0.14 in3.6 mm
09:36 AM 70.0°F21.1°C 60.2°F15.7°C 71% 6.0 mph SE9.7 kmh SE 13.0 mph20.9 kmh 29.57 in1001.4 mb 0.00 in0.0 mm 0.00 in0.0 mm 0.14 in3.6 mm
09:37 AM 70.1°F21.2°C 59.9°F15.5°C 70% 5.0 mph S8.0 kmh S 13.0 mph20.9 kmh 29.57 in1001.4 mb 0.00 in0.0 mm 0.00 in0.0 mm 0.14 in3.6 mm
09:38 AM 70.1°F21.2°C 60.3°F15.7°C 71% 7.0 mph WSW11.3 kmh WSW 13.0 mph20.9 kmh 29.57 in1001.4 mb 0.00 in0.0 mm 0.00 in0.0 mm 0.14 in3.6 mm
09:39 AM 70.1°F21.2°C 59.9°F15.5°C 70% 8.0 mph SSW12.9 kmh SSW 13.0 mph20.9 kmh 29.57 in1001.4 mb 0.00 in0.0 mm 0.00 in0.0 mm 0.14 in3.6 mm
09:40 AM 70.1°F21.2°C 59.9°F15.5°C 70% 9.0 mph SSW14.5 kmh SSW 21.0 mph33.8 kmh 29.59 in1002.0 mb 0.00 in0.0 mm 0.00 in0.0 mm 0.14 in3.6 mm
09:41 AM 70.1°F21.2°C 59.0°F15.0°C 68% 11.0 mph S17.7 kmh S 21.0 mph33.8 kmh 29.59 in1002.0 mb 0.00 in0.0 mm 0.00 in0.0 mm 0.14 in3.6 mm
09:42 AM 70.1°F21.2°C 59.5°F15.3°C 69% 7.0 mph WSW11.3 kmh WSW 21.0 mph33.8 kmh 29.59 in1002.0 mb 0.00 in0.0 mm 0.00 in0.0 mm 0.14 in3.6 mm
09:43 AM 70.0°F21.1°C 59.4°F15.2°C 69% 10.0 mph WSW16.1 kmh WSW 21.0 mph33.8 kmh 29.58 in1001.7 mb 0.00 in0.0 mm 0.00 in0.0 mm 0.14 in3.6 mm
09:44 AM 70.0°F21.1°C 59.4°F15.2°C 69% 5.0 mph SW8.0 kmh SW 21.0 mph33.8 kmh 29.58 in1001.7 mb 0.00 in0.0 mm 0.00 in0.0 mm 0.14 in3.6 mm
09:45 AM 70.1°F21.2°C 59.5°F15.3°C 69% 7.0 mph SSW11.3 kmh SSW 21.0 mph33.8 kmh 29.58 in1001.7 mb 0.00 in0.0 mm 0.00 in0.0 mm 0.14 in3.6 mm
09:46 AM 70.1°F21.2°C 59.5°F15.3°C 69% 4.0 mph S6.4 kmh S 21.0 mph33.8 kmh 29.58 in1001.7 mb 0.00 in0.0 mm 0.00 in0.0 mm 0.14 in3.6 mm
09:47 AM 70.1°F21.2°C 59.5°F15.3°C 69% 4.0 mph SW6.4 kmh SW 21.0 mph33.8 kmh 29.58 in1001.7 mb 0.00 in0.0 mm 0.00 in0.0 mm 0.14 in3.6 mm
09:48 AM 70.2°F21.2°C 59.6°F15.3°C 69% 3.0 mph SSW4.8 kmh SSW 21.0 mph33.8 kmh 29.58 in1001.7 mb 0.00 in0.0 mm 0.00 in0.0 mm 0.14 in3.6 mm
09:49 AM 70.2°F21.2°C 60.0°F15.6°C 70% 5.0 mph SW8.0 kmh SW 21.0 mph33.8 kmh 29.58 in1001.7 mb 0.00 in0.0 mm 0.00 in0.0 mm 0.14 in3.6 mm
09:50 AM 70.3°F21.3°C 59.6°F15.3°C 69% 4.0 mph S6.4 kmh S 21.0 mph33.8 kmh 29.58 in1001.7 mb 0.00 in0.0 mm 0.00 in0.0 mm 0.14 in3.6 mm
09:51 AM 70.3°F21.3°C 59.6°F15.3°C 69% 7.0 mph S11.3 kmh S 21.0 mph33.8 kmh 29.58 in1001.7 mb 0.00 in0.0 mm 0.00 in0.0 mm 0.14 in3.6 mm
09:52 AM 70.4°F21.3°C 59.7°F15.4°C 69% 10.0 mph S16.1 kmh S 21.0 mph33.8 kmh 29.58 in1001.7 mb 0.00 in0.0 mm 0.00 in0.0 mm 0.14 in3.6 mm
09:53 AM 70.5°F21.4°C 59.8°F15.4°C 69% 9.0 mph S14.5 kmh S 21.0 mph33.8 kmh 29.58 in1001.7 mb 0.00 in0.0 mm 0.00 in0.0 mm 0.14 in3.6 mm
09:54 AM 70.6°F21.4°C 59.9°F15.5°C 69% 3.0 mph S4.8 kmh S 17.0 mph27.4 kmh 29.58 in1001.7 mb 0.00 in0.0 mm 0.00 in0.0 mm 0.14 in3.6 mm
09:55 AM 70.7°F21.5°C 60.0°F15.6°C 69% 4.0 mph S6.4 kmh S 17.0 mph27.4 kmh 29.58 in1001.7 mb 0.00 in0.0 mm 0.00 in0.0 mm 0.14 in3.6 mm
09:56 AM 70.7°F21.5°C 60.0°F15.6°C 69% 9.0 mph WSW14.5 kmh WSW 17.0 mph27.4 kmh 29.58 in1001.7 mb 0.00 in0.0 mm 0.00 in0.0 mm 0.14 in3.6 mm
09:57 AM 70.8°F21.6°C 60.1°F15.6°C 69% 12.0 mph SSW19.3 kmh SSW 17.0 mph27.4 kmh 29.58 in1001.7 mb 0.00 in0.0 mm 0.00 in0.0 mm 0.14 in3.6 mm
09:58 AM 70.9°F21.6°C 60.2°F15.7°C 69% 3.0 mph S4.8 kmh S 17.0 mph27.4 kmh 29.58 in1001.7 mb 0.00 in0.0 mm 0.00 in0.0 mm 0.14 in3.6 mm
09:59 AM 71.0°F21.7°C 60.3°F15.7°C 69% 6.0 mph SSW9.7 kmh SSW 17.0 mph27.4 kmh 29.58 in1001.7 mb 0.00 in0.0 mm 0.00 in0.0 mm 0.14 in3.6 mm
10:00 AM 71.0°F21.7°C 59.9°F15.5°C 68% 13.0 mph S20.9 kmh S 17.0 mph27.4 kmh 29.58 in1001.7 mb 0.00 in0.0 mm 0.00 in0.0 mm 0.14 in3.6 mm
10:01 AM 71.0°F21.7°C 59.9°F15.5°C 68% 5.0 mph SW8.0 kmh SW 17.0 mph27.4 kmh 29.58 in1001.7 mb 0.00 in0.0 mm 0.00 in0.0 mm 0.14 in3.6 mm
10:02 AM 71.0°F21.7°C 59.9°F15.5°C 68% 8.0 mph WSW12.9 kmh WSW 17.0 mph27.4 kmh 29.58 in1001.7 mb 0.00 in0.0 mm 0.00 in0.0 mm 0.14 in3.6 mm
10:03 AM 71.0°F21.7°C 59.9°F15.5°C 68% 9.0 mph S14.5 kmh S 15.0 mph24.1 kmh 29.58 in1001.7 mb 0.00 in0.0 mm 0.00 in0.0 mm 0.14 in3.6 mm
10:04 AM 71.0°F21.7°C 59.9°F15.5°C 68% 2.0 mph WSW3.2 kmh WSW 15.0 mph24.1 kmh 29.58 in1001.7 mb 0.00 in0.0 mm 0.00 in0.0 mm 0.14 in3.6 mm
10:05 AM 71.1°F21.7°C 60.4°F15.8°C 69% 3.0 mph SW4.8 kmh SW 15.0 mph24.1 kmh 29.58 in1001.7 mb 0.00 in0.0 mm 0.00 in0.0 mm 0.14 in3.6 mm
10:06 AM 71.2°F21.8°C 60.1°F15.6°C 68% 2.0 mph WSW3.2 kmh WSW 15.0 mph24.1 kmh 29.58 in1001.7 mb 0.00 in0.0 mm 0.00 in0.0 mm 0.14 in3.6 mm
10:07 AM 71.3°F21.8°C 60.6°F15.9°C 69% 5.0 mph S8.0 kmh S 15.0 mph24.1 kmh 29.58 in1001.7 mb 0.00 in0.0 mm 0.00 in0.0 mm 0.14 in3.6 mm
10:08 AM 71.4°F21.9°C 60.7°F15.9°C 69% 6.0 mph SSW9.7 kmh SSW 15.0 mph24.1 kmh 29.58 in1001.7 mb 0.00 in0.0 mm 0.00 in0.0 mm 0.14 in3.6 mm
10:09 AM 71.4°F21.9°C 60.7°F15.9°C 69% 11.0 mph S17.7 kmh S 15.0 mph24.1 kmh 29.58 in1001.7 mb 0.00 in0.0 mm 0.00 in0.0 mm 0.14 in3.6 mm
10:10 AM 71.4°F21.9°C 59.9°F15.5°C 67% 5.0 mph S8.0 kmh S 15.0 mph24.1 kmh 29.58 in1001.7 mb 0.00 in0.0 mm 0.00 in0.0 mm 0.14 in3.6 mm
10:11 AM 71.4°F21.9°C 59.9°F15.5°C 67% 10.0 mph S16.1 kmh S 15.0 mph24.1 kmh 29.58 in1001.7 mb 0.00 in0.0 mm 0.00 in0.0 mm 0.14 in3.6 mm
10:12 AM 71.4°F21.9°C 59.9°F15.5°C 67% 9.0 mph WSW14.5 kmh WSW 15.0 mph24.1 kmh 29.58 in1001.7 mb 0.00 in0.0 mm 0.00 in0.0 mm 0.14 in3.6 mm
10:13 AM 71.4°F21.9°C 59.9°F15.5°C 67% 8.0 mph S12.9 kmh S 15.0 mph24.1 kmh 29.58 in1001.7 mb 0.00 in0.0 mm 0.00 in0.0 mm 0.14 in3.6 mm
10:14 AM 71.3°F21.8°C 59.8°F15.4°C 67% 5.0 mph S8.0 kmh S 17.0 mph27.4 kmh 29.58 in1001.7 mb 0.00 in0.0 mm 0.00 in0.0 mm 0.14 in3.6 mm
10:15 AM 71.3°F21.8°C 59.8°F15.4°C 67% 10.0 mph SSW16.1 kmh SSW 17.0 mph27.4 kmh 29.58 in1001.7 mb 0.00 in0.0 mm 0.00 in0.0 mm 0.14 in3.6 mm
10:16 AM 71.3°F21.8°C 59.8°F15.4°C 67% 4.0 mph SW6.4 kmh SW 17.0 mph27.4 kmh 29.58 in1001.7 mb 0.00 in0.0 mm 0.00 in0.0 mm 0.14 in3.6 mm
10:17 AM 71.3°F21.8°C 59.4°F15.2°C 66% 7.0 mph WSW11.3 kmh WSW 17.0 mph27.4 kmh 29.58 in1001.7 mb 0.00 in0.0 mm 0.00 in0.0 mm 0.14 in3.6 mm
10:18 AM 71.3°F21.8°C 59.8°F15.4°C 67% 9.0 mph SW14.5 kmh SW 17.0 mph27.4 kmh 29.58 in1001.7 mb 0.00 in0.0 mm 0.00 in0.0 mm 0.14 in3.6 mm
10:19 AM 71.4°F21.9°C 59.9°F15.5°C 67% 4.0 mph SW6.4 kmh SW 17.0 mph27.4 kmh 29.58 in1001.7 mb 0.00 in0.0 mm 0.00 in0.0 mm 0.14 in3.6 mm
10:20 AM 71.4°F21.9°C 59.9°F15.5°C 67% 9.0 mph SW14.5 kmh SW 17.0 mph27.4 kmh 29.58 in1001.7 mb 0.00 in0.0 mm 0.00 in0.0 mm 0.14 in3.6 mm
10:21 AM 71.4°F21.9°C 59.4°F15.2°C 66% 8.0 mph SW12.9 kmh SW 17.0 mph27.4 kmh 29.59 in1002.0 mb 0.00 in0.0 mm 0.00 in0.0 mm 0.14 in3.6 mm
10:22 AM 71.5°F21.9°C 60.0°F15.6°C 67% 7.0 mph WSW11.3 kmh WSW 17.0 mph27.4 kmh 29.58 in1001.7 mb 0.00 in0.0 mm 0.00 in0.0 mm 0.14 in3.6 mm
10:23 AM 71.5°F21.9°C 60.4°F15.8°C 68% 8.0 mph S12.9 kmh S 17.0 mph27.4 kmh 29.59 in1002.0 mb 0.00 in0.0 mm 0.00 in0.0 mm 0.14 in3.6 mm
10:24 AM 71.5°F21.9°C 60.4°F15.8°C 68% 5.0 mph S8.0 kmh S 15.0 mph24.1 kmh 29.59 in1002.0 mb 0.00 in0.0 mm 0.00 in0.0 mm 0.14 in3.6 mm
10:25 AM 71.6°F22.0°C 60.5°F15.8°C 68% 6.0 mph SW9.7 kmh SW 15.0 mph24.1 kmh 29.58 in1001.7 mb 0.00 in0.0 mm 0.00 in0.0 mm 0.14 in3.6 mm
10:26 AM 71.6°F22.0°C 60.5°F15.8°C 68% 2.0 mph W3.2 kmh W 15.0 mph24.1 kmh 29.59 in1002.0 mb 0.00 in0.0 mm 0.00 in0.0 mm 0.14 in3.6 mm
10:27 AM 71.7°F22.1°C 61.0°F16.1°C 69% 9.0 mph SSW14.5 kmh SSW 15.0 mph24.1 kmh 29.58 in1001.7 mb 0.00 in0.0 mm 0.00 in0.0 mm 0.14 in3.6 mm
10:28 AM 71.7°F22.1°C 60.2°F15.7°C 67% 14.0 mph SSW22.5 kmh SSW 18.0 mph29.0 kmh 29.59 in1002.0 mb 0.00 in0.0 mm 0.00 in0.0 mm 0.14 in3.6 mm
10:29 AM 71.7°F22.1°C 59.7°F15.4°C 66% 3.0 mph S4.8 kmh S 18.0 mph29.0 kmh 29.59 in1002.0 mb 0.00 in0.0 mm 0.00 in0.0 mm 0.14 in3.6 mm
10:30 AM 71.7°F22.1°C 59.7°F15.4°C 66% 12.0 mph S19.3 kmh S 18.0 mph29.0 kmh 29.59 in1002.0 mb 0.00 in0.0 mm 0.00 in0.0 mm 0.14 in3.6 mm
10:31 AM 71.7°F22.1°C 59.7°F15.4°C 66% 14.0 mph S22.5 kmh S 18.0 mph29.0 kmh 29.59 in1002.0 mb 0.00 in0.0 mm 0.00 in0.0 mm 0.14 in3.6 mm
10:32 AM 71.7°F22.1°C 59.7°F15.4°C 66% 4.0 mph SW6.4 kmh SW 18.0 mph29.0 kmh 29.58 in1001.7 mb 0.00 in0.0 mm 0.00 in0.0 mm 0.14 in3.6 mm
10:33 AM 71.8°F22.1°C 59.8°F15.4°C 66% 6.0 mph SSE9.7 kmh SSE 18.0 mph29.0 kmh 29.59 in1002.0 mb 0.00 in0.0 mm 0.00 in0.0 mm 0.14 in3.6 mm
10:34 AM 71.8°F22.1°C 60.2°F15.7°C 67% 19.0 mph SW30.6 kmh SW 19.0 mph30.6 kmh 29.59 in1002.0 mb 0.00 in0.0 mm 0.00 in0.0 mm 0.14 in3.6 mm
10:35 AM 71.8°F22.1°C 59.8°F15.4°C 66% 8.0 mph SE12.9 kmh SE 19.0 mph30.6 kmh 29.58 in1001.7 mb 0.00 in0.0 mm 0.00 in0.0 mm 0.14 in3.6 mm
10:36 AM 71.8°F22.1°C 59.8°F15.4°C 66% 4.0 mph SW6.4 kmh SW 19.0 mph30.6 kmh 29.58 in1001.7 mb 0.00 in0.0 mm 0.00 in0.0 mm 0.14 in3.6 mm
10:37 AM 71.8°F22.1°C 59.8°F15.4°C 66% 6.0 mph WSW9.7 kmh WSW 19.0 mph30.6 kmh 29.59 in1002.0 mb 0.00 in0.0 mm 0.00 in0.0 mm 0.14 in3.6 mm
10:38 AM 71.8°F22.1°C 59.8°F15.4°C 66% 13.0 mph S20.9 kmh S 19.0 mph30.6 kmh 29.59 in1002.0 mb 0.00 in0.0 mm 0.00 in0.0 mm 0.14 in3.6 mm
10:39 AM 71.9°F22.2°C 59.9°F15.5°C 66% 6.0 mph WSW9.7 kmh WSW 19.0 mph30.6 kmh 29.59 in1002.0 mb 0.00 in0.0 mm 0.00 in0.0 mm 0.14 in3.6 mm
10:40 AM 72.0°F22.2°C 60.4°F15.8°C 67% 11.0 mph SSW17.7 kmh SSW 19.0 mph30.6 kmh 29.58 in1001.7 mb 0.00 in0.0 mm 0.00 in0.0 mm 0.14 in3.6 mm
10:41 AM 72.0°F22.2°C 60.0°F15.6°C 66% 6.0 mph SW9.7 kmh SW 19.0 mph30.6 kmh 29.58 in1001.7 mb 0.00 in0.0 mm 0.00 in0.0 mm 0.14 in3.6 mm
10:42 AM 72.0°F22.2°C 60.0°F15.6°C 66% 3.0 mph W4.8 kmh W 19.0 mph30.6 kmh 29.58 in1001.7 mb 0.00 in0.0 mm 0.00 in0.0 mm 0.14 in3.6 mm
10:43 AM 72.1°F22.3°C 60.5°F15.8°C 67% 12.0 mph WSW19.3 kmh WSW 19.0 mph30.6 kmh 29.58 in1001.7 mb 0.00 in0.0 mm 0.00 in0.0 mm 0.14 in3.6 mm
10:44 AM 72.1°F22.3°C 60.5°F15.8°C 67% 8.0 mph SSE12.9 kmh SSE 19.0 mph30.6 kmh 29.58 in1001.7 mb 0.00 in0.0 mm 0.00 in0.0 mm 0.14 in3.6 mm
10:45 AM 72.2°F22.3°C 60.6°F15.9°C 67% 14.0 mph SSW22.5 kmh SSW 17.0 mph27.4 kmh 29.59 in1002.0 mb 0.00 in0.0 mm 0.00 in0.0 mm 0.14 in3.6 mm
10:46 AM 72.2°F22.3°C 59.8°F15.4°C 65% 6.0 mph S9.7 kmh S 17.0 mph27.4 kmh 29.59 in1002.0 mb 0.00 in0.0 mm 0.00 in0.0 mm 0.14 in3.6 mm
10:47 AM 72.2°F22.3°C 60.2°F15.7°C 66% 9.0 mph S14.5 kmh S 17.0 mph27.4 kmh 29.59 in1002.0 mb 0.00 in0.0 mm 0.00 in0.0 mm 0.14 in3.6 mm
10:48 AM 72.2°F22.3°C 60.2°F15.7°C 66% 10.0 mph SSW16.1 kmh SSW 17.0 mph27.4 kmh 29.59 in1002.0 mb 0.00 in0.0 mm 0.00 in0.0 mm 0.14 in3.6 mm
10:49 AM 72.2°F22.3°C 60.6°F15.9°C 67% 11.0 mph SSE17.7 kmh SSE 17.0 mph27.4 kmh 29.59 in1002.0 mb 0.00 in0.0 mm 0.00 in0.0 mm 0.14 in3.6 mm
10:50 AM 72.3°F22.4°C 60.3°F15.7°C 66% 8.0 mph SW12.9 kmh SW 17.0 mph27.4 kmh 29.59 in1002.0 mb 0.00 in0.0 mm 0.00 in0.0 mm 0.14 in3.6 mm
10:51 AM 72.3°F22.4°C 60.3°F15.7°C 66% 6.0 mph SW9.7 kmh SW 17.0 mph27.4 kmh 29.59 in1002.0 mb 0.00 in0.0 mm 0.00 in0.0 mm 0.14 in3.6 mm
10:52 AM 72.3°F22.4°C 60.7°F15.9°C 67% 12.0 mph SSW19.3 kmh SSW 17.0 mph27.4 kmh 29.59 in1002.0 mb 0.00 in0.0 mm 0.00 in0.0 mm 0.14 in3.6 mm
10:53 AM 72.4°F22.4°C 60.4°F15.8°C 66% 8.0 mph SSE12.9 kmh SSE 17.0 mph27.4 kmh 29.59 in1002.0 mb 0.00 in0.0 mm 0.00 in0.0 mm 0.14 in3.6 mm
10:54 AM 72.4°F22.4°C 60.8°F16.0°C 67% 9.0 mph S14.5 kmh S 17.0 mph27.4 kmh 29.59 in1002.0 mb 0.00 in0.0 mm 0.00 in0.0 mm 0.14 in3.6 mm
10:55 AM 72.5°F22.5°C 60.5°F15.8°C 66% 6.0 mph SW9.7 kmh SW 18.0 mph29.0 kmh 29.59 in1002.0 mb 0.00 in0.0 mm 0.00 in0.0 mm 0.14 in3.6 mm
10:56 AM 72.5°F22.5°C 60.5°F15.8°C 66% 10.0 mph SE16.1 kmh SE 18.0 mph29.0 kmh 29.59 in1002.0 mb 0.00 in0.0 mm 0.00 in0.0 mm 0.14 in3.6 mm
10:57 AM 72.6°F22.6°C 60.6°F15.9°C 66% 4.0 mph SSW6.4 kmh SSW 18.0 mph29.0 kmh 29.59 in1002.0 mb 0.00 in0.0 mm 0.00 in0.0 mm 0.14 in3.6 mm
10:58 AM 72.6°F22.6°C 60.6°F15.9°C 66% 8.0 mph SSW12.9 kmh SSW 18.0 mph29.0 kmh 29.59 in1002.0 mb 0.00 in0.0 mm 0.00 in0.0 mm 0.14 in3.6 mm
10:59 AM 72.7°F22.6°C 61.1°F16.2°C 67% 8.0 mph SW12.9 kmh SW 18.0 mph29.0 kmh 29.59 in1002.0 mb 0.00 in0.0 mm 0.00 in0.0 mm 0.14 in3.6 mm
11:00 AM 72.8°F22.7°C 61.2°F16.2°C 67% 11.0 mph SW17.7 kmh SW 18.0 mph29.0 kmh 29.60 in1002.4 mb 0.00 in0.0 mm 0.00 in0.0 mm 0.14 in3.6 mm
11:01 AM 72.9°F22.7°C 60.9°F16.1°C 66% 4.0 mph SSW6.4 kmh SSW 18.0 mph29.0 kmh 29.60 in1002.4 mb 0.00 in0.0 mm 0.00 in0.0 mm 0.14 in3.6 mm
11:02 AM 73.0°F22.8°C 61.4°F16.3°C 67% 9.0 mph SW14.5 kmh SW 18.0 mph29.0 kmh 29.60 in1002.4 mb 0.00 in0.0 mm 0.00 in0.0 mm 0.14 in3.6 mm
11:03 AM 73.0°F22.8°C 61.0°F16.1°C 66% 7.0 mph SSW11.3 kmh SSW 18.0 mph29.0 kmh 29.61 in1002.7 mb 0.00 in0.0 mm 0.00 in0.0 mm 0.14 in3.6 mm
11:04 AM 73.0°F22.8°C 60.5°F15.8°C 65% 3.0 mph SSW4.8 kmh SSW 19.0 mph30.6 kmh 29.60 in1002.4 mb 0.00 in0.0 mm 0.00 in0.0 mm 0.14 in3.6 mm
11:05 AM 73.0°F22.8°C 60.5°F15.8°C 65% 6.0 mph S9.7 kmh S 19.0 mph30.6 kmh 29.61 in1002.7 mb 0.00 in0.0 mm 0.00 in0.0 mm 0.14 in3.6 mm
11:06 AM 73.0°F22.8°C 60.5°F15.8°C 65% 8.0 mph S12.9 kmh S 19.0 mph30.6 kmh 29.61 in1002.7 mb 0.00 in0.0 mm 0.00 in0.0 mm 0.14 in3.6 mm
11:07 AM 73.0°F22.8°C 60.5°F15.8°C 65% 7.0 mph WSW11.3 kmh WSW 19.0 mph30.6 kmh 29.61 in1002.7 mb 0.00 in0.0 mm 0.00 in0.0 mm 0.14 in3.6 mm
11:08 AM 73.0°F22.8°C 60.5°F15.8°C 65% 11.0 mph SW17.7 kmh SW 19.0 mph30.6 kmh 29.61 in1002.7 mb 0.00 in0.0 mm 0.00 in0.0 mm 0.14 in3.6 mm
11:09 AM 73.0°F22.8°C 60.1°F15.6°C 64% 19.0 mph S30.6 kmh S 23.0 mph37.0 kmh 29.61 in1002.7 mb 0.00 in0.0 mm 0.00 in0.0 mm 0.14 in3.6 mm
11:10 AM 73.0°F22.8°C 60.1°F15.6°C 64% 10.0 mph S16.1 kmh S 23.0 mph37.0 kmh 29.61 in1002.7 mb 0.00 in0.0 mm 0.00 in0.0 mm 0.14 in3.6 mm
11:11 AM 73.0°F22.8°C 60.1°F15.6°C 64% 12.0 mph S19.3 kmh S 23.0 mph37.0 kmh 29.61 in1002.7 mb 0.00 in0.0 mm 0.00 in0.0 mm 0.14 in3.6 mm
11:12 AM 72.9°F22.7°C 59.6°F15.3°C 63% 5.0 mph S8.0 kmh S 23.0 mph37.0 kmh 29.61 in1002.7 mb 0.00 in0.0 mm 0.00 in0.0 mm 0.14 in3.6 mm
11:13 AM 72.8°F22.7°C 59.9°F15.5°C 64% 7.0 mph S11.3 kmh S 23.0 mph37.0 kmh 29.61 in1002.7 mb 0.00 in0.0 mm 0.00 in0.0 mm 0.14 in3.6 mm
11:14 AM 72.8°F22.7°C 59.5°F15.3°C 63% 9.0 mph S14.5 kmh S 23.0 mph37.0 kmh 29.61 in1002.7 mb 0.00 in0.0 mm 0.00 in0.0 mm 0.14 in3.6 mm
11:15 AM 72.9°F22.7°C 60.4°F15.8°C 65% 5.0 mph SW8.0 kmh SW 23.0 mph37.0 kmh 29.61 in1002.7 mb 0.00 in0.0 mm 0.00 in0.0 mm 0.14 in3.6 mm
11:16 AM 72.9°F22.7°C 60.9°F16.1°C 66% 10.0 mph ESE16.1 kmh ESE 23.0 mph37.0 kmh 29.61 in1002.7 mb 0.00 in0.0 mm 0.00 in0.0 mm 0.14 in3.6 mm
11:17 AM 72.9°F22.7°C 60.4°F15.8°C 65% 5.0 mph S8.0 kmh S 23.0 mph37.0 kmh 29.61 in1002.7 mb 0.00 in0.0 mm 0.00 in0.0 mm 0.14 in3.6 mm
11:18 AM 72.9°F22.7°C 60.0°F15.6°C 64% 5.0 mph WSW8.0 kmh WSW 23.0 mph37.0 kmh 29.61 in1002.7 mb 0.00 in0.0 mm 0.00 in0.0 mm 0.14 in3.6 mm
11:19 AM 72.9°F22.7°C 59.6°F15.3°C 63% 13.0 mph SW20.9 kmh SW 21.0 mph33.8 kmh 29.61 in1002.7 mb 0.00 in0.0 mm 0.00 in0.0 mm 0.14 in3.6 mm
11:20 AM 72.9°F22.7°C 60.4°F15.8°C 65% 15.0 mph S24.1 kmh S 21.0 mph33.8 kmh 29.59 in1002.0 mb 0.00 in0.0 mm 0.00 in0.0 mm 0.14 in3.6 mm
11:21 AM 73.0°F22.8°C 60.5°F15.8°C 65% 11.0 mph SW17.7 kmh SW 21.0 mph33.8 kmh 29.59 in1002.0 mb 0.00 in0.0 mm 0.00 in0.0 mm 0.14 in3.6 mm
11:22 AM 73.0°F22.8°C 61.0°F16.1°C 66% 11.0 mph SW17.7 kmh SW 18.0 mph29.0 kmh 29.59 in1002.0 mb 0.00 in0.0 mm 0.00 in0.0 mm 0.14 in3.6 mm
11:23 AM 73.0°F22.8°C 61.0°F16.1°C 66% 4.0 mph S6.4 kmh S 18.0 mph29.0 kmh 29.59 in1002.0 mb 0.00 in0.0 mm 0.00 in0.0 mm 0.14 in3.6 mm
11:24 AM 73.1°F22.8°C 61.5°F16.4°C 67% 12.0 mph WSW19.3 kmh WSW 18.0 mph29.0 kmh 29.59 in1002.0 mb 0.00 in0.0 mm 0.00 in0.0 mm 0.14 in3.6 mm
11:25 AM 73.1°F22.8°C 60.6°F15.9°C 65% 4.0 mph SSE6.4 kmh SSE 18.0 mph29.0 kmh 29.59 in1002.0 mb 0.00 in0.0 mm 0.00 in0.0 mm 0.14 in3.6 mm
11:26 AM 73.1°F22.8°C 61.1°F16.2°C 66% 13.0 mph SW20.9 kmh SW 18.0 mph29.0 kmh 29.59 in1002.0 mb 0.00 in0.0 mm 0.00 in0.0 mm 0.14 in3.6 mm
11:27 AM 73.1°F22.8°C 60.6°F15.9°C 65% 12.0 mph SW19.3 kmh SW 18.0 mph29.0 kmh 29.59 in1002.0 mb 0.00 in0.0 mm 0.00 in0.0 mm 0.14 in3.6 mm
11:28 AM 73.1°F22.8°C 60.6°F15.9°C 65% 19.0 mph SW30.6 kmh SW 19.0 mph30.6 kmh 29.59 in1002.0 mb 0.00 in0.0 mm 0.00 in0.0 mm 0.14 in3.6 mm
11:29 AM 73.1°F22.8°C 60.6°F15.9°C 65% 8.0 mph SSW12.9 kmh SSW 20.0 mph32.2 kmh 29.59 in1002.0 mb 0.00 in0.0 mm 0.00 in0.0 mm 0.14 in3.6 mm
11:30 AM 73.1°F22.8°C 60.6°F15.9°C 65% 7.0 mph W11.3 kmh W 20.0 mph32.2 kmh 29.59 in1002.0 mb 0.00 in0.0 mm 0.00 in0.0 mm 0.14 in3.6 mm
11:31 AM 73.1°F22.8°C 60.6°F15.9°C 65% 5.0 mph SSW8.0 kmh SSW 20.0 mph32.2 kmh 29.58 in1001.7 mb 0.00 in0.0 mm 0.00 in0.0 mm 0.14 in3.6 mm
11:32 AM 73.1°F22.8°C 60.6°F15.9°C 65% 4.0 mph SSW6.4 kmh SSW 20.0 mph32.2 kmh 29.59 in1002.0 mb 0.00 in0.0 mm 0.00 in0.0 mm 0.14 in3.6 mm
11:33 AM 73.1°F22.8°C 61.1°F16.2°C 66% 15.0 mph SSW24.1 kmh SSW 20.0 mph32.2 kmh 29.59 in1002.0 mb 0.00 in0.0 mm 0.00 in0.0 mm 0.14 in3.6 mm
11:34 AM 73.1°F22.8°C 60.6°F15.9°C 65% 4.0 mph SW6.4 kmh SW 20.0 mph32.2 kmh 29.59 in1002.0 mb 0.00 in0.0 mm 0.00 in0.0 mm 0.14 in3.6 mm
11:35 AM 73.1°F22.8°C 60.2°F15.7°C 64% 8.0 mph S12.9 kmh S 20.0 mph32.2 kmh 29.58 in1001.7 mb 0.00 in0.0 mm 0.00 in0.0 mm 0.14 in3.6 mm
11:36 AM 73.2°F22.9°C 60.7°F15.9°C 65% 14.0 mph SSW22.5 kmh SSW 20.0 mph32.2 kmh 29.58 in1001.7 mb 0.00 in0.0 mm 0.00 in0.0 mm 0.14 in3.6 mm
11:37 AM 73.3°F22.9°C 61.3°F16.3°C 66% 13.0 mph SSW20.9 kmh SSW 20.0 mph32.2 kmh 29.58 in1001.7 mb 0.00 in0.0 mm 0.00 in0.0 mm 0.14 in3.6 mm
11:38 AM 73.3°F22.9°C 61.3°F16.3°C 66% 10.0 mph SSW16.1 kmh SSW 20.0 mph32.2 kmh 29.58 in1001.7 mb 0.00 in0.0 mm 0.00 in0.0 mm 0.14 in3.6 mm
11:39 AM 73.4°F23.0°C 61.3°F16.3°C 66% 3.0 mph WSW4.8 kmh WSW 19.0 mph30.6 kmh 29.58 in1001.7 mb 0.00 in0.0 mm 0.00 in0.0 mm 0.14 in3.6 mm
11:40 AM 73.4°F23.0°C 61.8°F16.6°C 67% 5.0 mph WSW8.0 kmh WSW 19.0 mph30.6 kmh 29.59 in1002.0 mb 0.00 in0.0 mm 0.00 in0.0 mm 0.14 in3.6 mm
11:41 AM 73.6°F23.1°C 62.0°F16.7°C 67% 4.0 mph SW6.4 kmh SW 18.0 mph29.0 kmh 29.59 in1002.0 mb 0.00 in0.0 mm 0.00 in0.0 mm 0.14 in3.6 mm
11:42 AM 73.7°F23.2°C 62.1°F16.7°C 67% 3.0 mph SW4.8 kmh SW 18.0 mph29.0 kmh 29.59 in1002.0 mb 0.00 in0.0 mm 0.00 in0.0 mm 0.14 in3.6 mm
11:43 AM 73.7°F23.2°C 61.2°F16.2°C 65% 10.0 mph SSW16.1 kmh SSW 16.0 mph25.7 kmh 29.59 in1002.0 mb 0.00 in0.0 mm 0.00 in0.0 mm 0.14 in3.6 mm
11:44 AM 73.8°F23.2°C 61.7°F16.5°C 66% 7.0 mph SSW11.3 kmh SSW 15.0 mph24.1 kmh 29.59 in1002.0 mb 0.00 in0.0 mm 0.00 in0.0 mm 0.14 in3.6 mm
11:45 AM 73.8°F23.2°C 61.3°F16.3°C 65% 5.0 mph SW8.0 kmh SW 15.0 mph24.1 kmh 29.59 in1002.0 mb 0.00 in0.0 mm 0.00 in0.0 mm 0.14 in3.6 mm
11:46 AM 73.9°F23.3°C 61.8°F16.6°C 66% 8.0 mph SSW12.9 kmh SSW 15.0 mph24.1 kmh 29.59 in1002.0 mb 0.00 in0.0 mm 0.00 in0.0 mm 0.14 in3.6 mm
11:47 AM 73.9°F23.3°C 61.8°F16.6°C 66% 7.0 mph S11.3 kmh S 15.0 mph24.1 kmh 29.59 in1002.0 mb 0.00 in0.0 mm 0.00 in0.0 mm 0.14 in3.6 mm
11:48 AM 73.9°F23.3°C 61.4°F16.3°C 65% 9.0 mph SW14.5 kmh SW 14.0 mph22.5 kmh 29.59 in1002.0 mb 0.00 in0.0 mm 0.00 in0.0 mm 0.14 in3.6 mm
11:49 AM 74.0°F23.3°C 61.0°F16.1°C 64% 9.0 mph SW14.5 kmh SW 15.0 mph24.1 kmh 29.59 in1002.0 mb 0.00 in0.0 mm 0.00 in0.0 mm 0.14 in3.6 mm
11:50 AM 73.9°F23.3°C 61.0°F16.1°C 64% 11.0 mph SW17.7 kmh SW 16.0 mph25.7 kmh 29.59 in1002.0 mb 0.00 in0.0 mm 0.00 in0.0 mm 0.14 in3.6 mm
11:51 AM 73.9°F23.3°C 60.5°F15.8°C 63% 13.0 mph SW20.9 kmh SW 16.0 mph25.7 kmh 29.59 in1002.0 mb 0.00 in0.0 mm 0.00 in0.0 mm 0.14 in3.6 mm
11:52 AM 73.9°F23.3°C 61.0°F16.1°C 64% 3.0 mph SSW4.8 kmh SSW 16.0 mph25.7 kmh 29.59 in1002.0 mb 0.00 in0.0 mm 0.00 in0.0 mm 0.14 in3.6 mm
11:53 AM 73.9°F23.3°C 61.4°F16.3°C 65% 9.0 mph SW14.5 kmh SW 16.0 mph25.7 kmh 29.59 in1002.0 mb 0.00 in0.0 mm 0.00 in0.0 mm 0.14 in3.6 mm
11:54 AM 73.9°F23.3°C 61.0°F16.1°C 64% 11.0 mph SW17.7 kmh SW 16.0 mph25.7 kmh 29.59 in1002.0 mb 0.00 in0.0 mm 0.00 in0.0 mm 0.14 in3.6 mm
11:55 AM 73.9°F23.3°C 61.4°F16.3°C 65% 5.0 mph S8.0 kmh S 16.0 mph25.7 kmh 29.59 in1002.0 mb 0.00 in0.0 mm 0.00 in0.0 mm 0.14 in3.6 mm
11:56 AM 73.9°F23.3°C 61.0°F16.1°C 64% 10.0 mph WSW16.1 kmh WSW 16.0 mph25.7 kmh 29.59 in1002.0 mb 0.00 in0.0 mm 0.00 in0.0 mm 0.14 in3.6 mm
11:57 AM 73.9°F23.3°C 61.4°F16.3°C 65% 5.0 mph WSW8.0 kmh WSW 16.0 mph25.7 kmh 29.59 in1002.0 mb 0.00 in0.0 mm 0.00 in0.0 mm 0.14 in3.6 mm
11:58 AM 74.0°F23.3°C 62.3°F16.8°C 67% 10.0 mph SW16.1 kmh SW 17.0 mph27.4 kmh 29.59 in1002.0 mb 0.00 in0.0 mm 0.00 in0.0 mm 0.14 in3.6 mm
11:59 AM 74.1°F23.4°C 62.0°F16.7°C 66% 8.0 mph S12.9 kmh S 18.0 mph29.0 kmh 29.60 in1002.4 mb 0.00 in0.0 mm 0.00 in0.0 mm 0.14 in3.6 mm
12:00 PM 74.1°F23.4°C 61.1°F16.2°C 64% 4.0 mph WSW6.4 kmh WSW 18.0 mph29.0 kmh 29.59 in1002.0 mb 0.00 in0.0 mm 0.00 in0.0 mm 0.14 in3.6 mm
12:01 PM 74.2°F23.4°C 61.2°F16.2°C 64% 6.0 mph SW9.7 kmh SW 18.0 mph29.0 kmh 29.58 in1001.7 mb 0.00 in0.0 mm 0.00 in0.0 mm 0.14 in3.6 mm
12:02 PM 74.2°F23.4°C 61.2°F16.2°C 64% 3.0 mph SSW4.8 kmh SSW 18.0 mph29.0 kmh 29.59 in1002.0 mb 0.00 in0.0 mm 0.00 in0.0 mm 0.14 in3.6 mm
12:03 PM 74.2°F23.4°C 61.7°F16.5°C 65% 9.0 mph S14.5 kmh S 18.0 mph29.0 kmh 29.58 in1001.7 mb 0.00 in0.0 mm 0.00 in0.0 mm 0.14 in3.6 mm
12:04 PM 74.3°F23.5°C 61.8°F16.6°C 65% 4.0 mph S6.4 kmh S 18.0 mph29.0 kmh 29.59 in1002.0 mb 0.00 in0.0 mm 0.00 in0.0 mm 0.14 in3.6 mm
12:05 PM 74.3°F23.5°C 62.2°F16.8°C 66% 8.0 mph W12.9 kmh W 18.0 mph29.0 kmh 29.59 in1002.0 mb 0.00 in0.0 mm 0.00 in0.0 mm 0.14 in3.6 mm
12:06 PM 74.4°F23.6°C 62.3°F16.8°C 66% 9.0 mph SW14.5 kmh SW 18.0 mph29.0 kmh 29.59 in1002.0 mb 0.00 in0.0 mm 0.00 in0.0 mm 0.14 in3.6 mm
12:07 PM 74.4°F23.6°C 61.4°F16.3°C 64% 4.0 mph S6.4 kmh S 18.0 mph29.0 kmh 29.58 in1001.7 mb 0.00 in0.0 mm 0.00 in0.0 mm 0.14 in3.6 mm
12:08 PM 74.4°F23.6°C 61.9°F16.6°C 65% 8.0 mph S12.9 kmh S 18.0 mph29.0 kmh 29.58 in1001.7 mb 0.00 in0.0 mm 0.00 in0.0 mm 0.14 in3.6 mm
12:09 PM 74.4°F23.6°C 61.9°F16.6°C 65% 8.0 mph SSW12.9 kmh SSW 17.0 mph27.4 kmh 29.58 in1001.7 mb 0.00 in0.0 mm 0.00 in0.0 mm 0.14 in3.6 mm
12:10 PM 74.3°F23.5°C 60.9°F16.1°C 63% 12.0 mph SSW19.3 kmh SSW 18.0 mph29.0 kmh 29.58 in1001.7 mb 0.00 in0.0 mm 0.00 in0.0 mm 0.14 in3.6 mm
12:11 PM 74.2°F23.4°C 60.8°F16.0°C 63% 10.0 mph SW16.1 kmh SW 18.0 mph29.0 kmh 29.58 in1001.7 mb 0.00 in0.0 mm 0.00 in0.0 mm 0.14 in3.6 mm
12:12 PM 74.1°F23.4°C 60.7°F15.9°C 63% 6.0 mph S9.7 kmh S 18.0 mph29.0 kmh 29.58 in1001.7 mb 0.00 in0.0 mm 0.00 in0.0 mm 0.14 in3.6 mm
12:13 PM 74.1°F23.4°C 61.6°F16.4°C 65% 13.0 mph WSW20.9 kmh WSW 18.0 mph29.0 kmh 29.58 in1001.7 mb 0.00 in0.0 mm 0.00 in0.0 mm 0.14 in3.6 mm
12:14 PM 74.1°F23.4°C 61.6°F16.4°C 65% 6.0 mph SW9.7 kmh SW 18.0 mph29.0 kmh 29.58 in1001.7 mb 0.00 in0.0 mm 0.00 in0.0 mm 0.14 in3.6 mm
12:15 PM 74.1°F23.4°C 61.6°F16.4°C 65% 7.0 mph W11.3 kmh W 18.0 mph29.0 kmh 29.58 in1001.7 mb 0.00 in0.0 mm 0.00 in0.0 mm 0.14 in3.6 mm
12:16 PM 74.1°F23.4°C 61.6°F16.4°C 65% 3.0 mph SW4.8 kmh SW 18.0 mph29.0 kmh 29.58 in1001.7 mb 0.00 in0.0 mm 0.00 in0.0 mm 0.14 in3.6 mm
12:17 PM 74.1°F23.4°C 62.0°F16.7°C 66% 6.0 mph S9.7 kmh S 18.0 mph29.0 kmh 29.58 in1001.7 mb 0.00 in0.0 mm 0.00 in0.0 mm 0.14 in3.6 mm
12:18 PM 74.2°F23.4°C 62.1°F16.7°C 66% 8.0 mph WSW12.9 kmh WSW 18.0 mph29.0 kmh 29.58 in1001.7 mb 0.00 in0.0 mm 0.00 in0.0 mm 0.14 in3.6 mm
12:19 PM 74.2°F23.4°C 62.1°F16.7°C 66% 11.0 mph S17.7 kmh S 18.0 mph29.0 kmh 29.58 in1001.7 mb 0.00 in0.0 mm 0.00 in0.0 mm 0.14 in3.6 mm
12:20 PM 74.2°F23.4°C 61.7°F16.5°C 65% 4.0 mph WNW6.4 kmh WNW 18.0 mph29.0 kmh 29.59 in1002.0 mb 0.00 in0.0 mm 0.00 in0.0 mm 0.14 in3.6 mm
12:21 PM 74.2°F23.4°C 61.2°F16.2°C 64% 6.0 mph SW9.7 kmh SW 17.0 mph27.4 kmh 29.59 in1002.0 mb 0.00 in0.0 mm 0.00 in0.0 mm 0.14 in3.6 mm
12:22 PM 74.3°F23.5°C 62.2°F16.8°C 66% 11.0 mph SW17.7 kmh SW 18.0 mph29.0 kmh 29.59 in1002.0 mb 0.00 in0.0 mm 0.00 in0.0 mm 0.14 in3.6 mm
12:23 PM 74.3°F23.5°C 61.3°F16.3°C 64% 11.0 mph WSW17.7 kmh WSW 18.0 mph29.0 kmh 29.59 in1002.0 mb 0.00 in0.0 mm 0.00 in0.0 mm 0.14 in3.6 mm
12:24 PM 74.4°F23.6°C 61.9°F16.6°C 65% 5.0 mph S8.0 kmh S 18.0 mph29.0 kmh 29.59 in1002.0 mb 0.00 in0.0 mm 0.00 in0.0 mm 0.14 in3.6 mm
12:25 PM 74.4°F23.6°C 61.4°F16.3°C 64% 8.0 mph S12.9 kmh S 18.0 mph29.0 kmh 29.59 in1002.0 mb 0.00 in0.0 mm 0.00 in0.0 mm 0.14 in3.6 mm
12:26 PM 74.4°F23.6°C 61.4°F16.3°C 64% 5.0 mph SW8.0 kmh SW 18.0 mph29.0 kmh 29.59 in1002.0 mb 0.00 in0.0 mm 0.00 in0.0 mm 0.14 in3.6 mm
12:27 PM 74.5°F23.6°C 62.0°F16.7°C 65% 10.0 mph SSW16.1 kmh SSW 18.0 mph29.0 kmh 29.59 in1002.0 mb 0.00 in0.0 mm 0.00 in0.0 mm 0.14 in3.6 mm
12:28 PM 74.6°F23.7°C 62.1°F16.7°C 65% 7.0 mph WSW11.3 kmh WSW 18.0 mph29.0 kmh 29.59 in1002.0 mb 0.00 in0.0 mm 0.00 in0.0 mm 0.14 in3.6 mm
12:29 PM 74.6°F23.7°C 61.2°F16.2°C 63% 8.0 mph S12.9 kmh S 18.0 mph29.0 kmh 29.59 in1002.0 mb 0.00 in0.0 mm 0.00 in0.0 mm 0.14 in3.6 mm
12:30 PM 74.6°F23.7°C 61.6°F16.4°C 64% 7.0 mph W11.3 kmh W 18.0 mph29.0 kmh 29.59 in1002.0 mb 0.00 in0.0 mm 0.00 in0.0 mm 0.14 in3.6 mm
12:31 PM 74.6°F23.7°C 61.6°F16.4°C 64% 2.0 mph SW3.2 kmh SW 18.0 mph29.0 kmh 29.59 in1002.0 mb 0.00 in0.0 mm 0.00 in0.0 mm 0.14 in3.6 mm
12:32 PM 74.6°F23.7°C 61.6°F16.4°C 64% 4.0 mph SW6.4 kmh SW 15.0 mph24.1 kmh 29.59 in1002.0 mb 0.00 in0.0 mm 0.00 in0.0 mm 0.14 in3.6 mm
12:33 PM 74.6°F23.7°C 61.6°F16.4°C 64% 7.0 mph S11.3 kmh S 15.0 mph24.1 kmh 29.59 in1002.0 mb 0.00 in0.0 mm 0.00 in0.0 mm 0.14 in3.6 mm
12:34 PM 74.7°F23.7°C 62.1°F16.7°C 65% 10.0 mph SW16.1 kmh SW 15.0 mph24.1 kmh 29.59 in1002.0 mb 0.00 in0.0 mm 0.00 in0.0 mm 0.14 in3.6 mm
12:35 PM 74.7°F23.7°C 62.1°F16.7°C 65% 7.0 mph SSW11.3 kmh SSW 15.0 mph24.1 kmh 29.59 in1002.0 mb 0.00 in0.0 mm 0.00 in0.0 mm 0.14 in3.6 mm
12:36 PM 74.7°F23.7°C 61.7°F16.5°C 64% 9.0 mph SW14.5 kmh SW 15.0 mph24.1 kmh 29.59 in1002.0 mb 0.00 in0.0 mm 0.00 in0.0 mm 0.14 in3.6 mm
12:37 PM 74.7°F23.7°C 61.7°F16.5°C 64% 7.0 mph WSW11.3 kmh WSW 15.0 mph24.1 kmh 29.59 in1002.0 mb 0.00 in0.0 mm 0.00 in0.0 mm 0.14 in3.6 mm
12:38 PM 74.8°F23.8°C 62.7°F17.1°C 66% 11.0 mph SSW17.7 kmh SSW 15.0 mph24.1 kmh 29.59 in1002.0 mb 0.00 in0.0 mm 0.00 in0.0 mm 0.14 in3.6 mm
12:39 PM 74.8°F23.8°C 61.8°F16.6°C 64% 6.0 mph SW9.7 kmh SW 15.0 mph24.1 kmh 29.59 in1002.0 mb 0.00 in0.0 mm 0.00 in0.0 mm 0.14 in3.6 mm
12:40 PM 74.8°F23.8°C 61.8°F16.6°C 64% 8.0 mph SSE12.9 kmh SSE 15.0 mph24.1 kmh 29.58 in1001.7 mb 0.00 in0.0 mm 0.00 in0.0 mm 0.14 in3.6 mm
12:41 PM 74.8°F23.8°C 61.8°F16.6°C 64% 7.0 mph SSW11.3 kmh SSW 15.0 mph24.1 kmh 29.58 in1001.7 mb 0.00 in0.0 mm 0.00 in0.0 mm 0.14 in3.6 mm
12:42 PM 74.8°F23.8°C 61.8°F16.6°C 64% 7.0 mph SW11.3 kmh SW 15.0 mph24.1 kmh 29.58 in1001.7 mb 0.00 in0.0 mm 0.00 in0.0 mm 0.14 in3.6 mm
12:43 PM 74.8°F23.8°C 61.4°F16.3°C 63% 3.0 mph SSW4.8 kmh SSW 15.0 mph24.1 kmh 29.58 in1001.7 mb 0.00 in0.0 mm 0.00 in0.0 mm 0.14 in3.6 mm
12:44 PM 74.7°F23.7°C 61.7°F16.5°C 64% 3.0 mph S4.8 kmh S 18.0 mph29.0 kmh 29.58 in1001.7 mb 0.00 in0.0 mm 0.00 in0.0 mm 0.14 in3.6 mm
12:45 PM 74.6°F23.7°C 61.6°F16.4°C 64% 5.0 mph SW8.0 kmh SW 18.0 mph29.0 kmh 29.58 in1001.7 mb 0.00 in0.0 mm 0.00 in0.0 mm 0.14 in3.6 mm
12:46 PM 74.6°F23.7°C 62.1°F16.7°C 65% 7.0 mph SW11.3 kmh SW 18.0 mph29.0 kmh 29.58 in1001.7 mb 0.00 in0.0 mm 0.00 in0.0 mm 0.14 in3.6 mm
12:47 PM 74.6°F23.7°C 61.6°F16.4°C 64% 10.0 mph WSW16.1 kmh WSW 18.0 mph29.0 kmh 29.58 in1001.7 mb 0.00 in0.0 mm 0.00 in0.0 mm 0.14 in3.6 mm
12:48 PM 74.6°F23.7°C 61.6°F16.4°C 64% 3.0 mph S4.8 kmh S 18.0 mph29.0 kmh 29.58 in1001.7 mb 0.00 in0.0 mm 0.00 in0.0 mm 0.14 in3.6 mm
12:49 PM 74.6°F23.7°C 62.1°F16.7°C 65% 8.0 mph SW12.9 kmh SW 18.0 mph29.0 kmh 29.58 in1001.7 mb 0.00 in0.0 mm 0.00 in0.0 mm 0.14 in3.6 mm
12:50 PM 74.6°F23.7°C 62.1°F16.7°C 65% 12.0 mph SW19.3 kmh SW 18.0 mph29.0 kmh 29.57 in1001.4 mb 0.00 in0.0 mm 0.00 in0.0 mm 0.14 in3.6 mm
12:51 PM 74.6°F23.7°C 61.6°F16.4°C 64% 6.0 mph S9.7 kmh S 18.0 mph29.0 kmh 29.57 in1001.4 mb 0.00 in0.0 mm 0.00 in0.0 mm 0.14 in3.6 mm
12:52 PM 74.5°F23.6°C 62.0°F16.7°C 65% 8.0 mph WSW12.9 kmh WSW 18.0 mph29.0 kmh 29.58 in1001.7 mb 0.00 in0.0 mm 0.00 in0.0 mm 0.14 in3.6 mm
12:53 PM 74.5°F23.6°C 62.0°F16.7°C 65% 4.0 mph SSW6.4 kmh SSW 18.0 mph29.0 kmh 29.58 in1001.7 mb 0.00 in0.0 mm 0.00 in0.0 mm 0.14 in3.6 mm
12:54 PM 74.4°F23.6°C 61.4°F16.3°C 64% 4.0 mph S6.4 kmh S 16.0 mph25.7 kmh 29.57 in1001.4 mb 0.00 in0.0 mm 0.00 in0.0 mm 0.14 in3.6 mm
12:55 PM 74.3°F23.5°C 61.8°F16.6°C 65% 5.0 mph WSW8.0 kmh WSW 16.0 mph25.7 kmh 29.58 in1001.7 mb 0.00 in0.0 mm 0.00 in0.0 mm 0.14 in3.6 mm
12:56 PM 74.3°F23.5°C 61.8°F16.6°C 65% 5.0 mph S8.0 kmh S 16.0 mph25.7 kmh 29.58 in1001.7 mb 0.00 in0.0 mm 0.00 in0.0 mm 0.14 in3.6 mm
12:57 PM 74.3°F23.5°C 62.2°F16.8°C 66% 4.0 mph WSW6.4 kmh WSW 16.0 mph25.7 kmh 29.58 in1001.7 mb 0.00 in0.0 mm 0.00 in0.0 mm 0.14 in3.6 mm
12:58 PM 74.2°F23.4°C 61.7°F16.5°C 65% 9.0 mph SSW14.5 kmh SSW 16.0 mph25.7 kmh 29.58 in1001.7 mb 0.00 in0.0 mm 0.00 in0.0 mm 0.14 in3.6 mm
12:59 PM 74.2°F23.4°C 62.1°F16.7°C 66% 6.0 mph S9.7 kmh S 16.0 mph25.7 kmh 29.58 in1001.7 mb 0.00 in0.0 mm 0.00 in0.0 mm 0.14 in3.6 mm
01:00 PM 74.2°F23.4°C 62.1°F16.7°C 66% 4.0 mph S6.4 kmh S 16.0 mph25.7 kmh 29.58 in1001.7 mb 0.00 in0.0 mm 0.00 in0.0 mm 0.14 in3.6 mm
01:01 PM 74.2°F23.4°C 62.1°F16.7°C 66% 12.0 mph S19.3 kmh S 16.0 mph25.7 kmh 29.59 in1002.0 mb 0.00 in0.0 mm 0.00 in0.0 mm 0.14 in3.6 mm
01:02 PM 74.2°F23.4°C 62.1°F16.7°C 66% 5.0 mph S8.0 kmh S 16.0 mph25.7 kmh 29.59 in1002.0 mb 0.00 in0.0 mm 0.00 in0.0 mm 0.14 in3.6 mm
01:03 PM 74.2°F23.4°C 62.5°F16.9°C 67% 5.0 mph SW8.0 kmh SW 16.0 mph25.7 kmh 29.59 in1002.0 mb 0.00 in0.0 mm 0.00 in0.0 mm 0.14 in3.6 mm
01:04 PM 74.1°F23.4°C 61.6°F16.4°C 65% 8.0 mph WSW12.9 kmh WSW 15.0 mph24.1 kmh 29.59 in1002.0 mb 0.00 in0.0 mm 0.00 in0.0 mm 0.14 in3.6 mm
01:05 PM 74.0°F23.3°C 62.3°F16.8°C 67% 7.0 mph S11.3 kmh S 15.0 mph24.1 kmh 29.59 in1002.0 mb 0.00 in0.0 mm 0.00 in0.0 mm 0.14 in3.6 mm
01:06 PM 74.0°F23.3°C 61.5°F16.4°C 65% 4.0 mph SSW6.4 kmh SSW 15.0 mph24.1 kmh 29.59 in1002.0 mb 0.00 in0.0 mm 0.00 in0.0 mm 0.14 in3.6 mm
01:07 PM 73.9°F23.3°C 61.8°F16.6°C 66% 10.0 mph S16.1 kmh S 15.0 mph24.1 kmh 29.59 in1002.0 mb 0.00 in0.0 mm 0.00 in0.0 mm 0.14 in3.6 mm
01:08 PM 73.9°F23.3°C 61.8°F16.6°C 66% 2.0 mph NW3.2 kmh NW 15.0 mph24.1 kmh 29.59 in1002.0 mb 0.00 in0.0 mm 0.00 in0.0 mm 0.14 in3.6 mm
01:09 PM 73.9°F23.3°C 62.2°F16.8°C 67% 7.0 mph SW11.3 kmh SW 15.0 mph24.1 kmh 29.59 in1002.0 mb 0.00 in0.0 mm 0.00 in0.0 mm 0.14 in3.6 mm
01:10 PM 73.8°F23.2°C 61.7°F16.5°C 66% 6.0 mph S9.7 kmh S 15.0 mph24.1 kmh 29.59 in1002.0 mb 0.00 in0.0 mm 0.00 in0.0 mm 0.14 in3.6 mm
01:11 PM 73.7°F23.2°C 61.6°F16.4°C 66% 6.0 mph SW9.7 kmh SW 15.0 mph24.1 kmh 29.59 in1002.0 mb 0.00 in0.0 mm 0.00 in0.0 mm 0.14 in3.6 mm
01:12 PM 73.7°F23.2°C 62.1°F16.7°C 67% 3.0 mph WSW4.8 kmh WSW 15.0 mph24.1 kmh 29.59 in1002.0 mb 0.00 in0.0 mm 0.00 in0.0 mm 0.14 in3.6 mm
01:13 PM 73.6°F23.1°C 62.0°F16.7°C 67% 6.0 mph SSE9.7 kmh SSE 15.0 mph24.1 kmh 29.59 in1002.0 mb 0.00 in0.0 mm 0.00 in0.0 mm 0.14 in3.6 mm
01:14 PM 73.6°F23.1°C 61.5°F16.4°C 66% 4.0 mph S6.4 kmh S 15.0 mph24.1 kmh 29.60 in1002.4 mb 0.00 in0.0 mm 0.00 in0.0 mm 0.14 in3.6 mm
01:15 PM 73.6°F23.1°C 61.5°F16.4°C 66% 5.0 mph SSW8.0 kmh SSW 13.0 mph20.9 kmh 29.59 in1002.0 mb 0.00 in0.0 mm 0.00 in0.0 mm 0.14 in3.6 mm
01:16 PM 73.5°F23.1°C 61.9°F16.6°C 67% 5.0 mph S8.0 kmh S 13.0 mph20.9 kmh 29.59 in1002.0 mb 0.00 in0.0 mm 0.00 in0.0 mm 0.14 in3.6 mm
01:17 PM 73.4°F23.0°C 61.8°F16.6°C 67% 2.0 mph S3.2 kmh S 13.0 mph20.9 kmh 29.59 in1002.0 mb 0.00 in0.0 mm 0.00 in0.0 mm 0.14 in3.6 mm
01:18 PM 73.4°F23.0°C 61.8°F16.6°C 67% 2.0 mph S3.2 kmh S 13.0 mph20.9 kmh 29.59 in1002.0 mb 0.00 in0.0 mm 0.00 in0.0 mm 0.14 in3.6 mm
01:19 PM 73.4°F23.0°C 62.2°F16.8°C 68% 3.0 mph SW4.8 kmh SW 13.0 mph20.9 kmh 29.59 in1002.0 mb 0.00 in0.0 mm 0.00 in0.0 mm 0.14 in3.6 mm
01:20 PM 73.4°F23.0°C 62.2°F16.8°C 68% 13.0 mph SSW20.9 kmh SSW 13.0 mph20.9 kmh 29.60 in1002.4 mb 0.00 in0.0 mm 0.00 in0.0 mm 0.14 in3.6 mm
01:21 PM 73.4°F23.0°C 61.8°F16.6°C 67% 5.0 mph SW8.0 kmh SW 13.0 mph20.9 kmh 29.59 in1002.0 mb 0.00 in0.0 mm 0.00 in0.0 mm 0.14 in3.6 mm
01:22 PM 73.3°F22.9°C 61.7°F16.5°C 67% 4.0 mph WSW6.4 kmh WSW 13.0 mph20.9 kmh 29.59 in1002.0 mb 0.00 in0.0 mm 0.00 in0.0 mm 0.14 in3.6 mm
01:23 PM 73.3°F22.9°C 62.1°F16.7°C 68% 6.0 mph S9.7 kmh S 13.0 mph20.9 kmh 29.59 in1002.0 mb 0.00 in0.0 mm 0.00 in0.0 mm 0.14 in3.6 mm
01:24 PM 73.3°F22.9°C 62.1°F16.7°C 68% 2.0 mph SW3.2 kmh SW 13.0 mph20.9 kmh 29.59 in1002.0 mb 0.00 in0.0 mm 0.00 in0.0 mm 0.14 in3.6 mm
01:25 PM 73.3°F22.9°C 62.5°F16.9°C 69% 4.0 mph S6.4 kmh S 13.0 mph20.9 kmh 29.59 in1002.0 mb 0.00 in0.0 mm 0.00 in0.0 mm 0.14 in3.6 mm
01:26 PM 73.3°F22.9°C 62.1°F16.7°C 68% 3.0 mph SW4.8 kmh SW 13.0 mph20.9 kmh 29.59 in1002.0 mb 0.00 in0.0 mm 0.00 in0.0 mm 0.14 in3.6 mm
01:27 PM 73.3°F22.9°C 61.7°F16.5°C 67% 2.0 mph SW3.2 kmh SW 13.0 mph20.9 kmh 29.59 in1002.0 mb 0.00 in0.0 mm 0.00 in0.0 mm 0.14 in3.6 mm
01:28 PM 73.3°F22.9°C 61.7°F16.5°C 67% 5.0 mph WSW8.0 kmh WSW 13.0 mph20.9 kmh 29.59 in1002.0 mb 0.00 in0.0 mm 0.00 in0.0 mm 0.14 in3.6 mm
01:29 PM 73.3°F22.9°C 62.1°F16.7°C 68% 3.0 mph S4.8 kmh S 13.0 mph20.9 kmh 29.59 in1002.0 mb 0.00 in0.0 mm 0.00 in0.0 mm 0.14 in3.6 mm
01:30 PM 73.3°F22.9°C 62.1°F16.7°C 68% 4.0 mph WSW6.4 kmh WSW 13.0 mph20.9 kmh 29.59 in1002.0 mb 0.00 in0.0 mm 0.00 in0.0 mm 0.14 in3.6 mm
01:31 PM 73.3°F22.9°C 62.1°F16.7°C 68% 3.0 mph SW4.8 kmh SW 9.0 mph14.5 kmh 29.59 in1002.0 mb 0.00 in0.0 mm 0.00 in0.0 mm 0.14 in3.6 mm
01:32 PM 73.3°F22.9°C 62.1°F16.7°C 68% 3.0 mph S4.8 kmh S 10.0 mph16.1 kmh 29.59 in1002.0 mb 0.00 in0.0 mm 0.00 in0.0 mm 0.14 in3.6 mm
01:33 PM 73.3°F22.9°C 61.7°F16.5°C 67% 5.0 mph SSW8.0 kmh SSW 10.0 mph16.1 kmh 29.59 in1002.0 mb 0.00 in0.0 mm 0.00 in0.0 mm 0.14 in3.6 mm
01:34 PM 73.3°F22.9°C 62.1°F16.7°C 68% 5.0 mph SSW8.0 kmh SSW 10.0 mph16.1 kmh 29.59 in1002.0 mb 0.00 in0.0 mm 0.00 in0.0 mm 0.14 in3.6 mm
01:35 PM 73.3°F22.9°C 62.1°F16.7°C 68% 2.0 mph WSW3.2 kmh WSW 10.0 mph16.1 kmh 29.59 in1002.0 mb 0.00 in0.0 mm 0.00 in0.0 mm 0.14 in3.6 mm
01:36 PM 73.4°F23.0°C 62.2°F16.8°C 68% 3.0 mph SW4.8 kmh SW 10.0 mph16.1 kmh 29.59 in1002.0 mb 0.00 in0.0 mm 0.00 in0.0 mm 0.14 in3.6 mm
01:37 PM 73.4°F23.0°C 62.6°F17.0°C 69% 2.0 mph S3.2 kmh S 10.0 mph16.1 kmh 29.59 in1002.0 mb 0.00 in0.0 mm 0.00 in0.0 mm 0.14 in3.6 mm
01:38 PM 73.4°F23.0°C 62.6°F17.0°C 69% 3.0 mph S4.8 kmh S 15.0 mph24.1 kmh 29.60 in1002.4 mb 0.00 in0.0 mm 0.00 in0.0 mm 0.14 in3.6 mm
01:39 PM 73.4°F23.0°C 62.2°F16.8°C 68% 4.0 mph WSW6.4 kmh WSW 15.0 mph24.1 kmh 29.60 in1002.4 mb 0.00 in0.0 mm 0.00 in0.0 mm 0.14 in3.6 mm
01:40 PM 73.4°F23.0°C 62.2°F16.8°C 68% 2.0 mph SW3.2 kmh SW 15.0 mph24.1 kmh 29.58 in1001.7 mb 0.00 in0.0 mm 0.00 in0.0 mm 0.14 in3.6 mm
01:41 PM 73.4°F23.0°C 62.2°F16.8°C 68% 4.0 mph S6.4 kmh S 15.0 mph24.1 kmh 29.58 in1001.7 mb 0.00 in0.0 mm 0.00 in0.0 mm 0.14 in3.6 mm
01:42 PM 73.4°F23.0°C 62.2°F16.8°C 68% 6.0 mph SW9.7 kmh SW 15.0 mph24.1 kmh 29.58 in1001.7 mb 0.00 in0.0 mm 0.00 in0.0 mm 0.14 in3.6 mm
01:43 PM 73.4°F23.0°C 62.6°F17.0°C 69% 2.0 mph S3.2 kmh S 15.0 mph24.1 kmh 29.58 in1001.7 mb 0.00 in0.0 mm 0.00 in0.0 mm 0.14 in3.6 mm
01:44 PM 73.4°F23.0°C 62.6°F17.0°C 69% 9.0 mph SW14.5 kmh SW 15.0 mph24.1 kmh 29.58 in1001.7 mb 0.00 in0.0 mm 0.00 in0.0 mm 0.14 in3.6 mm
01:45 PM 73.4°F23.0°C 62.2°F16.8°C 68% 5.0 mph SSW8.0 kmh SSW 15.0 mph24.1 kmh 29.59 in1002.0 mb 0.00 in0.0 mm 0.00 in0.0 mm 0.14 in3.6 mm
01:46 PM 73.4°F23.0°C 62.2°F16.8°C 68% 3.0 mph SSW4.8 kmh SSW 15.0 mph24.1 kmh 29.59 in1002.0 mb 0.00 in0.0 mm 0.00 in0.0 mm 0.14 in3.6 mm
01:47 PM 73.3°F22.9°C 62.1°F16.7°C 68% 7.0 mph SSW11.3 kmh SSW 15.0 mph24.1 kmh 29.59 in1002.0 mb 0.00 in0.0 mm 0.00 in0.0 mm 0.14 in3.6 mm
01:48 PM 73.3°F22.9°C 62.1°F16.7°C 68% 3.0 mph SW4.8 kmh SW 12.0 mph19.3 kmh 29.59 in1002.0 mb 0.00 in0.0 mm 0.00 in0.0 mm 0.14 in3.6 mm
01:49 PM 73.3°F22.9°C 62.1°F16.7°C 68% 5.0 mph SW8.0 kmh SW 12.0 mph19.3 kmh 29.59 in1002.0 mb 0.00 in0.0 mm 0.00 in0.0 mm 0.14 in3.6 mm
01:50 PM 73.3°F22.9°C 62.1°F16.7°C 68% 5.0 mph SW8.0 kmh SW 12.0 mph19.3 kmh 29.59 in1002.0 mb 0.00 in0.0 mm 0.00 in0.0 mm 0.14 in3.6 mm
01:51 PM 73.3°F22.9°C 62.1°F16.7°C 68% 7.0 mph SW11.3 kmh SW 12.0 mph19.3 kmh 29.59 in1002.0 mb 0.00 in0.0 mm 0.00 in0.0 mm 0.14 in3.6 mm
01:52 PM 73.2°F22.9°C 62.0°F16.7°C 68% 7.0 mph SSW11.3 kmh SSW 12.0 mph19.3 kmh 29.59 in1002.0 mb 0.00 in0.0 mm 0.00 in0.0 mm 0.14 in3.6 mm
01:53 PM 73.2°F22.9°C 62.0°F16.7°C 68% 3.0 mph SW4.8 kmh SW 12.0 mph19.3 kmh 29.59 in1002.0 mb 0.00 in0.0 mm 0.00 in0.0 mm 0.14 in3.6 mm
01:54 PM 73.2°F22.9°C 62.0°F16.7°C 68% 5.0 mph SW8.0 kmh SW 12.0 mph19.3 kmh 29.59 in1002.0 mb 0.00 in0.0 mm 0.00 in0.0 mm 0.14 in3.6 mm
01:55 PM 73.1°F22.8°C 61.9°F16.6°C 68% 2.0 mph SW3.2 kmh SW 10.0 mph16.1 kmh 29.59 in1002.0 mb 0.00 in0.0 mm 0.00 in0.0 mm 0.14 in3.6 mm
01:56 PM 73.1°F22.8°C 61.9°F16.6°C 68% 1.0 mph S1.6 kmh S 10.0 mph16.1 kmh 29.59 in1002.0 mb 0.00 in0.0 mm 0.00 in0.0 mm 0.14 in3.6 mm
01:57 PM 73.1°F22.8°C 61.9°F16.6°C 68% 4.0 mph SW6.4 kmh SW 9.0 mph14.5 kmh 29.59 in1002.0 mb 0.00 in0.0 mm 0.00 in0.0 mm 0.14 in3.6 mm
01:58 PM 73.1°F22.8°C 62.3°F16.8°C 69% 3.0 mph SW4.8 kmh SW 9.0 mph14.5 kmh 29.59 in1002.0 mb 0.00 in0.0 mm 0.00 in0.0 mm 0.14 in3.6 mm
01:59 PM 73.0°F22.8°C 62.2°F16.8°C 69% 2.0 mph SW3.2 kmh SW 9.0 mph14.5 kmh 29.59 in1002.0 mb 0.00 in0.0 mm 0.00 in0.0 mm 0.14 in3.6 mm
02:00 PM 73.0°F22.8°C 62.2°F16.8°C 69% Calm Calm 9.0 mph14.5 kmh 29.59 in1002.0 mb 0.00 in0.0 mm 0.00 in0.0 mm 0.14 in3.6 mm
02:01 PM 72.9°F22.7°C 62.1°F16.7°C 69% 4.0 mph SSW6.4 kmh SSW 9.0 mph14.5 kmh 29.59 in1002.0 mb 0.00 in0.0 mm 0.00 in0.0 mm 0.14 in3.6 mm
02:02 PM 72.9°F22.7°C 61.7°F16.5°C 68% 3.0 mph WSW4.8 kmh WSW 9.0 mph14.5 kmh 29.59 in1002.0 mb 0.00 in0.0 mm 0.00 in0.0 mm 0.14 in3.6 mm
02:03 PM 72.8°F22.7°C 61.6°F16.4°C 68% 8.0 mph WSW12.9 kmh WSW 9.0 mph14.5 kmh 29.59 in1002.0 mb 0.00 in0.0 mm 0.00 in0.0 mm 0.14 in3.6 mm
02:04 PM 72.8°F22.7°C 61.6°F16.4°C 68% 3.0 mph SSW4.8 kmh SSW 9.0 mph14.5 kmh 29.59 in1002.0 mb 0.00 in0.0 mm 0.00 in0.0 mm 0.14 in3.6 mm
02:05 PM 72.7°F22.6°C 61.9°F16.6°C 69% 9.0 mph WSW14.5 kmh WSW 9.0 mph14.5 kmh 29.59 in1002.0 mb 0.00 in0.0 mm 0.00 in0.0 mm 0.14 in3.6 mm
02:06 PM 72.7°F22.6°C 61.9°F16.6°C 69% 5.0 mph SW8.0 kmh SW 11.0 mph17.7 kmh 29.59 in1002.0 mb 0.00 in0.0 mm 0.00 in0.0 mm 0.14 in3.6 mm
02:07 PM 72.6°F22.6°C 61.4°F16.3°C 68% 4.0 mph SW6.4 kmh SW 11.0 mph17.7 kmh 29.59 in1002.0 mb 0.00 in0.0 mm 0.00 in0.0 mm 0.14 in3.6 mm
02:08 PM 72.6°F22.6°C 61.8°F16.6°C 69% 4.0 mph S6.4 kmh S 11.0 mph17.7 kmh 29.59 in1002.0 mb 0.00 in0.0 mm 0.00 in0.0 mm 0.14 in3.6 mm
02:09 PM 72.5°F22.5°C 61.7°F16.5°C 69% 6.0 mph WSW9.7 kmh WSW 11.0 mph17.7 kmh 29.59 in1002.0 mb 0.00 in0.0 mm 0.00 in0.0 mm 0.14 in3.6 mm
02:10 PM 72.5°F22.5°C 61.7°F16.5°C 69% 2.0 mph S3.2 kmh S 11.0 mph17.7 kmh 29.58 in1001.7 mb 0.00 in0.0 mm 0.00 in0.0 mm 0.14 in3.6 mm
02:11 PM 72.4°F22.4°C 61.7°F16.5°C 69% 2.0 mph WSW3.2 kmh WSW 11.0 mph17.7 kmh 29.58 in1001.7 mb 0.00 in0.0 mm 0.00 in0.0 mm 0.14 in3.6 mm
02:12 PM 72.4°F22.4°C 61.7°F16.5°C 69% 4.0 mph SW6.4 kmh SW 11.0 mph17.7 kmh 29.59 in1002.0 mb 0.00 in0.0 mm 0.00 in0.0 mm 0.14 in3.6 mm
02:13 PM 72.4°F22.4°C 61.7°F16.5°C 69% 4.0 mph SSW6.4 kmh SSW 11.0 mph17.7 kmh 29.58 in1001.7 mb 0.00 in0.0 mm 0.00 in0.0 mm 0.14 in3.6 mm
02:14 PM 72.4°F22.4°C 61.7°F16.5°C 69% 3.0 mph SW4.8 kmh SW 11.0 mph17.7 kmh 29.58 in1001.7 mb 0.00 in0.0 mm 0.00 in0.0 mm 0.14 in3.6 mm
02:15 PM 72.4°F22.4°C 61.7°F16.5°C 69% 5.0 mph SW8.0 kmh SW 11.0 mph17.7 kmh 29.58 in1001.7 mb 0.00 in0.0 mm 0.00 in0.0 mm 0.14 in3.6 mm
02:16 PM 72.3°F22.4°C 61.6°F16.4°C 69% 5.0 mph WSW8.0 kmh WSW 11.0 mph17.7 kmh 29.58 in1001.7 mb 0.00 in0.0 mm 0.00 in0.0 mm 0.14 in3.6 mm
02:17 PM 72.3°F22.4°C 61.6°F16.4°C 69% 6.0 mph S9.7 kmh S 11.0 mph17.7 kmh 29.58 in1001.7 mb 0.00 in0.0 mm 0.00 in0.0 mm 0.14 in3.6 mm
02:18 PM 72.2°F22.3°C 61.5°F16.4°C 69% 1.0 mph SSW1.6 kmh SSW 11.0 mph17.7 kmh 29.58 in1001.7 mb 0.00 in0.0 mm 0.00 in0.0 mm 0.14 in3.6 mm
02:19 PM 72.2°F22.3°C 61.9°F16.6°C 70% 2.0 mph SSW3.2 kmh SSW 11.0 mph17.7 kmh 29.58 in1001.7 mb 0.00 in0.0 mm 0.00 in0.0 mm 0.14 in3.6 mm
02:20 PM 72.2°F22.3°C 61.9°F16.6°C 70% 4.0 mph SSW6.4 kmh SSW 11.0 mph17.7 kmh 29.58 in1001.7 mb 0.00 in0.0 mm 0.00 in0.0 mm 0.14 in3.6 mm
02:21 PM 72.1°F22.3°C 61.4°F16.3°C 69% 2.0 mph SW3.2 kmh SW 11.0 mph17.7 kmh 29.58 in1001.7 mb 0.00 in0.0 mm 0.00 in0.0 mm 0.14 in3.6 mm
02:22 PM 72.1°F22.3°C 61.8°F16.6°C 70% 4.0 mph W6.4 kmh W 11.0 mph17.7 kmh 29.58 in1001.7 mb 0.00 in0.0 mm 0.00 in0.0 mm 0.14 in3.6 mm
02:23 PM 72.1°F22.3°C 61.8°F16.6°C 70% 4.0 mph SSW6.4 kmh SSW 11.0 mph17.7 kmh 29.58 in1001.7 mb 0.00 in0.0 mm 0.00 in0.0 mm 0.14 in3.6 mm
02:24 PM 72.1°F22.3°C 61.8°F16.6°C 70% 5.0 mph WSW8.0 kmh WSW 11.0 mph17.7 kmh 29.58 in1001.7 mb 0.00 in0.0 mm 0.00 in0.0 mm 0.14 in3.6 mm
02:25 PM 72.0°F22.2°C 61.7°F16.5°C 70% 4.0 mph WSW6.4 kmh WSW 11.0 mph17.7 kmh 29.58 in1001.7 mb 0.00 in0.0 mm 0.00 in0.0 mm 0.14 in3.6 mm
02:26 PM 72.0°F22.2°C 61.7°F16.5°C 70% 4.0 mph SW6.4 kmh SW 10.0 mph16.1 kmh 29.59 in1002.0 mb 0.00 in0.0 mm 0.00 in0.0 mm 0.14 in3.6 mm
02:27 PM 72.0°F22.2°C 61.7°F16.5°C 70% 3.0 mph SW4.8 kmh SW 10.0 mph16.1 kmh 29.59 in1002.0 mb 0.00 in0.0 mm 0.00 in0.0 mm 0.14 in3.6 mm
02:28 PM 71.9°F22.2°C 61.6°F16.4°C 70% 8.0 mph S12.9 kmh S 10.0 mph16.1 kmh 29.59 in1002.0 mb 0.00 in0.0 mm 0.00 in0.0 mm 0.14 in3.6 mm
02:29 PM 71.9°F22.2°C 61.6°F16.4°C 70% 1.0 mph SSW1.6 kmh SSW 10.0 mph16.1 kmh 29.59 in1002.0 mb 0.00 in0.0 mm 0.00 in0.0 mm 0.14 in3.6 mm
02:30 PM 71.9°F22.2°C 61.6°F16.4°C 70% 3.0 mph SW4.8 kmh SW 10.0 mph16.1 kmh 29.59 in1002.0 mb 0.00 in0.0 mm 0.00 in0.0 mm 0.14 in3.6 mm
02:31 PM 71.9°F22.2°C 61.6°F16.4°C 70% 4.0 mph SE6.4 kmh SE 8.0 mph12.9 kmh 29.59 in1002.0 mb 0.00 in0.0 mm 0.00 in0.0 mm 0.14 in3.6 mm
02:32 PM 71.9°F22.2°C 61.6°F16.4°C 70% 5.0 mph WSW8.0 kmh WSW 8.0 mph12.9 kmh 29.60 in1002.4 mb 0.00 in0.0 mm 0.00 in0.0 mm 0.14 in3.6 mm
02:33 PM 71.8°F22.1°C 61.5°F16.4°C 70% 2.0 mph SW3.2 kmh SW 8.0 mph12.9 kmh 29.60 in1002.4 mb 0.00 in0.0 mm 0.00 in0.0 mm 0.14 in3.6 mm
02:34 PM 71.8°F22.1°C 61.9°F16.6°C 71% 3.0 mph SW4.8 kmh SW 8.0 mph12.9 kmh 29.59 in1002.0 mb 0.00 in0.0 mm 0.00 in0.0 mm 0.14 in3.6 mm
02:35 PM 71.8°F22.1°C 61.9°F16.6°C 71% 4.0 mph S6.4 kmh S 8.0 mph12.9 kmh 29.60 in1002.4 mb 0.00 in0.0 mm 0.00 in0.0 mm 0.14 in3.6 mm
02:36 PM 71.7°F22.1°C 61.8°F16.6°C 71% 2.0 mph SSW3.2 kmh SSW 8.0 mph12.9 kmh 29.60 in1002.4 mb 0.00 in0.0 mm 0.00 in0.0 mm 0.14 in3.6 mm
02:37 PM 71.7°F22.1°C 61.8°F16.6°C 71% 4.0 mph SW6.4 kmh SW 8.0 mph12.9 kmh 29.60 in1002.4 mb 0.00 in0.0 mm 0.00 in0.0 mm 0.14 in3.6 mm
02:38 PM 71.7°F22.1°C 61.8°F16.6°C 71% 2.0 mph SW3.2 kmh SW 8.0 mph12.9 kmh 29.60 in1002.4 mb 0.00 in0.0 mm 0.00 in0.0 mm 0.14 in3.6 mm
02:39 PM 71.7°F22.1°C 61.8°F16.6°C 71% 4.0 mph SSW6.4 kmh SSW 8.0 mph12.9 kmh 29.60 in1002.4 mb 0.00 in0.0 mm 0.00 in0.0 mm 0.14 in3.6 mm
02:40 PM 71.7°F22.1°C 61.8°F16.6°C 71% 1.0 mph SSW1.6 kmh SSW 8.0 mph12.9 kmh 29.60 in1002.4 mb 0.00 in0.0 mm 0.00 in0.0 mm 0.14 in3.6 mm
02:41 PM 71.7°F22.1°C 61.8°F16.6°C 71% 1.0 mph WSW1.6 kmh WSW 8.0 mph12.9 kmh 29.60 in1002.4 mb 0.00 in0.0 mm 0.00 in0.0 mm 0.14 in3.6 mm
02:42 PM 71.7°F22.1°C 62.2°F16.8°C 72% 7.0 mph SSW11.3 kmh SSW 7.0 mph11.3 kmh 29.61 in1002.7 mb 0.00 in0.0 mm 0.00 in0.0 mm 0.14 in3.6 mm
02:43 PM 71.7°F22.1°C 62.2°F16.8°C 72% 5.0 mph S8.0 kmh S 7.0 mph11.3 kmh 29.61 in1002.7 mb 0.00 in0.0 mm 0.00 in0.0 mm 0.14 in3.6 mm
02:44 PM 71.7°F22.1°C 62.2°F16.8°C 72% 6.0 mph SSW9.7 kmh SSW 10.0 mph16.1 kmh 29.61 in1002.7 mb 0.00 in0.0 mm 0.00 in0.0 mm 0.14 in3.6 mm
02:45 PM 71.7°F22.1°C 62.6°F17.0°C 73% 5.0 mph WSW8.0 kmh WSW 10.0 mph16.1 kmh 29.61 in1002.7 mb 0.00 in0.0 mm 0.00 in0.0 mm 0.14 in3.6 mm
02:46 PM 71.7°F22.1°C 62.6°F17.0°C 73% 4.0 mph SW6.4 kmh SW 10.0 mph16.1 kmh 29.61 in1002.7 mb 0.00 in0.0 mm 0.00 in0.0 mm 0.14 in3.6 mm
02:47 PM 71.7°F22.1°C 62.6°F17.0°C 73% 7.0 mph SSW11.3 kmh SSW 10.0 mph16.1 kmh 29.61 in1002.7 mb 0.00 in0.0 mm 0.00 in0.0 mm 0.14 in3.6 mm
02:48 PM 71.6°F22.0°C 62.5°F16.9°C 73% 4.0 mph SW6.4 kmh SW 12.0 mph19.3 kmh 29.61 in1002.7 mb 0.00 in0.0 mm 0.00 in0.0 mm 0.14 in3.6 mm
02:49 PM 71.6°F22.0°C 62.5°F16.9°C 73% 3.0 mph SSW4.8 kmh SSW 12.0 mph19.3 kmh 29.61 in1002.7 mb 0.00 in0.0 mm 0.00 in0.0 mm 0.14 in3.6 mm
02:50 PM 71.5°F21.9°C 62.4°F16.9°C 73% 7.0 mph SE11.3 kmh SE 12.0 mph19.3 kmh 29.61 in1002.7 mb 0.00 in0.0 mm 0.00 in0.0 mm 0.14 in3.6 mm
02:51 PM 71.5°F21.9°C 62.4°F16.9°C 73% 1.0 mph SSW1.6 kmh SSW 12.0 mph19.3 kmh 29.61 in1002.7 mb 0.00 in0.0 mm 0.00 in0.0 mm 0.14 in3.6 mm
02:52 PM 71.4°F21.9°C 62.7°F17.1°C 74% 8.0 mph S12.9 kmh S 12.0 mph19.3 kmh 29.61 in1002.7 mb 0.00 in0.0 mm 0.00 in0.0 mm 0.14 in3.6 mm
02:53 PM 71.3°F21.8°C 62.2°F16.8°C 73% 10.0 mph SE16.1 kmh SE 12.0 mph19.3 kmh 29.61 in1002.7 mb 0.00 in0.0 mm 0.00 in0.0 mm 0.14 in3.6 mm
02:54 PM 71.2°F21.8°C 62.1°F16.7°C 73% 2.0 mph SW3.2 kmh SW 12.0 mph19.3 kmh 29.61 in1002.7 mb 0.00 in0.0 mm 0.00 in0.0 mm 0.14 in3.6 mm
02:55 PM 71.2°F21.8°C 62.1°F16.7°C 73% 10.0 mph SSE16.1 kmh SSE 12.0 mph19.3 kmh 29.61 in1002.7 mb 0.00 in0.0 mm 0.00 in0.0 mm 0.14 in3.6 mm
02:56 PM 71.1°F21.7°C 62.4°F16.9°C 74% 6.0 mph S9.7 kmh S 12.0 mph19.3 kmh 29.62 in1003.0 mb 0.00 in0.0 mm 0.00 in0.0 mm 0.14 in3.6 mm
02:57 PM 71.0°F21.7°C 62.3°F16.8°C 74% 4.0 mph SSW6.4 kmh SSW 12.0 mph19.3 kmh 29.62 in1003.0 mb 0.00 in0.0 mm 0.00 in0.0 mm 0.14 in3.6 mm
02:58 PM 71.0°F21.7°C 62.3°F16.8°C 74% 10.0 mph S16.1 kmh S 12.0 mph19.3 kmh 29.62 in1003.0 mb 0.00 in0.0 mm 0.00 in0.0 mm 0.14 in3.6 mm
02:59 PM 71.0°F21.7°C 62.3°F16.8°C 74% 5.0 mph S8.0 kmh S 12.0 mph19.3 kmh 29.62 in1003.0 mb 0.00 in0.0 mm 0.00 in0.0 mm 0.14 in3.6 mm
03:00 PM 70.9°F21.6°C 62.2°F16.8°C 74% 5.0 mph S8.0 kmh S 12.0 mph19.3 kmh 29.62 in1003.0 mb 0.00 in0.0 mm 0.00 in0.0 mm 0.14 in3.6 mm
03:01 PM 70.9°F21.6°C 62.2°F16.8°C 74% 3.0 mph WSW4.8 kmh WSW 12.0 mph19.3 kmh 29.61 in1002.7 mb 0.00 in0.0 mm 0.00 in0.0 mm 0.14 in3.6 mm
03:02 PM 70.8°F21.6°C 62.1°F16.7°C 74% 4.0 mph S6.4 kmh S 12.0 mph19.3 kmh 29.61 in1002.7 mb 0.00 in0.0 mm 0.00 in0.0 mm 0.14 in3.6 mm
03:03 PM 70.8°F21.6°C 62.5°F16.9°C 75% 7.0 mph SW11.3 kmh SW 12.0 mph19.3 kmh 29.61 in1002.7 mb 0.00 in0.0 mm 0.00 in0.0 mm 0.14 in3.6 mm
03:04 PM 70.8°F21.6°C 62.5°F16.9°C 75% 5.0 mph SSW8.0 kmh SSW 12.0 mph19.3 kmh 29.61 in1002.7 mb 0.00 in0.0 mm 0.00 in0.0 mm 0.14 in3.6 mm
03:05 PM 70.8°F21.6°C 62.5°F16.9°C 75% 4.0 mph S6.4 kmh S 12.0 mph19.3 kmh 29.62 in1003.0 mb 0.00 in0.0 mm 0.00 in0.0 mm 0.14 in3.6 mm
03:06 PM 70.7°F21.5°C 62.4°F16.9°C 75% 4.0 mph SSW6.4 kmh SSW 12.0 mph19.3 kmh 29.62 in1003.0 mb 0.00 in0.0 mm 0.00 in0.0 mm 0.14 in3.6 mm
03:07 PM 70.7°F21.5°C 62.4°F16.9°C 75% 1.0 mph WSW1.6 kmh WSW 12.0 mph19.3 kmh 29.62 in1003.0 mb 0.00 in0.0 mm 0.00 in0.0 mm 0.14 in3.6 mm
03:08 PM 70.7°F21.5°C 62.4°F16.9°C 75% 7.0 mph SSW11.3 kmh SSW 12.0 mph19.3 kmh 29.61 in1002.7 mb 0.00 in0.0 mm 0.00 in0.0 mm 0.14 in3.6 mm
03:09 PM 70.7°F21.5°C 62.4°F16.9°C 75% 2.0 mph SW3.2 kmh SW 10.0 mph16.1 kmh 29.61 in1002.7 mb 0.00 in0.0 mm 0.00 in0.0 mm 0.14 in3.6 mm
03:10 PM 70.7°F21.5°C 62.4°F16.9°C 75% 5.0 mph S8.0 kmh S 10.0 mph16.1 kmh 29.61 in1002.7 mb 0.00 in0.0 mm 0.00 in0.0 mm 0.14 in3.6 mm
03:11 PM 70.7°F21.5°C 62.4°F16.9°C 75% 2.0 mph SW3.2 kmh SW 10.0 mph16.1 kmh 29.61 in1002.7 mb 0.00 in0.0 mm 0.00 in0.0 mm 0.14 in3.6 mm
03:12 PM 70.7°F21.5°C 62.4°F16.9°C 75% 7.0 mph SSW11.3 kmh SSW 10.0 mph16.1 kmh 29.61 in1002.7 mb 0.00 in0.0 mm 0.00 in0.0 mm 0.14 in3.6 mm
03:13 PM 70.7°F21.5°C 62.4°F16.9°C 75% 6.0 mph SW9.7 kmh SW 10.0 mph16.1 kmh 29.61 in1002.7 mb 0.00 in0.0 mm 0.00 in0.0 mm 0.14 in3.6 mm
03:14 PM 70.7°F21.5°C 62.4°F16.9°C 75% 6.0 mph W9.7 kmh W 10.0 mph16.1 kmh 29.61 in1002.7 mb 0.00 in0.0 mm 0.00 in0.0 mm 0.14 in3.6 mm
03:15 PM 70.6°F21.4°C 62.3°F16.8°C 75% 3.0 mph WSW4.8 kmh WSW 9.0 mph14.5 kmh 29.61 in1002.7 mb 0.00 in0.0 mm 0.00 in0.0 mm 0.14 in3.6 mm
03:16 PM 70.6°F21.4°C 62.3°F16.8°C 75% 5.0 mph SW8.0 kmh SW 9.0 mph14.5 kmh 29.61 in1002.7 mb 0.00 in0.0 mm 0.00 in0.0 mm 0.14 in3.6 mm
03:17 PM 70.7°F21.5°C 62.4°F16.9°C 75% 7.0 mph SSW11.3 kmh SSW 8.0 mph12.9 kmh 29.61 in1002.7 mb 0.00 in0.0 mm 0.00 in0.0 mm 0.14 in3.6 mm
03:18 PM 70.6°F21.4°C 62.3°F16.8°C 75% 2.0 mph SW3.2 kmh SW 9.0 mph14.5 kmh 29.60 in1002.4 mb 0.00 in0.0 mm 0.00 in0.0 mm 0.14 in3.6 mm
03:19 PM 70.6°F21.4°C 62.7°F17.1°C 76% 2.0 mph S3.2 kmh S 9.0 mph14.5 kmh 29.60 in1002.4 mb 0.00 in0.0 mm 0.00 in0.0 mm 0.14 in3.6 mm
03:20 PM 70.6°F21.4°C 62.7°F17.1°C 76% 1.0 mph SE1.6 kmh SE 9.0 mph14.5 kmh 29.61 in1002.7 mb 0.00 in0.0 mm 0.00 in0.0 mm 0.14 in3.6 mm
03:21 PM 70.6°F21.4°C 62.7°F17.1°C 76% 8.0 mph SSE12.9 kmh SSE 14.0 mph22.5 kmh 29.61 in1002.7 mb 0.00 in0.0 mm 0.00 in0.0 mm 0.14 in3.6 mm
03:22 PM 70.6°F21.4°C 62.7°F17.1°C 76% 5.0 mph S8.0 kmh S 14.0 mph22.5 kmh 29.61 in1002.7 mb 0.00 in0.0 mm 0.00 in0.0 mm 0.14 in3.6 mm
03:23 PM 70.6°F21.4°C 62.7°F17.1°C 76% 6.0 mph S9.7 kmh S 14.0 mph22.5 kmh 29.61 in1002.7 mb 0.00 in0.0 mm 0.00 in0.0 mm 0.14 in3.6 mm
03:24 PM 70.6°F21.4°C 62.7°F17.1°C 76% 1.0 mph S1.6 kmh S 14.0 mph22.5 kmh 29.61 in1002.7 mb 0.00 in0.0 mm 0.00 in0.0 mm 0.14 in3.6 mm
03:25 PM 70.6°F21.4°C 62.7°F17.1°C 76% 5.0 mph S8.0 kmh S 14.0 mph22.5 kmh 29.61 in1002.7 mb 0.00 in0.0 mm 0.00 in0.0 mm 0.14 in3.6 mm
03:26 PM 70.6°F21.4°C 62.7°F17.1°C 76% 2.0 mph S3.2 kmh S 14.0 mph22.5 kmh 29.61 in1002.7 mb 0.00 in0.0 mm 0.00 in0.0 mm 0.14 in3.6 mm
03:27 PM 70.6°F21.4°C 62.7°F17.1°C 76% 5.0 mph S8.0 kmh S 14.0 mph22.5 kmh 29.61 in1002.7 mb 0.00 in0.0 mm 0.00 in0.0 mm 0.14 in3.6 mm
03:28 PM 70.5°F21.4°C 62.6°F17.0°C 76% 6.0 mph SSW9.7 kmh SSW 14.0 mph22.5 kmh 29.60 in1002.4 mb 0.00 in0.0 mm 0.00 in0.0 mm 0.14 in3.6 mm
03:29 PM 70.5°F21.4°C 62.6°F17.0°C 76% 5.0 mph SE8.0 kmh SE 14.0 mph22.5 kmh 29.60 in1002.4 mb 0.00 in0.0 mm 0.00 in0.0 mm 0.14 in3.6 mm
03:30 PM 70.5°F21.4°C 62.9°F17.2°C 77% 1.0 mph NW1.6 kmh NW 14.0 mph22.5 kmh 29.60 in1002.4 mb 0.00 in0.0 mm 0.00 in0.0 mm 0.14 in3.6 mm
03:31 PM 70.4°F21.3°C 62.8°F17.1°C 77% 4.0 mph SW6.4 kmh SW 10.0 mph16.1 kmh 29.60 in1002.4 mb 0.00 in0.0 mm 0.00 in0.0 mm 0.14 in3.6 mm
03:32 PM 70.4°F21.3°C 62.8°F17.1°C 77% 2.0 mph SSW3.2 kmh SSW 10.0 mph16.1 kmh 29.60 in1002.4 mb 0.00 in0.0 mm 0.00 in0.0 mm 0.14 in3.6 mm
03:33 PM 70.4°F21.3°C 62.8°F17.1°C 77% 2.0 mph S3.2 kmh S 10.0 mph16.1 kmh 29.60 in1002.4 mb 0.00 in0.0 mm 0.00 in0.0 mm 0.14 in3.6 mm
03:34 PM 70.4°F21.3°C 62.8°F17.1°C 77% 3.0 mph SSE4.8 kmh SSE 10.0 mph16.1 kmh 29.60 in1002.4 mb 0.00 in0.0 mm 0.00 in0.0 mm 0.14 in3.6 mm
03:35 PM 70.4°F21.3°C 63.2°F17.3°C 78% 6.0 mph S9.7 kmh S 10.0 mph16.1 kmh 29.60 in1002.4 mb 0.00 in0.0 mm 0.00 in0.0 mm 0.14 in3.6 mm
03:36 PM 70.4°F21.3°C 63.2°F17.3°C 78% 3.0 mph SE4.8 kmh SE 10.0 mph16.1 kmh 29.61 in1002.7 mb 0.00 in0.0 mm 0.00 in0.0 mm 0.14 in3.6 mm
03:37 PM 70.4°F21.3°C 63.2°F17.3°C 78% 2.0 mph SE3.2 kmh SE 10.0 mph16.1 kmh 29.61 in1002.7 mb 0.00 in0.0 mm 0.00 in0.0 mm 0.14 in3.6 mm
03:38 PM 70.3°F21.3°C 63.1°F17.3°C 78% 5.0 mph S8.0 kmh S 9.0 mph14.5 kmh 29.61 in1002.7 mb 0.00 in0.0 mm 0.00 in0.0 mm 0.14 in3.6 mm
03:39 PM 70.3°F21.3°C 63.1°F17.3°C 78% 2.0 mph SSE3.2 kmh SSE 11.0 mph17.7 kmh 29.61 in1002.7 mb 0.00 in0.0 mm 0.00 in0.0 mm 0.14 in3.6 mm
03:40 PM 70.3°F21.3°C 63.5°F17.5°C 79% 8.0 mph SSE12.9 kmh SSE 11.0 mph17.7 kmh 29.59 in1002.0 mb 0.00 in0.0 mm 0.00 in0.0 mm 0.14 in3.6 mm
03:41 PM 70.2°F21.2°C 63.4°F17.4°C 79% 7.0 mph SE11.3 kmh SE 11.0 mph17.7 kmh 29.59 in1002.0 mb 0.00 in0.0 mm 0.00 in0.0 mm 0.14 in3.6 mm
03:42 PM 70.2°F21.2°C 63.4°F17.4°C 79% 4.0 mph SE6.4 kmh SE 11.0 mph17.7 kmh 29.59 in1002.0 mb 0.00 in0.0 mm 0.00 in0.0 mm 0.14 in3.6 mm
03:43 PM 70.1°F21.2°C 63.3°F17.4°C 79% 6.0 mph S9.7 kmh S 11.0 mph17.7 kmh 29.59 in1002.0 mb 0.00 in0.0 mm 0.00 in0.0 mm 0.14 in3.6 mm
03:44 PM 70.1°F21.2°C 63.3°F17.4°C 79% 4.0 mph SSE6.4 kmh SSE 11.0 mph17.7 kmh 29.59 in1002.0 mb 0.00 in0.0 mm 0.00 in0.0 mm 0.14 in3.6 mm
03:45 PM 70.0°F21.1°C 63.2°F17.3°C 79% 1.0 mph SE1.6 kmh SE 11.0 mph17.7 kmh 29.59 in1002.0 mb 0.00 in0.0 mm 0.00 in0.0 mm 0.14 in3.6 mm
03:46 PM 70.0°F21.1°C 63.2°F17.3°C 79% 3.0 mph SE4.8 kmh SE 11.0 mph17.7 kmh 29.59 in1002.0 mb 0.00 in0.0 mm 0.00 in0.0 mm 0.14 in3.6 mm
03:47 PM 70.0°F21.1°C 63.5°F17.5°C 80% 3.0 mph S4.8 kmh S 11.0 mph17.7 kmh 29.59 in1002.0 mb 0.00 in0.0 mm 0.00 in0.0 mm 0.14 in3.6 mm
03:48 PM 69.9°F21.1°C 63.4°F17.4°C 80% 1.0 mph ESE1.6 kmh ESE 11.0 mph17.7 kmh 29.59 in1002.0 mb 0.00 in0.0 mm 0.00 in0.0 mm 0.14 in3.6 mm
03:49 PM 69.9°F21.1°C 63.4°F17.4°C 80% 6.0 mph S9.7 kmh S 9.0 mph14.5 kmh 29.59 in1002.0 mb 0.00 in0.0 mm 0.00 in0.0 mm 0.14 in3.6 mm
03:50 PM 69.9°F21.1°C 63.4°F17.4°C 80% 2.0 mph SE3.2 kmh SE 9.0 mph14.5 kmh 29.59 in1002.0 mb 0.00 in0.0 mm 0.00 in0.0 mm 0.14 in3.6 mm
03:51 PM 69.9°F21.1°C 63.4°F17.4°C 80% 3.0 mph ESE4.8 kmh ESE 8.0 mph12.9 kmh 29.59 in1002.0 mb 0.00 in0.0 mm 0.00 in0.0 mm 0.14 in3.6 mm
03:52 PM 69.8°F21.0°C 63.3°F17.4°C 80% 8.0 mph E12.9 kmh E 8.0 mph12.9 kmh 29.59 in1002.0 mb 0.00 in0.0 mm 0.00 in0.0 mm 0.14 in3.6 mm
03:53 PM 69.8°F21.0°C 63.3°F17.4°C 80% 4.0 mph S6.4 kmh S 10.0 mph16.1 kmh 29.59 in1002.0 mb 0.00 in0.0 mm 0.00 in0.0 mm 0.14 in3.6 mm
03:54 PM 69.7°F20.9°C 63.3°F17.4°C 80% 8.0 mph SE12.9 kmh SE 14.0 mph22.5 kmh 29.59 in1002.0 mb 0.00 in0.0 mm 0.00 in0.0 mm 0.14 in3.6 mm
03:55 PM 69.6°F20.9°C 63.2°F17.3°C 80% 8.0 mph SSE12.9 kmh SSE 14.0 mph22.5 kmh 29.59 in1002.0 mb 0.00 in0.0 mm 0.00 in0.0 mm 0.14 in3.6 mm
03:56 PM 69.6°F20.9°C 63.2°F17.3°C 80% 4.0 mph ESE6.4 kmh ESE 14.0 mph22.5 kmh 29.59 in1002.0 mb 0.00 in0.0 mm 0.00 in0.0 mm 0.14 in3.6 mm
03:57 PM 69.5°F20.8°C 63.1°F17.3°C 80% 4.0 mph SE6.4 kmh SE 14.0 mph22.5 kmh 29.59 in1002.0 mb 0.00 in0.0 mm 0.00 in0.0 mm 0.14 in3.6 mm
03:58 PM 69.4°F20.8°C 63.0°F17.2°C 80% 5.0 mph S8.0 kmh S 14.0 mph22.5 kmh 29.60 in1002.4 mb 0.00 in0.0 mm 0.00 in0.0 mm 0.14 in3.6 mm
03:59 PM 69.4°F20.8°C 63.0°F17.2°C 80% 4.0 mph SE6.4 kmh SE 14.0 mph22.5 kmh 29.60 in1002.4 mb 0.00 in0.0 mm 0.00 in0.0 mm 0.14 in3.6 mm
04:00 PM 69.3°F20.7°C 62.9°F17.2°C 80% 4.0 mph SE6.4 kmh SE 14.0 mph22.5 kmh 29.60 in1002.4 mb 0.00 in0.0 mm 0.00 in0.0 mm 0.14 in3.6 mm
04:01 PM 69.2°F20.7°C 62.8°F17.1°C 80% 8.0 mph SE12.9 kmh SE 14.0 mph22.5 kmh 29.60 in1002.4 mb 0.00 in0.0 mm 0.00 in0.0 mm 0.14 in3.6 mm
04:02 PM 69.1°F20.6°C 63.0°F17.2°C 81% 5.0 mph SSE8.0 kmh SSE 16.0 mph25.7 kmh 29.61 in1002.7 mb 0.00 in0.0 mm 0.00 in0.0 mm 0.14 in3.6 mm
04:03 PM 69.0°F20.6°C 62.9°F17.2°C 81% 4.0 mph SE6.4 kmh SE 16.0 mph25.7 kmh 29.61 in1002.7 mb 0.00 in0.0 mm 0.00 in0.0 mm 0.14 in3.6 mm
04:04 PM 69.0°F20.6°C 62.9°F17.2°C 81% 4.0 mph SSE6.4 kmh SSE 16.0 mph25.7 kmh 29.61 in1002.7 mb 0.00 in0.0 mm 0.00 in0.0 mm 0.14 in3.6 mm
04:05 PM 68.9°F20.5°C 62.8°F17.1°C 81% 6.0 mph ESE9.7 kmh ESE 16.0 mph25.7 kmh 29.61 in1002.7 mb 0.00 in0.0 mm 0.00 in0.0 mm 0.14 in3.6 mm
04:06 PM 68.8°F20.4°C 62.7°F17.1°C 81% 6.0 mph S9.7 kmh S 16.0 mph25.7 kmh 29.61 in1002.7 mb 0.00 in0.0 mm 0.00 in0.0 mm 0.14 in3.6 mm
04:07 PM 68.7°F20.4°C 63.0°F17.2°C 82% 6.0 mph S9.7 kmh S 16.0 mph25.7 kmh 29.61 in1002.7 mb 0.00 in0.0 mm 0.00 in0.0 mm 0.14 in3.6 mm
04:08 PM 68.7°F20.4°C 63.0°F17.2°C 82% 3.0 mph SE4.8 kmh SE 16.0 mph25.7 kmh 29.61 in1002.7 mb 0.00 in0.0 mm 0.00 in0.0 mm 0.14 in3.6 mm
04:09 PM 68.6°F20.3°C 62.9°F17.2°C 82% 4.0 mph S6.4 kmh S 16.0 mph25.7 kmh 29.61 in1002.7 mb 0.00 in0.0 mm 0.00 in0.0 mm 0.14 in3.6 mm
04:10 PM 68.5°F20.3°C 62.8°F17.1°C 82% 9.0 mph SE14.5 kmh SE 16.0 mph25.7 kmh 29.61 in1002.7 mb 0.00 in0.0 mm 0.00 in0.0 mm 0.14 in3.6 mm
04:11 PM 68.5°F20.3°C 62.8°F17.1°C 82% 7.0 mph SE11.3 kmh SE 16.0 mph25.7 kmh 29.61 in1002.7 mb 0.00 in0.0 mm 0.00 in0.0 mm 0.14 in3.6 mm
04:12 PM 68.4°F20.2°C 62.7°F17.1°C 82% 7.0 mph SE11.3 kmh SE 12.0 mph19.3 kmh 29.61 in1002.7 mb 0.00 in0.0 mm 0.00 in0.0 mm 0.14 in3.6 mm
04:13 PM 68.3°F20.2°C 62.6°F17.0°C 82% 12.0 mph SSE19.3 kmh SSE 14.0 mph22.5 kmh 29.61 in1002.7 mb 0.00 in0.0 mm 0.00 in0.0 mm 0.14 in3.6 mm
04:14 PM 68.3°F20.2°C 62.9°F17.2°C 83% 4.0 mph ESE6.4 kmh ESE 14.0 mph22.5 kmh 29.61 in1002.7 mb 0.00 in0.0 mm 0.00 in0.0 mm 0.14 in3.6 mm
04:15 PM 68.2°F20.1°C 62.8°F17.1°C 83% 7.0 mph SSE11.3 kmh SSE 15.0 mph24.1 kmh 29.61 in1002.7 mb 0.00 in0.0 mm 0.00 in0.0 mm 0.14 in3.6 mm
04:16 PM 68.1°F20.1°C 62.7°F17.1°C 83% 5.0 mph S8.0 kmh S 15.0 mph24.1 kmh 29.61 in1002.7 mb 0.00 in0.0 mm 0.00 in0.0 mm 0.14 in3.6 mm
04:17 PM 68.0°F20.0°C 62.6°F17.0°C 83% 5.0 mph S8.0 kmh S 15.0 mph24.1 kmh 29.61 in1002.7 mb 0.00 in0.0 mm 0.00 in0.0 mm 0.14 in3.6 mm
04:18 PM 67.9°F19.9°C 62.5°F16.9°C 83% 4.0 mph S6.4 kmh S 15.0 mph24.1 kmh 29.62 in1003.0 mb 0.00 in0.0 mm 0.00 in0.0 mm 0.14 in3.6 mm
04:19 PM 67.9°F19.9°C 62.5°F16.9°C 83% 3.0 mph SE4.8 kmh SE 15.0 mph24.1 kmh 29.61 in1002.7 mb 0.00 in0.0 mm 0.00 in0.0 mm 0.14 in3.6 mm
04:20 PM 67.8°F19.9°C 62.4°F16.9°C 83% 5.0 mph S8.0 kmh S 15.0 mph24.1 kmh 29.61 in1002.7 mb 0.00 in0.0 mm 0.00 in0.0 mm 0.14 in3.6 mm
04:21 PM 67.7°F19.8°C 62.7°F17.1°C 84% 4.0 mph SSE6.4 kmh SSE 15.0 mph24.1 kmh 29.60 in1002.4 mb 0.00 in0.0 mm 0.00 in0.0 mm 0.14 in3.6 mm
04:22 PM 67.7°F19.8°C 62.7°F17.1°C 84% 10.0 mph S16.1 kmh S 15.0 mph24.1 kmh 29.61 in1002.7 mb 0.00 in0.0 mm 0.00 in0.0 mm 0.14 in3.6 mm
04:23 PM 67.7°F19.8°C 62.7°F17.1°C 84% 8.0 mph SW12.9 kmh SW 15.0 mph24.1 kmh 29.61 in1002.7 mb 0.00 in0.0 mm 0.00 in0.0 mm 0.14 in3.6 mm
04:24 PM 67.6°F19.8°C 62.6°F17.0°C 84% 4.0 mph S6.4 kmh S 15.0 mph24.1 kmh 29.61 in1002.7 mb 0.00 in0.0 mm 0.00 in0.0 mm 0.14 in3.6 mm
04:25 PM 67.5°F19.7°C 62.5°F16.9°C 84% 3.0 mph SE4.8 kmh SE 14.0 mph22.5 kmh 29.61 in1002.7 mb 0.00 in0.0 mm 0.00 in0.0 mm 0.14 in3.6 mm
04:26 PM 67.4°F19.7°C 62.4°F16.9°C 84% 13.0 mph S20.9 kmh S 14.0 mph22.5 kmh 29.61 in1002.7 mb 0.00 in0.0 mm 0.00 in0.0 mm 0.14 in3.6 mm
04:27 PM 67.3°F19.6°C 62.3°F16.8°C 84% 2.0 mph SW3.2 kmh SW 13.0 mph20.9 kmh 29.61 in1002.7 mb 0.00 in0.0 mm 0.00 in0.0 mm 0.14 in3.6 mm
04:28 PM 67.3°F19.6°C 62.3°F16.8°C 84% 4.0 mph SE6.4 kmh SE 13.0 mph20.9 kmh 29.61 in1002.7 mb 0.00 in0.0 mm 0.00 in0.0 mm 0.14 in3.6 mm
04:29 PM 67.2°F19.6°C 62.2°F16.8°C 84% 5.0 mph SSE8.0 kmh SSE 13.0 mph20.9 kmh 29.61 in1002.7 mb 0.00 in0.0 mm 0.00 in0.0 mm 0.14 in3.6 mm
04:30 PM 67.2°F19.6°C 62.2°F16.8°C 84% 1.0 mph S1.6 kmh S 13.0 mph20.9 kmh 29.61 in1002.7 mb 0.00 in0.0 mm 0.00 in0.0 mm 0.14 in3.6 mm
04:31 PM 67.2°F19.6°C 62.2°F16.8°C 84% 4.0 mph SSE6.4 kmh SSE 13.0 mph20.9 kmh 29.61 in1002.7 mb 0.00 in0.0 mm 0.00 in0.0 mm 0.14 in3.6 mm
04:32 PM 67.2°F19.6°C 62.2°F16.8°C 84% 3.0 mph SE4.8 kmh SE 13.0 mph20.9 kmh 29.60 in1002.4 mb 0.00 in0.0 mm 0.00 in0.0 mm 0.14 in3.6 mm
04:33 PM 67.1°F19.5°C 62.1°F16.7°C 84% 3.0 mph ESE4.8 kmh ESE 13.0 mph20.9 kmh 29.60 in1002.4 mb 0.00 in0.0 mm 0.00 in0.0 mm 0.14 in3.6 mm
04:34 PM 67.1°F19.5°C 62.1°F16.7°C 84% 4.0 mph SE6.4 kmh SE 13.0 mph20.9 kmh 29.60 in1002.4 mb 0.00 in0.0 mm 0.00 in0.0 mm 0.14 in3.6 mm
04:35 PM 67.0°F19.4°C 62.0°F16.7°C 84% 4.0 mph SE6.4 kmh SE 13.0 mph20.9 kmh 29.60 in1002.4 mb 0.00 in0.0 mm 0.00 in0.0 mm 0.14 in3.6 mm
04:36 PM 67.0°F19.4°C 62.0°F16.7°C 84% 3.0 mph S4.8 kmh S 13.0 mph20.9 kmh 29.60 in1002.4 mb 0.00 in0.0 mm 0.00 in0.0 mm 0.14 in3.6 mm
04:37 PM 67.0°F19.4°C 62.0°F16.7°C 84% 9.0 mph SSE14.5 kmh SSE 13.0 mph20.9 kmh 29.60 in1002.4 mb 0.00 in0.0 mm 0.00 in0.0 mm 0.14 in3.6 mm
04:38 PM 66.9°F19.4°C 61.9°F16.6°C 84% 5.0 mph SE8.0 kmh SE 13.0 mph20.9 kmh 29.60 in1002.4 mb 0.00 in0.0 mm 0.00 in0.0 mm 0.14 in3.6 mm
04:39 PM 66.9°F19.4°C 61.9°F16.6°C 84% 6.0 mph S9.7 kmh S 13.0 mph20.9 kmh 29.59 in1002.0 mb 0.00 in0.0 mm 0.00 in0.0 mm 0.14 in3.6 mm
04:40 PM 66.9°F19.4°C 62.2°F16.8°C 85% 5.0 mph SE8.0 kmh SE 13.0 mph20.9 kmh 29.61 in1002.7 mb 0.00 in0.0 mm 0.00 in0.0 mm 0.14 in3.6 mm
04:41 PM 66.9°F19.4°C 62.2°F16.8°C 85% 3.0 mph SE4.8 kmh SE 13.0 mph20.9 kmh 29.61 in1002.7 mb 0.00 in0.0 mm 0.00 in0.0 mm 0.14 in3.6 mm
04:42 PM 66.8°F19.3°C 62.1°F16.7°C 85% 5.0 mph SSE8.0 kmh SSE 13.0 mph20.9 kmh 29.61 in1002.7 mb 0.00 in0.0 mm 0.00 in0.0 mm 0.14 in3.6 mm
04:43 PM 66.8°F19.3°C 62.1°F16.7°C 85% 4.0 mph SSE6.4 kmh SSE 13.0 mph20.9 kmh 29.61 in1002.7 mb 0.00 in0.0 mm 0.00 in0.0 mm 0.14 in3.6 mm
04:44 PM 66.7°F19.3°C 61.7°F16.5°C 84% 3.0 mph SSE4.8 kmh SSE 13.0 mph20.9 kmh 29.61 in1002.7 mb 0.00 in0.0 mm 0.00 in0.0 mm 0.14 in3.6 mm
04:45 PM 66.7°F19.3°C 61.7°F16.5°C 84% 3.0 mph SE4.8 kmh SE 13.0 mph20.9 kmh 29.61 in1002.7 mb 0.00 in0.0 mm 0.00 in0.0 mm 0.14 in3.6 mm
04:46 PM 66.7°F19.3°C 61.7°F16.5°C 84% 1.0 mph E1.6 kmh E 10.0 mph16.1 kmh 29.61 in1002.7 mb 0.00 in0.0 mm 0.00 in0.0 mm 0.14 in3.6 mm
04:47 PM 66.7°F19.3°C 61.7°F16.5°C 84% 2.0 mph SW3.2 kmh SW 10.0 mph16.1 kmh 29.61 in1002.7 mb 0.00 in0.0 mm 0.00 in0.0 mm 0.14 in3.6 mm
04:48 PM 66.7°F19.3°C 61.7°F16.5°C 84% 2.0 mph SSE3.2 kmh SSE 10.0 mph16.1 kmh 29.61 in1002.7 mb 0.00 in0.0 mm 0.00 in0.0 mm 0.14 in3.6 mm
04:49 PM 66.7°F19.3°C 61.7°F16.5°C 84% 6.0 mph S9.7 kmh S 10.0 mph16.1 kmh 29.61 in1002.7 mb 0.00 in0.0 mm 0.00 in0.0 mm 0.14 in3.6 mm
04:50 PM 66.6°F19.2°C 61.6°F16.4°C 84% 2.0 mph S3.2 kmh S 10.0 mph16.1 kmh 29.61 in1002.7 mb 0.00 in0.0 mm 0.00 in0.0 mm 0.14 in3.6 mm
04:51 PM 66.5°F19.2°C 61.5°F16.4°C 84% 4.0 mph SSE6.4 kmh SSE 10.0 mph16.1 kmh 29.61 in1002.7 mb 0.00 in0.0 mm 0.00 in0.0 mm 0.14 in3.6 mm
04:52 PM 66.5°F19.2°C 61.5°F16.4°C 84% 6.0 mph S9.7 kmh S 10.0 mph16.1 kmh 29.61 in1002.7 mb 0.00 in0.0 mm 0.00 in0.0 mm 0.14 in3.6 mm
04:53 PM 66.5°F19.2°C 61.5°F16.4°C 84% 3.0 mph SSW4.8 kmh SSW 10.0 mph16.1 kmh 29.61 in1002.7 mb 0.00 in0.0 mm 0.00 in0.0 mm 0.14 in3.6 mm
04:54 PM 66.5°F19.2°C 61.5°F16.4°C 84% 2.0 mph SE3.2 kmh SE 10.0 mph16.1 kmh 29.61 in1002.7 mb 0.00 in0.0 mm 0.00 in0.0 mm 0.14 in3.6 mm
04:55 PM 66.5°F19.2°C 61.2°F16.2°C 83% 2.0 mph SSE3.2 kmh SSE 10.0 mph16.1 kmh 29.61 in1002.7 mb 0.00 in0.0 mm 0.00 in0.0 mm 0.14 in3.6 mm
04:56 PM 66.5°F19.2°C 61.2°F16.2°C 83% 7.0 mph SSE11.3 kmh SSE 10.0 mph16.1 kmh 29.60 in1002.4 mb 0.00 in0.0 mm 0.00 in0.0 mm 0.14 in3.6 mm
04:57 PM 66.5°F19.2°C 61.2°F16.2°C 83% 11.0 mph S17.7 kmh S 11.0 mph17.7 kmh 29.60 in1002.4 mb 0.00 in0.0 mm 0.00 in0.0 mm 0.14 in3.6 mm
04:58 PM 66.5°F19.2°C 61.2°F16.2°C 83% 8.0 mph SE12.9 kmh SE 11.0 mph17.7 kmh 29.60 in1002.4 mb 0.00 in0.0 mm 0.00 in0.0 mm 0.14 in3.6 mm
04:59 PM 66.5°F19.2°C 61.2°F16.2°C 83% 7.0 mph SE11.3 kmh SE 11.0 mph17.7 kmh 29.60 in1002.4 mb 0.00 in0.0 mm 0.00 in0.0 mm 0.14 in3.6 mm
05:00 PM 66.5°F19.2°C 61.2°F16.2°C 83% 4.0 mph SSE6.4 kmh SSE 11.0 mph17.7 kmh 29.60 in1002.4 mb 0.00 in0.0 mm 0.00 in0.0 mm 0.14 in3.6 mm
05:01 PM 66.4°F19.1°C 61.1°F16.2°C 83% 7.0 mph SE11.3 kmh SE 11.0 mph17.7 kmh 29.60 in1002.4 mb 0.00 in0.0 mm 0.00 in0.0 mm 0.14 in3.6 mm
05:02 PM 66.4°F19.1°C 60.7°F15.9°C 82% 8.0 mph SSE12.9 kmh SSE 11.0 mph17.7 kmh 29.60 in1002.4 mb 0.00 in0.0 mm 0.00 in0.0 mm 0.14 in3.6 mm
05:03 PM 66.3°F19.1°C 60.6°F15.9°C 82% 6.0 mph S9.7 kmh S 11.0 mph17.7 kmh 29.59 in1002.0 mb 0.00 in0.0 mm 0.00 in0.0 mm 0.14 in3.6 mm
05:04 PM 66.3°F19.1°C 60.6°F15.9°C 82% 4.0 mph SSE6.4 kmh SSE 11.0 mph17.7 kmh 29.59 in1002.0 mb 0.00 in0.0 mm 0.00 in0.0 mm 0.14 in3.6 mm
05:05 PM 66.2°F19.0°C 60.5°F15.8°C 82% 8.0 mph ESE12.9 kmh ESE 11.0 mph17.7 kmh 29.59 in1002.0 mb 0.00 in0.0 mm 0.00 in0.0 mm 0.14 in3.6 mm
05:06 PM 66.2°F19.0°C 60.5°F15.8°C 82% 7.0 mph SE11.3 kmh SE 11.0 mph17.7 kmh 29.59 in1002.0 mb 0.00 in0.0 mm 0.00 in0.0 mm 0.14 in3.6 mm
05:07 PM 66.2°F19.0°C 60.5°F15.8°C 82% 10.0 mph SE16.1 kmh SE 11.0 mph17.7 kmh 29.59 in1002.0 mb 0.00 in0.0 mm 0.00 in0.0 mm 0.14 in3.6 mm
05:08 PM 66.1°F18.9°C 60.4°F15.8°C 82% 5.0 mph SSE8.0 kmh SSE 10.0 mph16.1 kmh 29.59 in1002.0 mb 0.00 in0.0 mm 0.00 in0.0 mm 0.14 in3.6 mm
05:09 PM 66.1°F18.9°C 60.4°F15.8°C 82% 4.0 mph SE6.4 kmh SE 10.0 mph16.1 kmh 29.59 in1002.0 mb 0.00 in0.0 mm 0.00 in0.0 mm 0.14 in3.6 mm
05:10 PM 66.0°F18.9°C 60.3°F15.7°C 82% 4.0 mph S6.4 kmh S 10.0 mph16.1 kmh 29.60 in1002.4 mb 0.00 in0.0 mm 0.00 in0.0 mm 0.14 in3.6 mm
05:11 PM 66.0°F18.9°C 60.3°F15.7°C 82% 5.0 mph SE8.0 kmh SE 10.0 mph16.1 kmh 29.59 in1002.0 mb 0.00 in0.0 mm 0.00 in0.0 mm 0.14 in3.6 mm
05:12 PM 65.9°F18.8°C 60.2°F15.7°C 82% 2.0 mph S3.2 kmh S 10.0 mph16.1 kmh 29.59 in1002.0 mb 0.00 in0.0 mm 0.00 in0.0 mm 0.14 in3.6 mm
05:13 PM 65.9°F18.8°C 60.2°F15.7°C 82% 1.0 mph S1.6 kmh S 10.0 mph16.1 kmh 29.59 in1002.0 mb 0.00 in0.0 mm 0.00 in0.0 mm 0.14 in3.6 mm
05:14 PM 65.9°F18.8°C 60.2°F15.7°C 82% 2.0 mph ESE3.2 kmh ESE 10.0 mph16.1 kmh 29.59 in1002.0 mb 0.00 in0.0 mm 0.00 in0.0 mm 0.14 in3.6 mm
05:15 PM 65.8°F18.8°C 60.2°F15.7°C 82% 3.0 mph SE4.8 kmh SE 10.0 mph16.1 kmh 29.60 in1002.4 mb 0.00 in0.0 mm 0.00 in0.0 mm 0.14 in3.6 mm
05:16 PM 65.9°F18.8°C 60.2°F15.7°C 82% 2.0 mph SE3.2 kmh SE 10.0 mph16.1 kmh 29.60 in1002.4 mb 0.00 in0.0 mm 0.00 in0.0 mm 0.14 in3.6 mm
05:17 PM 65.8°F18.8°C 60.2°F15.7°C 82% 4.0 mph SSE6.4 kmh SSE 10.0 mph16.1 kmh 29.60 in1002.4 mb 0.00 in0.0 mm 0.00 in0.0 mm 0.14 in3.6 mm
05:18 PM 65.8°F18.8°C 60.2°F15.7°C 82% 4.0 mph S6.4 kmh S 8.0 mph12.9 kmh 29.60 in1002.4 mb 0.00 in0.0 mm 0.00 in0.0 mm 0.14 in3.6 mm
05:19 PM 65.8°F18.8°C 60.2°F15.7°C 82% 2.0 mph S3.2 kmh S 8.0 mph12.9 kmh 29.60 in1002.4 mb 0.00 in0.0 mm 0.00 in0.0 mm 0.14 in3.6 mm
05:20 PM 65.8°F18.8°C 60.2°F15.7°C 82% 1.0 mph S1.6 kmh S 6.0 mph9.7 kmh 29.59 in1002.0 mb 0.00 in0.0 mm 0.00 in0.0 mm 0.14 in3.6 mm
05:21 PM 65.8°F18.8°C 60.2°F15.7°C 82% 1.0 mph SSW1.6 kmh SSW 6.0 mph9.7 kmh 29.59 in1002.0 mb 0.00 in0.0 mm 0.00 in0.0 mm 0.14 in3.6 mm
05:22 PM 65.8°F18.8°C 59.8°F15.4°C 81% Calm Calm 5.0 mph8.0 kmh 29.59 in1002.0 mb 0.00 in0.0 mm 0.00 in0.0 mm 0.14 in3.6 mm
05:23 PM 65.8°F18.8°C 59.8°F15.4°C 81% 1.0 mph S1.6 kmh S 5.0 mph8.0 kmh 29.59 in1002.0 mb 0.00 in0.0 mm 0.00 in0.0 mm 0.14 in3.6 mm
05:24 PM 65.8°F18.8°C 59.8°F15.4°C 81% 2.0 mph S3.2 kmh S 5.0 mph8.0 kmh 29.59 in1002.0 mb 0.00 in0.0 mm 0.00 in0.0 mm 0.14 in3.6 mm
05:25 PM 65.8°F18.8°C 59.8°F15.4°C 81% 4.0 mph SE6.4 kmh SE 5.0 mph8.0 kmh 29.59 in1002.0 mb 0.00 in0.0 mm 0.00 in0.0 mm 0.14 in3.6 mm
05:26 PM 65.7°F18.7°C 59.7°F15.4°C 81% 5.0 mph S8.0 kmh S 7.0 mph11.3 kmh 29.59 in1002.0 mb 0.00 in0.0 mm 0.00 in0.0 mm 0.14 in3.6 mm
05:27 PM 65.7°F18.7°C 59.7°F15.4°C 81% 5.0 mph SE8.0 kmh SE 7.0 mph11.3 kmh 29.59 in1002.0 mb 0.00 in0.0 mm 0.00 in0.0 mm 0.14 in3.6 mm
05:28 PM 65.7°F18.7°C 59.4°F15.2°C 80% 6.0 mph SSE9.7 kmh SSE 8.0 mph12.9 kmh 29.59 in1002.0 mb 0.00 in0.0 mm 0.00 in0.0 mm 0.14 in3.6 mm
05:29 PM 65.7°F18.7°C 59.4°F15.2°C 80% 4.0 mph SSE6.4 kmh SSE 8.0 mph12.9 kmh 29.59 in1002.0 mb 0.00 in0.0 mm 0.00 in0.0 mm 0.14 in3.6 mm
05:30 PM 65.7°F18.7°C 59.4°F15.2°C 80% 2.0 mph SSE3.2 kmh SSE 8.0 mph12.9 kmh 29.59 in1002.0 mb 0.00 in0.0 mm 0.00 in0.0 mm 0.14 in3.6 mm
05:31 PM 65.7°F18.7°C 59.4°F15.2°C 80% 2.0 mph SSE3.2 kmh SSE 8.0 mph12.9 kmh 29.59 in1002.0 mb 0.00 in0.0 mm 0.00 in0.0 mm 0.14 in3.6 mm
05:32 PM 65.7°F18.7°C 59.4°F15.2°C 80% 5.0 mph S8.0 kmh S 8.0 mph12.9 kmh 29.59 in1002.0 mb 0.00 in0.0 mm 0.00 in0.0 mm 0.14 in3.6 mm
05:33 PM 65.7°F18.7°C 59.4°F15.2°C 80% 5.0 mph SE8.0 kmh SE 8.0 mph12.9 kmh 29.59 in1002.0 mb 0.00 in0.0 mm 0.00 in0.0 mm 0.14 in3.6 mm
05:34 PM 65.7°F18.7°C 59.4°F15.2°C 80% 2.0 mph SE3.2 kmh SE 8.0 mph12.9 kmh 29.59 in1002.0 mb 0.00 in0.0 mm 0.00 in0.0 mm 0.14 in3.6 mm
05:35 PM 65.8°F18.8°C 59.5°F15.3°C 80% 3.0 mph SE4.8 kmh SE 8.0 mph12.9 kmh 29.59 in1002.0 mb 0.00 in0.0 mm 0.00 in0.0 mm 0.14 in3.6 mm
05:36 PM 65.7°F18.7°C 59.4°F15.2°C 80% 4.0 mph SE6.4 kmh SE 8.0 mph12.9 kmh 29.59 in1002.0 mb 0.00 in0.0 mm 0.00 in0.0 mm 0.14 in3.6 mm
05:37 PM 65.7°F18.7°C 59.4°F15.2°C 80% 2.0 mph SSE3.2 kmh SSE 8.0 mph12.9 kmh 29.60 in1002.4 mb 0.00 in0.0 mm 0.00 in0.0 mm 0.14 in3.6 mm
05:38 PM 65.7°F18.7°C 59.4°F15.2°C 80% 5.0 mph SE8.0 kmh SE 8.0 mph12.9 kmh 29.59 in1002.0 mb 0.00 in0.0 mm 0.00 in0.0 mm 0.14 in3.6 mm
05:39 PM 65.7°F18.7°C 59.4°F15.2°C 80% 1.0 mph SE1.6 kmh SE 8.0 mph12.9 kmh 29.60 in1002.4 mb 0.00 in0.0 mm 0.00 in0.0 mm 0.14 in3.6 mm
05:40 PM 65.7°F18.7°C 59.4°F15.2°C 80% 2.0 mph SE3.2 kmh SE 8.0 mph12.9 kmh 29.60 in1002.4 mb 0.00 in0.0 mm 0.00 in0.0 mm 0.14 in3.6 mm
05:41 PM 65.6°F18.7°C 59.3°F15.2°C 80% 1.0 mph NE1.6 kmh NE 8.0 mph12.9 kmh 29.60 in1002.4 mb 0.00 in0.0 mm 0.00 in0.0 mm 0.14 in3.6 mm
05:42 PM 65.6°F18.7°C 59.3°F15.2°C 80% 1.0 mph NE1.6 kmh NE 8.0 mph12.9 kmh 29.60 in1002.4 mb 0.00 in0.0 mm 0.00 in0.0 mm 0.14 in3.6 mm
05:43 PM 65.5°F18.6°C 59.2°F15.1°C 80% 1.0 mph NE1.6 kmh NE 8.0 mph12.9 kmh 29.60 in1002.4 mb 0.00 in0.0 mm 0.00 in0.0 mm 0.14 in3.6 mm
05:44 PM 65.4°F18.6°C 59.1°F15.1°C 80% 1.0 mph NE1.6 kmh NE 8.0 mph12.9 kmh 29.60 in1002.4 mb 0.00 in0.0 mm 0.00 in0.0 mm 0.14 in3.6 mm
05:45 PM 65.3°F18.5°C 59.3°F15.2°C 81% 2.0 mph ESE3.2 kmh ESE 7.0 mph11.3 kmh 29.60 in1002.4 mb 0.00 in0.0 mm 0.00 in0.0 mm 0.14 in3.6 mm
05:46 PM 65.3°F18.5°C 59.3°F15.2°C 81% 1.0 mph SSE1.6 kmh SSE 7.0 mph11.3 kmh 29.60 in1002.4 mb 0.00 in0.0 mm 0.00 in0.0 mm 0.14 in3.6 mm
05:47 PM 65.2°F18.4°C 59.2°F15.1°C 81% Calm Calm 7.0 mph11.3 kmh 29.60 in1002.4 mb 0.00 in0.0 mm 0.00 in0.0 mm 0.14 in3.6 mm
05:48 PM 65.2°F18.4°C 59.2°F15.1°C 81% Calm Calm 7.0 mph11.3 kmh 29.60 in1002.4 mb 0.00 in0.0 mm 0.00 in0.0 mm 0.14 in3.6 mm
05:49 PM 65.1°F18.4°C 59.5°F15.3°C 82% Calm Calm 4.0 mph6.4 kmh 29.60 in1002.4 mb 0.00 in0.0 mm 0.00 in0.0 mm 0.14 in3.6 mm
05:50 PM 65.1°F18.4°C 59.5°F15.3°C 82% Calm Calm 4.0 mph6.4 kmh 29.59 in1002.0 mb 0.00 in0.0 mm 0.00 in0.0 mm 0.14 in3.6 mm
05:51 PM 65.0°F18.3°C 59.4°F15.2°C 82% Calm Calm 4.0 mph6.4 kmh 29.59 in1002.0 mb 0.00 in0.0 mm 0.00 in0.0 mm 0.14 in3.6 mm
05:52 PM 64.9°F18.3°C 59.3°F15.2°C 82% Calm Calm 4.0 mph6.4 kmh 29.59 in1002.0 mb 0.00 in0.0 mm 0.00 in0.0 mm 0.14 in3.6 mm
05:53 PM 64.9°F18.3°C 59.3°F15.2°C 82% Calm Calm 4.0 mph6.4 kmh 29.59 in1002.0 mb 0.00 in0.0 mm 0.00 in0.0 mm 0.14 in3.6 mm
05:54 PM 64.8°F18.2°C 59.2°F15.1°C 82% Calm Calm 4.0 mph6.4 kmh 29.59 in1002.0 mb 0.00 in0.0 mm 0.00 in0.0 mm 0.15 in3.8 mm
05:55 PM 64.8°F18.2°C 59.5°F15.3°C 83% Calm Calm 3.0 mph4.8 kmh 29.59 in1002.0 mb 0.00 in0.0 mm 0.00 in0.0 mm 0.15 in3.8 mm
05:56 PM 64.7°F18.2°C 59.4°F15.2°C 83% Calm Calm 2.0 mph3.2 kmh 29.59 in1002.0 mb 0.00 in0.0 mm 0.00 in0.0 mm 0.15 in3.8 mm
05:57 PM 64.7°F18.2°C 59.4°F15.2°C 83% Calm Calm 1.0 mph1.6 kmh 29.59 in1002.0 mb 0.00 in0.0 mm 0.00 in0.0 mm 0.15 in3.8 mm
05:58 PM 64.6°F18.1°C 59.3°F15.2°C 83% Calm Calm 1.0 mph1.6 kmh 29.59 in1002.0 mb 0.00 in0.0 mm 0.00 in0.0 mm 0.15 in3.8 mm
05:59 PM 64.5°F18.1°C 59.2°F15.1°C 83% Calm Calm 1.0 mph1.6 kmh 29.59 in1002.0 mb 0.00 in0.0 mm 0.00 in0.0 mm 0.15 in3.8 mm
06:00 PM 64.5°F18.1°C 59.2°F15.1°C 83% Calm Calm 1.0 mph1.6 kmh 29.59 in1002.0 mb 0.00 in0.0 mm 0.00 in0.0 mm 0.15 in3.8 mm
06:01 PM 64.5°F18.1°C 59.2°F15.1°C 83% Calm Calm 1.0 mph1.6 kmh 29.59 in1002.0 mb 0.00 in0.0 mm 0.00 in0.0 mm 0.15 in3.8 mm
06:02 PM 64.4°F18.0°C 59.1°F15.1°C 83% 1.0 mph SSE1.6 kmh SSE 1.0 mph1.6 kmh 29.59 in1002.0 mb 0.00 in0.0 mm 0.00 in0.0 mm 0.15 in3.8 mm
06:03 PM 64.3°F17.9°C 59.4°F15.2°C 84% Calm Calm 1.0 mph1.6 kmh 29.60 in1002.4 mb 0.00 in0.0 mm 0.00 in0.0 mm 0.15 in3.8 mm
06:04 PM 64.3°F17.9°C 59.4°F15.2°C 84% Calm Calm 1.0 mph1.6 kmh 29.60 in1002.4 mb 0.00 in0.0 mm 0.00 in0.0 mm 0.15 in3.8 mm
06:05 PM 64.3°F17.9°C 59.4°F15.2°C 84% Calm Calm 1.0 mph1.6 kmh 29.60 in1002.4 mb 0.00 in0.0 mm 0.00 in0.0 mm 0.15 in3.8 mm
06:06 PM 64.3°F17.9°C 59.4°F15.2°C 84% Calm Calm 1.0 mph1.6 kmh 29.60 in1002.4 mb 0.00 in0.0 mm 0.00 in0.0 mm 0.15 in3.8 mm
06:07 PM 64.2°F17.9°C 59.3°F15.2°C 84% Calm Calm 1.0 mph1.6 kmh 29.60 in1002.4 mb 0.00 in0.0 mm 0.00 in0.0 mm 0.15 in3.8 mm
06:08 PM 64.2°F17.9°C 59.3°F15.2°C 84% Calm Calm 1.0 mph1.6 kmh 29.61 in1002.7 mb 0.00 in0.0 mm 0.00 in0.0 mm 0.15 in3.8 mm
06:09 PM 64.2°F17.9°C 59.6°F15.3°C 85% Calm Calm 1.0 mph1.6 kmh 29.61 in1002.7 mb 0.00 in0.0 mm 0.00 in0.0 mm 0.15 in3.8 mm
06:10 PM 64.1°F17.8°C 59.5°F15.3°C 85% 1.0 mph SSE1.6 kmh SSE 1.0 mph1.6 kmh 29.61 in1002.7 mb 0.00 in0.0 mm 0.00 in0.0 mm 0.15 in3.8 mm
06:11 PM 64.1°F17.8°C 59.5°F15.3°C 85% Calm Calm 3.0 mph4.8 kmh 29.61 in1002.7 mb 0.00 in0.0 mm 0.00 in0.0 mm 0.15 in3.8 mm
06:12 PM 64.1°F17.8°C 59.5°F15.3°C 85% Calm Calm 3.0 mph4.8 kmh 29.61 in1002.7 mb 0.00 in0.0 mm 0.00 in0.0 mm 0.15 in3.8 mm
06:13 PM 64.0°F17.8°C 59.4°F15.2°C 85% Calm Calm 3.0 mph4.8 kmh 29.61 in1002.7 mb 0.00 in0.0 mm 0.00 in0.0 mm 0.15 in3.8 mm
06:14 PM 64.0°F17.8°C 59.4°F15.2°C 85% Calm Calm 3.0 mph4.8 kmh 29.61 in1002.7 mb 0.00 in0.0 mm 0.00 in0.0 mm 0.15 in3.8 mm
06:15 PM 63.9°F17.7°C 59.3°F15.2°C 85% Calm Calm 3.0 mph4.8 kmh 29.61 in1002.7 mb 0.00 in0.0 mm 0.00 in0.0 mm 0.15 in3.8 mm
06:16 PM 63.9°F17.7°C 59.3°F15.2°C 85% Calm Calm 3.0 mph4.8 kmh 29.61 in1002.7 mb 0.00 in0.0 mm 0.00 in0.0 mm 0.15 in3.8 mm
06:17 PM 63.9°F17.7°C 59.3°F15.2°C 85% Calm Calm 3.0 mph4.8 kmh 29.61 in1002.7 mb 0.00 in0.0 mm 0.00 in0.0 mm 0.15 in3.8 mm
06:18 PM 63.8°F17.7°C 59.5°F15.3°C 86% Calm Calm 3.0 mph4.8 kmh 29.61 in1002.7 mb 0.00 in0.0 mm 0.00 in0.0 mm 0.16 in4.1 mm
06:19 PM 63.8°F17.7°C 59.5°F15.3°C 86% Calm Calm 3.0 mph4.8 kmh 29.62 in1003.0 mb 0.00 in0.0 mm 0.00 in0.0 mm 0.16 in4.1 mm
06:20 PM 63.8°F17.7°C 59.5°F15.3°C 86% Calm Calm 3.0 mph4.8 kmh 29.60 in1002.4 mb 0.00 in0.0 mm 0.00 in0.0 mm 0.16 in4.1 mm
06:21 PM 63.8°F17.7°C 59.5°F15.3°C 86% Calm Calm 2.0 mph3.2 kmh 29.60 in1002.4 mb 0.00 in0.0 mm 0.00 in0.0 mm 0.16 in4.1 mm
06:22 PM 63.7°F17.6°C 59.4°F15.2°C 86% Calm Calm 2.0 mph3.2 kmh 29.60 in1002.4 mb 0.00 in0.0 mm 0.00 in0.0 mm 0.16 in4.1 mm
06:23 PM 63.8°F17.7°C 59.9°F15.5°C 87% Calm Calm 1.0 mph1.6 kmh 29.60 in1002.4 mb 0.00 in0.0 mm 0.00 in0.0 mm 0.16 in4.1 mm
06:24 PM 63.8°F17.7°C 59.9°F15.5°C 87% Calm Calm 1.0 mph1.6 kmh 29.60 in1002.4 mb 0.00 in0.0 mm 0.00 in0.0 mm 0.16 in4.1 mm
06:25 PM 63.9°F17.7°C 60.3°F15.7°C 88% Calm Calm 1.0 mph1.6 kmh 29.60 in1002.4 mb 0.08 in2.0 mm 4.80 in121.9 mm 0.17 in4.3 mm
06:26 PM 64.0°F17.8°C 60.4°F15.8°C 88% Calm Calm 1.0 mph1.6 kmh 29.61 in1002.7 mb 0.08 in2.0 mm 0.00 in0.0 mm 0.17 in4.3 mm
06:27 PM 64.1°F17.8°C 60.5°F15.8°C 88% 1.0 mph SSE1.6 kmh SSE 2.0 mph3.2 kmh 29.61 in1002.7 mb 0.08 in2.0 mm 0.00 in0.0 mm 0.17 in4.3 mm
06:28 PM 64.0°F17.8°C 60.4°F15.8°C 88% Calm Calm 2.0 mph3.2 kmh 29.61 in1002.7 mb 0.26 in6.6 mm 10.80 in274.3 mm 0.18 in4.6 mm
06:29 PM 64.0°F17.8°C 60.4°F15.8°C 88% Calm Calm 2.0 mph3.2 kmh 29.61 in1002.7 mb 0.47 in11.9 mm 12.60 in320.0 mm 0.19 in4.8 mm
06:31 PM 63.9°F17.7°C 60.3°F15.7°C 88% Calm Calm 2.0 mph3.2 kmh 29.61 in1002.7 mb 0.42 in10.7 mm 0.00 in0.0 mm 0.20 in5.1 mm
06:32 PM 63.9°F17.7°C 60.3°F15.7°C 88% 1.0 mph N1.6 kmh N 2.0 mph3.2 kmh 29.61 in1002.7 mb 0.47 in11.9 mm 3.00 in76.2 mm 0.21 in5.3 mm
06:33 PM 63.8°F17.7°C 60.2°F15.7°C 88% 4.0 mph NW6.4 kmh NW 6.0 mph9.7 kmh 29.61 in1002.7 mb 0.30 in7.6 mm 0.00 in0.0 mm 0.21 in5.3 mm
06:34 PM 63.6°F17.6°C 60.0°F15.6°C 88% 2.0 mph NW3.2 kmh NW 8.0 mph12.9 kmh 29.61 in1002.7 mb 0.27 in6.9 mm 0.00 in0.0 mm 0.22 in5.6 mm
06:35 PM 63.4°F17.4°C 59.5°F15.3°C 87% 1.0 mph N1.6 kmh N 9.0 mph14.5 kmh 29.61 in1002.7 mb 0.27 in6.9 mm 0.00 in0.0 mm 0.22 in5.6 mm
06:36 PM 63.0°F17.2°C 59.1°F15.1°C 87% 2.0 mph NW3.2 kmh NW 9.0 mph14.5 kmh 29.61 in1002.7 mb 0.25 in6.4 mm 0.00 in0.0 mm 0.22 in5.6 mm
06:37 PM 62.8°F17.1°C 58.9°F14.9°C 87% Calm Calm 9.0 mph14.5 kmh 29.61 in1002.7 mb 0.25 in6.4 mm 0.00 in0.0 mm 0.23 in5.8 mm
06:38 PM 62.7°F17.1°C 58.8°F14.9°C 87% Calm Calm 9.0 mph14.5 kmh 29.61 in1002.7 mb 0.25 in6.4 mm 0.00 in0.0 mm 0.23 in5.8 mm
06:39 PM 62.5°F16.9°C 58.9°F14.9°C 88% 1.0 mph NW1.6 kmh NW 9.0 mph14.5 kmh 29.61 in1002.7 mb 0.20 in5.1 mm 0.00 in0.0 mm 0.24 in6.1 mm
06:40 PM 62.4°F16.9°C 58.8°F14.9°C 88% Calm Calm 9.0 mph14.5 kmh 29.61 in1002.7 mb 0.20 in5.1 mm 0.00 in0.0 mm 0.24 in6.1 mm
06:41 PM 62.3°F16.8°C 58.7°F14.8°C 88% Calm Calm 9.0 mph14.5 kmh 29.62 in1003.0 mb 0.33 in8.4 mm 7.80 in198.1 mm 0.25 in6.4 mm
06:42 PM 62.2°F16.8°C 58.6°F14.8°C 88% Calm Calm 9.0 mph14.5 kmh 29.62 in1003.0 mb 0.33 in8.4 mm 0.00 in0.0 mm 0.25 in6.4 mm
06:43 PM 62.0°F16.7°C 58.4°F14.7°C 88% Calm Calm 9.0 mph14.5 kmh 29.62 in1003.0 mb 0.34 in8.6 mm 0.60 in15.2 mm 0.26 in6.6 mm
06:44 PM 61.9°F16.6°C 58.3°F14.6°C 88% Calm Calm 9.0 mph14.5 kmh 29.62 in1003.0 mb 0.34 in8.6 mm 0.00 in0.0 mm 0.26 in6.6 mm
06:45 PM 61.8°F16.6°C 58.2°F14.6°C 88% Calm Calm 2.0 mph3.2 kmh 29.62 in1003.0 mb 0.35 in8.9 mm 0.60 in15.2 mm 0.27 in6.9 mm
06:46 PM 61.7°F16.5°C 58.1°F14.5°C 88% Calm Calm 2.0 mph3.2 kmh 29.62 in1003.0 mb 0.31 in7.9 mm 0.00 in0.0 mm 0.27 in6.9 mm
06:47 PM 61.6°F16.4°C 58.3°F14.6°C 89% Calm Calm 2.0 mph3.2 kmh 29.62 in1003.0 mb 0.20 in5.1 mm 0.00 in0.0 mm 0.27 in6.9 mm
06:48 PM 61.6°F16.4°C 58.3°F14.6°C 89% 1.0 mph NW1.6 kmh NW 1.0 mph1.6 kmh 29.62 in1003.0 mb 0.16 in4.1 mm 0.00 in0.0 mm 0.27 in6.9 mm
06:49 PM 61.6°F16.4°C 58.3°F14.6°C 89% Calm Calm 1.0 mph1.6 kmh 29.63 in1003.4 mb 0.16 in4.1 mm 0.00 in0.0 mm 0.28 in7.1 mm
06:50 PM 61.5°F16.4°C 58.2°F14.6°C 89% Calm Calm 2.0 mph3.2 kmh 29.63 in1003.4 mb 0.16 in4.1 mm 0.00 in0.0 mm 0.28 in7.1 mm
06:51 PM 61.5°F16.4°C 58.2°F14.6°C 89% Calm Calm 2.0 mph3.2 kmh 29.62 in1003.0 mb 0.16 in4.1 mm 0.00 in0.0 mm 0.28 in7.1 mm
06:52 PM 61.4°F16.3°C 58.1°F14.5°C 89% Calm Calm 2.0 mph3.2 kmh 29.62 in1003.0 mb 0.15 in3.8 mm 0.00 in0.0 mm 0.28 in7.1 mm
06:53 PM 61.4°F16.3°C 58.1°F14.5°C 89% Calm Calm 2.0 mph3.2 kmh 29.63 in1003.4 mb 0.12 in3.0 mm 0.00 in0.0 mm 0.28 in7.1 mm
06:54 PM 61.3°F16.3°C 58.0°F14.4°C 89% Calm Calm 2.0 mph3.2 kmh 29.62 in1003.0 mb 0.10 in2.5 mm 0.00 in0.0 mm 0.28 in7.1 mm
06:55 PM 61.2°F16.2°C 57.9°F14.4°C 89% Calm Calm 2.0 mph3.2 kmh 29.62 in1003.0 mb 0.09 in2.3 mm 0.00 in0.0 mm 0.29 in7.4 mm
06:56 PM 61.2°F16.2°C 58.2°F14.6°C 90% Calm Calm 2.0 mph3.2 kmh 29.62 in1003.0 mb 0.09 in2.3 mm 0.00 in0.0 mm 0.29 in7.4 mm
06:57 PM 61.2°F16.2°C 58.2°F14.6°C 90% Calm Calm 2.0 mph3.2 kmh 29.62 in1003.0 mb 0.09 in2.3 mm 0.00 in0.0 mm 0.29 in7.4 mm
06:58 PM 61.1°F16.2°C 58.1°F14.5°C 90% 1.0 mph NW1.6 kmh NW 2.0 mph3.2 kmh 29.62 in1003.0 mb 0.09 in2.3 mm 0.00 in0.0 mm 0.29 in7.4 mm
06:59 PM 61.1°F16.2°C 58.1°F14.5°C 90% 1.0 mph NW1.6 kmh NW 2.0 mph3.2 kmh 29.63 in1003.4 mb 0.09 in2.3 mm 0.00 in0.0 mm 0.29 in7.4 mm
07:00 PM 61.1°F16.2°C 58.1°F14.5°C 90% Calm Calm 2.0 mph3.2 kmh 29.63 in1003.4 mb 0.09 in2.3 mm 0.00 in0.0 mm 0.29 in7.4 mm
07:01 PM 61.1°F16.2°C 58.1°F14.5°C 90% 1.0 mph NW1.6 kmh NW 2.0 mph3.2 kmh 29.62 in1003.0 mb 0.09 in2.3 mm 0.00 in0.0 mm 0.29 in7.4 mm
07:02 PM 61.2°F16.2°C 58.2°F14.6°C 90% 1.0 mph NW1.6 kmh NW 2.0 mph3.2 kmh 29.62 in1003.0 mb 0.08 in2.0 mm 0.00 in0.0 mm 0.29 in7.4 mm
07:03 PM 61.2°F16.2°C 58.6°F14.8°C 91% Calm Calm 2.0 mph3.2 kmh 29.63 in1003.4 mb 0.08 in2.0 mm 0.00 in0.0 mm 0.30 in7.6 mm
07:04 PM 61.2°F16.2°C 58.6°F14.8°C 91% Calm Calm 2.0 mph3.2 kmh 29.62 in1003.0 mb 0.08 in2.0 mm 0.00 in0.0 mm 0.30 in7.6 mm
07:05 PM 61.2°F16.2°C 58.6°F14.8°C 91% 1.0 mph NW1.6 kmh NW 2.0 mph3.2 kmh 29.62 in1003.0 mb 0.08 in2.0 mm 0.00 in0.0 mm 0.30 in7.6 mm
07:06 PM 61.2°F16.2°C 58.6°F14.8°C 91% Calm Calm 2.0 mph3.2 kmh 29.62 in1003.0 mb 0.08 in2.0 mm 0.00 in0.0 mm 0.30 in7.6 mm
07:07 PM 61.2°F16.2°C 58.6°F14.8°C 91% 1.0 mph NW1.6 kmh NW 2.0 mph3.2 kmh 29.62 in1003.0 mb 0.08 in2.0 mm 0.00 in0.0 mm 0.30 in7.6 mm
07:08 PM 61.2°F16.2°C 58.6°F14.8°C 91% Calm Calm 2.0 mph3.2 kmh 29.62 in1003.0 mb 0.08 in2.0 mm 0.00 in0.0 mm 0.30 in7.6 mm
07:09 PM 61.2°F16.2°C 58.6°F14.8°C 91% Calm Calm 2.0 mph3.2 kmh 29.62 in1003.0 mb 0.11 in2.8 mm 1.80 in45.7 mm 0.31 in7.9 mm
07:10 PM 61.2°F16.2°C 58.6°F14.8°C 91% Calm Calm 2.0 mph3.2 kmh 29.62 in1003.0 mb 0.11 in2.8 mm 0.00 in0.0 mm 0.31 in7.9 mm
07:11 PM 61.2°F16.2°C 58.6°F14.8°C 91% Calm Calm 2.0 mph3.2 kmh 29.62 in1003.0 mb 0.11 in2.8 mm 0.00 in0.0 mm 0.31 in7.9 mm
07:12 PM 61.2°F16.2°C 58.6°F14.8°C 91% Calm Calm 2.0 mph3.2 kmh 29.62 in1003.0 mb 0.11 in2.8 mm 0.00 in0.0 mm 0.31 in7.9 mm
07:13 PM 61.2°F16.2°C 58.6°F14.8°C 91% 1.0 mph NW1.6 kmh NW 2.0 mph3.2 kmh 29.62 in1003.0 mb 0.11 in2.8 mm 0.00 in0.0 mm 0.31 in7.9 mm
07:14 PM 61.2°F16.2°C 58.6°F14.8°C 91% Calm Calm 2.0 mph3.2 kmh 29.61 in1002.7 mb 0.11 in2.8 mm 0.00 in0.0 mm 0.32 in8.1 mm
07:15 PM 61.2°F16.2°C 58.6°F14.8°C 91% Calm Calm 2.0 mph3.2 kmh 29.61 in1002.7 mb 0.11 in2.8 mm 0.00 in0.0 mm 0.32 in8.1 mm
07:16 PM 61.2°F16.2°C 58.6°F14.8°C 91% 1.0 mph N1.6 kmh N 2.0 mph3.2 kmh 29.61 in1002.7 mb 0.11 in2.8 mm 0.00 in0.0 mm 0.32 in8.1 mm
07:17 PM 61.2°F16.2°C 58.6°F14.8°C 91% Calm Calm 2.0 mph3.2 kmh 29.61 in1002.7 mb 0.11 in2.8 mm 0.00 in0.0 mm 0.32 in8.1 mm
07:18 PM 61.1°F16.2°C 58.5°F14.7°C 91% Calm Calm 2.0 mph3.2 kmh 29.61 in1002.7 mb 0.17 in4.3 mm 3.60 in91.4 mm 0.33 in8.4 mm
07:19 PM 61.1°F16.2°C 58.5°F14.7°C 91% 1.0 mph N1.6 kmh N 2.0 mph3.2 kmh 29.61 in1002.7 mb 0.17 in4.3 mm 0.00 in0.0 mm 0.33 in8.4 mm
07:20 PM 61.1°F16.2°C 58.5°F14.7°C 91% 2.0 mph NNE3.2 kmh NNE 2.0 mph3.2 kmh 29.61 in1002.7 mb 0.17 in4.3 mm 0.00 in0.0 mm 0.33 in8.4 mm
07:21 PM 61.1°F16.2°C 58.5°F14.7°C 91% 1.0 mph ENE1.6 kmh ENE 3.0 mph4.8 kmh 29.62 in1003.0 mb 0.16 in4.1 mm 0.00 in0.0 mm 0.33 in8.4 mm
07:22 PM 61.0°F16.1°C 58.7°F14.8°C 92% Calm Calm 3.0 mph4.8 kmh 29.62 in1003.0 mb 0.15 in3.8 mm 0.00 in0.0 mm 0.34 in8.6 mm
07:23 PM 61.0°F16.1°C 58.7°F14.8°C 92% Calm Calm 3.0 mph4.8 kmh 29.62 in1003.0 mb 0.15 in3.8 mm 0.00 in0.0 mm 0.34 in8.6 mm
07:24 PM 61.0°F16.1°C 58.7°F14.8°C 92% Calm Calm 3.0 mph4.8 kmh 29.62 in1003.0 mb 0.26 in6.6 mm 6.60 in167.6 mm 0.35 in8.9 mm
07:25 PM 60.9°F16.1°C 58.6°F14.8°C 92% Calm Calm 3.0 mph4.8 kmh 29.62 in1003.0 mb 0.26 in6.6 mm 0.00 in0.0 mm 0.35 in8.9 mm
07:26 PM 60.9°F16.1°C 58.6°F14.8°C 92% 1.0 mph ENE1.6 kmh ENE 3.0 mph4.8 kmh 29.62 in1003.0 mb 0.24 in6.1 mm 0.00 in0.0 mm 0.35 in8.9 mm
07:27 PM 60.9°F16.1°C 58.6°F14.8°C 92% 2.0 mph ENE3.2 kmh ENE 3.0 mph4.8 kmh 29.62 in1003.0 mb 0.18 in4.6 mm 0.00 in0.0 mm 0.36 in9.1 mm
07:28 PM 60.8°F16.0°C 58.5°F14.7°C 92% 1.0 mph ENE1.6 kmh ENE 3.0 mph4.8 kmh 29.62 in1003.0 mb 0.18 in4.6 mm 0.00 in0.0 mm 0.36 in9.1 mm
07:29 PM 60.8°F16.0°C 58.5°F14.7°C 92% 3.0 mph ENE4.8 kmh ENE 3.0 mph4.8 kmh 29.61 in1002.7 mb 0.18 in4.6 mm 0.00 in0.0 mm 0.36 in9.1 mm
07:30 PM 60.8°F16.0°C 58.5°F14.7°C 92% 2.0 mph ENE3.2 kmh ENE 3.0 mph4.8 kmh 29.61 in1002.7 mb 0.18 in4.6 mm 0.00 in0.0 mm 0.36 in9.1 mm
07:31 PM 60.8°F16.0°C 58.5°F14.7°C 92% 2.0 mph ENE3.2 kmh ENE 3.0 mph4.8 kmh 29.61 in1002.7 mb 0.19 in4.8 mm 0.60 in15.2 mm 0.37 in9.4 mm
07:32 PM 60.8°F16.0°C 58.5°F14.7°C 92% 3.0 mph NE4.8 kmh NE 4.0 mph6.4 kmh 29.61 in1002.7 mb 0.19 in4.8 mm 0.00 in0.0 mm 0.37 in9.4 mm
07:33 PM 60.9°F16.1°C 58.6°F14.8°C 92% 3.0 mph NE4.8 kmh NE 5.0 mph8.0 kmh 29.61 in1002.7 mb 0.19 in4.8 mm 0.00 in0.0 mm 0.37 in9.4 mm
07:34 PM 60.9°F16.1°C 58.6°F14.8°C 92% 3.0 mph NE4.8 kmh NE 5.0 mph8.0 kmh 29.60 in1002.4 mb 0.15 in3.8 mm 0.00 in0.0 mm 0.37 in9.4 mm
07:35 PM 61.0°F16.1°C 58.7°F14.8°C 92% 2.0 mph NE3.2 kmh NE 5.0 mph8.0 kmh 29.60 in1002.4 mb